<?xml version="1.0" encoding="UTF-8"?>
<gpx version="1.1" creator="https://www.youtrack.es" xsi:schemaLocation="http://www.topografix.com/GPX/1/1 http://www.topografix.com/GPX/1/1/gpx.xsd http://www.garmin.com/xmlschemas/GpxExtensions/v3 http://www.garmin.com/xmlschemas/GpxExtensionsv3.xsd http://www.garmin.com/xmlschemas/TrackPointExtension/v1 http://www.garmin.com/xmlschemas/TrackPointExtensionv1.xsd" xmlns:gpxtpx="http://www.garmin.com/xmlschemas/TrackPointExtension/v1" xmlns:gpxx="http://www.garmin.com/xmlschemas/GpxExtensions/v3" xmlns:xsi="http://www.w3.org/2001/XMLSchema-instance">
  <metadata>
    <link href="https://www.youtrack.es">
      <text>YouTrack.es</text>
    </link>
    <time>2026-05-07T20:26:37Z</time>
  </metadata>
  <trk>
    <src>https://www.youtrack.es</src>
    <link href="https://www.youtrack.es/ruta/35377-nocedo-30">
      <text>YouTrack.es</text>
    </link>
    <trkseg>
      <trkpt lat="42.325256" lon="-8.803956">
        <ele>107.082</ele>
        <time>2022-01-02T00:22:16Z</time>
      </trkpt>
      <trkpt lat="42.325329" lon="-8.804502">
        <ele>105.843</ele>
        <time>1970-01-01T00:00:22Z</time>
      </trkpt>
      <trkpt lat="42.324788" lon="-8.804159">
        <ele>107.417</ele>
        <time>1970-01-01T00:00:48Z</time>
      </trkpt>
      <trkpt lat="42.324495" lon="-8.804222">
        <ele>108.208</ele>
        <time>1970-01-01T00:01:01Z</time>
      </trkpt>
      <trkpt lat="42.323819" lon="-8.805254">
        <ele>95.067</ele>
        <time>1970-01-01T00:01:38Z</time>
      </trkpt>
      <trkpt lat="42.323484" lon="-8.806166">
        <ele>86.099</ele>
        <time>1970-01-01T00:02:04Z</time>
      </trkpt>
      <trkpt lat="42.322937" lon="-8.806791">
        <ele>75.656</ele>
        <time>1970-01-01T00:02:29Z</time>
      </trkpt>
      <trkpt lat="42.322833" lon="-8.80719">
        <ele>72.222</ele>
        <time>1970-01-01T00:02:39Z</time>
      </trkpt>
      <trkpt lat="42.323094" lon="-8.807656">
        <ele>64.828</ele>
        <time>1970-01-01T00:02:55Z</time>
      </trkpt>
      <trkpt lat="42.322961" lon="-8.808555">
        <ele>60.46</ele>
        <time>1970-01-01T00:03:19Z</time>
      </trkpt>
      <trkpt lat="42.321932" lon="-8.810514">
        <ele>57.649</ele>
        <time>1970-01-01T00:04:19Z</time>
      </trkpt>
      <trkpt lat="42.321925" lon="-8.811141">
        <ele>58.656</ele>
        <time>1970-01-01T00:04:35Z</time>
      </trkpt>
      <trkpt lat="42.322227" lon="-8.811941">
        <ele>56.665</ele>
        <time>1970-01-01T00:04:58Z</time>
      </trkpt>
      <trkpt lat="42.32219" lon="-8.812543">
        <ele>55.268</ele>
        <time>1970-01-01T00:05:14Z</time>
      </trkpt>
      <trkpt lat="42.320995" lon="-8.81326">
        <ele>52.614</ele>
        <time>1970-01-01T00:06:01Z</time>
      </trkpt>
      <trkpt lat="42.320241" lon="-8.814853">
        <ele>51.608</ele>
        <time>1970-01-01T00:06:49Z</time>
      </trkpt>
      <trkpt lat="42.32018" lon="-8.815238">
        <ele>50.825</ele>
        <time>1970-01-01T00:07:00Z</time>
      </trkpt>
      <trkpt lat="42.320569" lon="-8.816475">
        <ele>49.817</ele>
        <time>1970-01-01T00:07:33Z</time>
      </trkpt>
      <trkpt lat="42.320146" lon="-8.818866">
        <ele>56.654</ele>
        <time>1970-01-01T00:08:44Z</time>
      </trkpt>
      <trkpt lat="42.320271" lon="-8.820961">
        <ele>45.43</ele>
        <time>1970-01-01T00:09:41Z</time>
      </trkpt>
      <trkpt lat="42.320874" lon="-8.820755">
        <ele>45.246</ele>
        <time>1970-01-01T00:10:55Z</time>
      </trkpt>
      <trkpt lat="42.320999" lon="-8.820523">
        <ele>47.438</ele>
        <time>1970-01-01T00:11:17Z</time>
      </trkpt>
      <trkpt lat="42.321366" lon="-8.820596">
        <ele>49.097</ele>
        <time>1970-01-01T00:12:06Z</time>
      </trkpt>
      <trkpt lat="42.321369" lon="-8.820699">
        <ele>48.854</ele>
        <time>1970-01-01T00:12:47Z</time>
      </trkpt>
      <trkpt lat="42.321292" lon="-8.82059">
        <ele>49.671</ele>
        <time>1970-01-01T00:13:43Z</time>
      </trkpt>
      <trkpt lat="42.321393" lon="-8.820574">
        <ele>49.641</ele>
        <time>1970-01-01T00:14:18Z</time>
      </trkpt>
      <trkpt lat="42.321679" lon="-8.820846">
        <ele>49.015</ele>
        <time>1970-01-01T00:14:36Z</time>
      </trkpt>
      <trkpt lat="42.321959" lon="-8.820687">
        <ele>46.208</ele>
        <time>1970-01-01T00:14:53Z</time>
      </trkpt>
      <trkpt lat="42.322218" lon="-8.820909">
        <ele>41.276</ele>
        <time>1970-01-01T00:15:16Z</time>
      </trkpt>
      <trkpt lat="42.323353" lon="-8.821038">
        <ele>44.818</ele>
        <time>1970-01-01T00:16:13Z</time>
      </trkpt>
      <trkpt lat="42.324392" lon="-8.821605">
        <ele>45.015</ele>
        <time>1970-01-01T00:16:54Z</time>
      </trkpt>
      <trkpt lat="42.325003" lon="-8.822655">
        <ele>39.631</ele>
        <time>1970-01-01T00:17:31Z</time>
      </trkpt>
      <trkpt lat="42.325109" lon="-8.823248">
        <ele>35.827</ele>
        <time>1970-01-01T00:17:46Z</time>
      </trkpt>
      <trkpt lat="42.325084" lon="-8.823779">
        <ele>29.069</ele>
        <time>1970-01-01T00:18:04Z</time>
      </trkpt>
      <trkpt lat="42.324802" lon="-8.824427">
        <ele>12.448</ele>
        <time>1970-01-01T00:18:33Z</time>
      </trkpt>
      <trkpt lat="42.324912" lon="-8.825006">
        <ele>6.445</ele>
        <time>1970-01-01T00:18:50Z</time>
      </trkpt>
      <trkpt lat="42.325881" lon="-8.825354">
        <ele>14.418</ele>
        <time>1970-01-01T00:23:34Z</time>
      </trkpt>
      <trkpt lat="42.326856" lon="-8.824781">
        <ele>21.898</ele>
        <time>1970-01-01T00:24:21Z</time>
      </trkpt>
      <trkpt lat="42.32705" lon="-8.825717">
        <ele>22.217</ele>
        <time>1970-01-01T00:24:50Z</time>
      </trkpt>
      <trkpt lat="42.327792" lon="-8.825964">
        <ele>23.408</ele>
        <time>1970-01-01T00:25:20Z</time>
      </trkpt>
      <trkpt lat="42.32798" lon="-8.826151">
        <ele>22.88</ele>
        <time>1970-01-01T00:25:30Z</time>
      </trkpt>
      <trkpt lat="42.328089" lon="-8.827119">
        <ele>4.222</ele>
        <time>1970-01-01T00:26:01Z</time>
      </trkpt>
      <trkpt lat="42.328546" lon="-8.827975">
        <ele>7.629</ele>
        <time>1970-01-01T00:26:48Z</time>
      </trkpt>
      <trkpt lat="42.329006" lon="-8.826158">
        <ele>9.245</ele>
        <time>1970-01-01T00:27:59Z</time>
      </trkpt>
      <trkpt lat="42.329127" lon="-8.82602">
        <ele>8.871</ele>
        <time>1970-01-01T00:28:06Z</time>
      </trkpt>
      <trkpt lat="42.329384" lon="-8.826097">
        <ele>9.033</ele>
        <time>1970-01-01T00:28:19Z</time>
      </trkpt>
      <trkpt lat="42.329408" lon="-8.825666">
        <ele>9.822</ele>
        <time>1970-01-01T00:28:37Z</time>
      </trkpt>
      <trkpt lat="42.329982" lon="-8.825888">
        <ele>17.679</ele>
        <time>1970-01-01T00:29:07Z</time>
      </trkpt>
      <trkpt lat="42.331009" lon="-8.825237">
        <ele>29.487</ele>
        <time>1970-01-01T00:30:03Z</time>
      </trkpt>
      <trkpt lat="42.331219" lon="-8.825631">
        <ele>28.242</ele>
        <time>1970-01-01T00:30:31Z</time>
      </trkpt>
      <trkpt lat="42.331386" lon="-8.825499">
        <ele>25.226</ele>
        <time>1970-01-01T00:30:43Z</time>
      </trkpt>
      <trkpt lat="42.3322" lon="-8.825737">
        <ele>12.608</ele>
        <time>1970-01-01T00:31:20Z</time>
      </trkpt>
      <trkpt lat="42.33245" lon="-8.825487">
        <ele>17.047</ele>
        <time>1970-01-01T00:31:38Z</time>
      </trkpt>
      <trkpt lat="42.33256" lon="-8.825109">
        <ele>24.299</ele>
        <time>1970-01-01T00:31:59Z</time>
      </trkpt>
      <trkpt lat="42.33275" lon="-8.825323">
        <ele>24.686</ele>
        <time>1970-01-01T00:32:13Z</time>
      </trkpt>
      <trkpt lat="42.333634" lon="-8.825313">
        <ele>18.222</ele>
        <time>1970-01-01T00:32:45Z</time>
      </trkpt>
      <trkpt lat="42.33429" lon="-8.824789">
        <ele>19.088</ele>
        <time>1970-01-01T00:33:17Z</time>
      </trkpt>
      <trkpt lat="42.33501" lon="-8.825166">
        <ele>17.41</ele>
        <time>1970-01-01T00:33:43Z</time>
      </trkpt>
      <trkpt lat="42.335354" lon="-8.825718">
        <ele>20.859</ele>
        <time>1970-01-01T00:34:07Z</time>
      </trkpt>
      <trkpt lat="42.335461" lon="-8.826614">
        <ele>28.836</ele>
        <time>1970-01-01T00:34:39Z</time>
      </trkpt>
      <trkpt lat="42.335098" lon="-8.829573">
        <ele>35.478</ele>
        <time>1970-01-01T00:36:18Z</time>
      </trkpt>
      <trkpt lat="42.334686" lon="-8.830023">
        <ele>34.233</ele>
        <time>1970-01-01T00:36:40Z</time>
      </trkpt>
      <trkpt lat="42.334549" lon="-8.83158">
        <ele>16.026</ele>
        <time>1970-01-01T00:37:25Z</time>
      </trkpt>
      <trkpt lat="42.334621" lon="-8.832572">
        <ele>8.608</ele>
        <time>1970-01-01T00:37:52Z</time>
      </trkpt>
      <trkpt lat="42.335063" lon="-8.832052">
        <ele>12.076</ele>
        <time>1970-01-01T00:38:20Z</time>
      </trkpt>
      <trkpt lat="42.335246" lon="-8.832052">
        <ele>13.658</ele>
        <time>1970-01-01T00:38:29Z</time>
      </trkpt>
      <trkpt lat="42.335578" lon="-8.831483">
        <ele>20.895</ele>
        <time>1970-01-01T00:38:58Z</time>
      </trkpt>
      <trkpt lat="42.335715" lon="-8.831452">
        <ele>23.251</ele>
        <time>1970-01-01T00:39:06Z</time>
      </trkpt>
      <trkpt lat="42.335941" lon="-8.831707">
        <ele>25.897</ele>
        <time>1970-01-01T00:39:20Z</time>
      </trkpt>
      <trkpt lat="42.336431" lon="-8.831421">
        <ele>32.459</ele>
        <time>1970-01-01T00:39:48Z</time>
      </trkpt>
      <trkpt lat="42.336422" lon="-8.830643">
        <ele>40.828</ele>
        <time>1970-01-01T00:40:21Z</time>
      </trkpt>
      <trkpt lat="42.336854" lon="-8.830618">
        <ele>46.255</ele>
        <time>1970-01-01T00:40:45Z</time>
      </trkpt>
      <trkpt lat="42.336885" lon="-8.83024">
        <ele>48.612</ele>
        <time>1970-01-01T00:41:02Z</time>
      </trkpt>
      <trkpt lat="42.337965" lon="-8.830154">
        <ele>48.632</ele>
        <time>1970-01-01T00:41:49Z</time>
      </trkpt>
      <trkpt lat="42.338575" lon="-8.830632">
        <ele>47.605</ele>
        <time>1970-01-01T00:42:18Z</time>
      </trkpt>
      <trkpt lat="42.339256" lon="-8.831553">
        <ele>66.008</ele>
        <time>1970-01-01T00:43:26Z</time>
      </trkpt>
      <trkpt lat="42.339483" lon="-8.831563">
        <ele>75.04</ele>
        <time>1970-01-01T00:44:06Z</time>
      </trkpt>
      <trkpt lat="42.339428" lon="-8.831829">
        <ele>77.062</ele>
        <time>1970-01-01T00:47:07Z</time>
      </trkpt>
      <trkpt lat="42.339534" lon="-8.831935">
        <ele>78.479</ele>
        <time>1970-01-01T00:47:22Z</time>
      </trkpt>
      <trkpt lat="42.339332" lon="-8.832433">
        <ele>70.065</ele>
        <time>1970-01-01T00:48:12Z</time>
      </trkpt>
      <trkpt lat="42.33954" lon="-8.832851">
        <ele>63.211</ele>
        <time>1970-01-01T00:49:26Z</time>
      </trkpt>
      <trkpt lat="42.339128" lon="-8.833376">
        <ele>43.063</ele>
        <time>1970-01-01T00:50:20Z</time>
      </trkpt>
      <trkpt lat="42.339675" lon="-8.834411">
        <ele>29.432</ele>
        <time>1970-01-01T00:50:56Z</time>
      </trkpt>
      <trkpt lat="42.339887" lon="-8.834348">
        <ele>26.679</ele>
        <time>1970-01-01T00:51:03Z</time>
      </trkpt>
      <trkpt lat="42.340279" lon="-8.833694">
        <ele>27.041</ele>
        <time>1970-01-01T00:51:28Z</time>
      </trkpt>
      <trkpt lat="42.340562" lon="-8.832793">
        <ele>30.481</ele>
        <time>1970-01-01T00:51:58Z</time>
      </trkpt>
      <trkpt lat="42.340572" lon="-8.831587">
        <ele>31.609</ele>
        <time>1970-01-01T00:52:32Z</time>
      </trkpt>
      <trkpt lat="42.33973" lon="-8.830086">
        <ele>32.208</ele>
        <time>1970-01-01T00:53:26Z</time>
      </trkpt>
      <trkpt lat="42.33965" lon="-8.829167">
        <ele>33.633</ele>
        <time>1970-01-01T00:53:53Z</time>
      </trkpt>
      <trkpt lat="42.339105" lon="-8.828852">
        <ele>33.665</ele>
        <time>1970-01-01T00:54:16Z</time>
      </trkpt>
      <trkpt lat="42.339068" lon="-8.828124">
        <ele>34.442</ele>
        <time>1970-01-01T00:54:37Z</time>
      </trkpt>
      <trkpt lat="42.338584" lon="-8.82718">
        <ele>30.888</ele>
        <time>1970-01-01T00:55:08Z</time>
      </trkpt>
      <trkpt lat="42.33858" lon="-8.826675">
        <ele>30.274</ele>
        <time>1970-01-01T00:55:23Z</time>
      </trkpt>
      <trkpt lat="42.33926" lon="-8.826545">
        <ele>20.616</ele>
        <time>1970-01-01T00:56:01Z</time>
      </trkpt>
      <trkpt lat="42.339196" lon="-8.826223">
        <ele>16.655</ele>
        <time>1970-01-01T00:56:15Z</time>
      </trkpt>
      <trkpt lat="42.339295" lon="-8.826164">
        <ele>16.432</ele>
        <time>1970-01-01T00:56:35Z</time>
      </trkpt>
      <trkpt lat="42.339101" lon="-8.825536">
        <ele>14.058</ele>
        <time>1970-01-01T00:57:25Z</time>
      </trkpt>
      <trkpt lat="42.339201" lon="-8.825306">
        <ele>11.052</ele>
        <time>1970-01-01T00:57:35Z</time>
      </trkpt>
      <trkpt lat="42.339461" lon="-8.825263">
        <ele>7.217</ele>
        <time>1970-01-01T00:57:46Z</time>
      </trkpt>
      <trkpt lat="42.33945" lon="-8.824963">
        <ele>5.408</ele>
        <time>1970-01-01T00:57:54Z</time>
      </trkpt>
      <trkpt lat="42.338342" lon="-8.824338">
        <ele>-1.524</ele>
        <time>1970-01-01T00:58:45Z</time>
      </trkpt>
      <trkpt lat="42.337892" lon="-8.824328">
        <ele>-1.986</ele>
        <time>1970-01-01T00:59:03Z</time>
      </trkpt>
      <trkpt lat="42.337454" lon="-8.824964">
        <ele>10.073</ele>
        <time>1970-01-01T00:59:40Z</time>
      </trkpt>
      <trkpt lat="42.336104" lon="-8.824534">
        <ele>8.659</ele>
        <time>1970-01-01T01:00:37Z</time>
      </trkpt>
      <trkpt lat="42.33525" lon="-8.824443">
        <ele>10.425</ele>
        <time>1970-01-01T01:01:10Z</time>
      </trkpt>
      <trkpt lat="42.334974" lon="-8.823989">
        <ele>13.457</ele>
        <time>1970-01-01T01:01:36Z</time>
      </trkpt>
      <trkpt lat="42.334545" lon="-8.823698">
        <ele>23.696</ele>
        <time>1970-01-01T01:02:21Z</time>
      </trkpt>
      <trkpt lat="42.334226" lon="-8.823858">
        <ele>34.263</ele>
        <time>1970-01-01T01:02:59Z</time>
      </trkpt>
      <trkpt lat="42.334119" lon="-8.823676">
        <ele>42.429</ele>
        <time>1970-01-01T01:03:29Z</time>
      </trkpt>
      <trkpt lat="42.333831" lon="-8.823702">
        <ele>52.4</ele>
        <time>1970-01-01T01:04:14Z</time>
      </trkpt>
      <trkpt lat="42.333734" lon="-8.823491">
        <ele>50.22</ele>
        <time>1970-01-01T01:04:29Z</time>
      </trkpt>
      <trkpt lat="42.33324" lon="-8.824012">
        <ele>35.408</ele>
        <time>1970-01-01T01:05:13Z</time>
      </trkpt>
      <trkpt lat="42.333191" lon="-8.823789">
        <ele>35.291</ele>
        <time>1970-01-01T01:05:36Z</time>
      </trkpt>
      <trkpt lat="42.332544" lon="-8.824538">
        <ele>31.643</ele>
        <time>1970-01-01T01:06:20Z</time>
      </trkpt>
      <trkpt lat="42.331797" lon="-8.824718">
        <ele>29.87</ele>
        <time>1970-01-01T01:06:53Z</time>
      </trkpt>
      <trkpt lat="42.331291" lon="-8.824095">
        <ele>34.896</ele>
        <time>1970-01-01T01:07:23Z</time>
      </trkpt>
      <trkpt lat="42.330975" lon="-8.824087">
        <ele>35.272</ele>
        <time>1970-01-01T01:07:38Z</time>
      </trkpt>
      <trkpt lat="42.330216" lon="-8.82481">
        <ele>26.864</ele>
        <time>1970-01-01T01:08:10Z</time>
      </trkpt>
      <trkpt lat="42.32978" lon="-8.825021">
        <ele>22.083</ele>
        <time>1970-01-01T01:08:26Z</time>
      </trkpt>
      <trkpt lat="42.329474" lon="-8.825471">
        <ele>14.47</ele>
        <time>1970-01-01T01:08:42Z</time>
      </trkpt>
      <trkpt lat="42.329308" lon="-8.82542">
        <ele>10.638</ele>
        <time>1970-01-01T01:08:51Z</time>
      </trkpt>
      <trkpt lat="42.329146" lon="-8.825141">
        <ele>8.47</ele>
        <time>1970-01-01T01:09:05Z</time>
      </trkpt>
      <trkpt lat="42.329227" lon="-8.824026">
        <ele>13.417</ele>
        <time>1970-01-01T01:09:43Z</time>
      </trkpt>
      <trkpt lat="42.329859" lon="-8.823038">
        <ele>25.608</ele>
        <time>1970-01-01T01:10:36Z</time>
      </trkpt>
      <trkpt lat="42.329993" lon="-8.822383">
        <ele>35.232</ele>
        <time>1970-01-01T01:11:05Z</time>
      </trkpt>
      <trkpt lat="42.330612" lon="-8.820928">
        <ele>41.464</ele>
        <time>1970-01-01T01:12:09Z</time>
      </trkpt>
      <trkpt lat="42.330669" lon="-8.820077">
        <ele>55.651</ele>
        <time>1970-01-01T01:12:52Z</time>
      </trkpt>
      <trkpt lat="42.330871" lon="-8.819769">
        <ele>59.427</ele>
        <time>1970-01-01T01:13:07Z</time>
      </trkpt>
      <trkpt lat="42.33085" lon="-8.819632">
        <ele>61.463</ele>
        <time>1970-01-01T01:13:14Z</time>
      </trkpt>
      <trkpt lat="42.330243" lon="-8.819303">
        <ele>66.635</ele>
        <time>1970-01-01T01:13:47Z</time>
      </trkpt>
      <trkpt lat="42.329347" lon="-8.81966">
        <ele>72.224</ele>
        <time>1970-01-01T01:14:28Z</time>
      </trkpt>
      <trkpt lat="42.328832" lon="-8.819495">
        <ele>77.411</ele>
        <time>1970-01-01T01:15:05Z</time>
      </trkpt>
      <trkpt lat="42.328919" lon="-8.818881">
        <ele>94.876</ele>
        <time>1970-01-01T01:16:15Z</time>
      </trkpt>
      <trkpt lat="42.329121" lon="-8.818672">
        <ele>103.09</ele>
        <time>1970-01-01T01:16:48Z</time>
      </trkpt>
      <trkpt lat="42.329197" lon="-8.818298">
        <ele>113.619</ele>
        <time>1970-01-01T01:17:30Z</time>
      </trkpt>
      <trkpt lat="42.328992" lon="-8.818446">
        <ele>112.408</ele>
        <time>1970-01-01T01:18:01Z</time>
      </trkpt>
      <trkpt lat="42.328597" lon="-8.818391">
        <ele>106.426</ele>
        <time>1970-01-01T01:18:39Z</time>
      </trkpt>
      <trkpt lat="42.328129" lon="-8.818015">
        <ele>98.818</ele>
        <time>1970-01-01T01:19:04Z</time>
      </trkpt>
      <trkpt lat="42.327521" lon="-8.817979">
        <ele>96.895</ele>
        <time>1970-01-01T01:19:29Z</time>
      </trkpt>
      <trkpt lat="42.326864" lon="-8.817743">
        <ele>98.261</ele>
        <time>1970-01-01T01:19:54Z</time>
      </trkpt>
      <trkpt lat="42.326448" lon="-8.817918">
        <ele>99.817</ele>
        <time>1970-01-01T01:20:12Z</time>
      </trkpt>
      <trkpt lat="42.326363" lon="-8.818608">
        <ele>92.859</ele>
        <time>1970-01-01T01:20:37Z</time>
      </trkpt>
      <trkpt lat="42.326587" lon="-8.819721">
        <ele>81.098</ele>
        <time>1970-01-01T01:21:11Z</time>
      </trkpt>
      <trkpt lat="42.327376" lon="-8.821065">
        <ele>67.095</ele>
        <time>1970-01-01T01:22:03Z</time>
      </trkpt>
      <trkpt lat="42.326914" lon="-8.821577">
        <ele>61.877</ele>
        <time>1970-01-01T01:22:28Z</time>
      </trkpt>
      <trkpt lat="42.326619" lon="-8.821372">
        <ele>57.461</ele>
        <time>1970-01-01T01:22:44Z</time>
      </trkpt>
      <trkpt lat="42.326324" lon="-8.821716">
        <ele>48.827</ele>
        <time>1970-01-01T01:23:00Z</time>
      </trkpt>
      <trkpt lat="42.326408" lon="-8.822622">
        <ele>35.608</ele>
        <time>1970-01-01T01:23:31Z</time>
      </trkpt>
      <trkpt lat="42.327112" lon="-8.823217">
        <ele>42.846</ele>
        <time>1970-01-01T01:24:17Z</time>
      </trkpt>
      <trkpt lat="42.327067" lon="-8.824015">
        <ele>32.248</ele>
        <time>1970-01-01T01:24:47Z</time>
      </trkpt>
      <trkpt lat="42.326141" lon="-8.82457">
        <ele>22.225</ele>
        <time>1970-01-01T01:25:27Z</time>
      </trkpt>
      <trkpt lat="42.325849" lon="-8.82526">
        <ele>14.211</ele>
        <time>1970-01-01T01:25:53Z</time>
      </trkpt>
      <trkpt lat="42.324914" lon="-8.824961">
        <ele>2.077</ele>
        <time>1970-01-01T01:26:29Z</time>
      </trkpt>
      <trkpt lat="42.32483" lon="-8.824623">
        <ele>5.239</ele>
        <time>1970-01-01T01:26:43Z</time>
      </trkpt>
      <trkpt lat="42.325158" lon="-8.823309">
        <ele>30.448</ele>
        <time>1970-01-01T01:27:57Z</time>
      </trkpt>
      <trkpt lat="42.325066" lon="-8.822582">
        <ele>36.255</ele>
        <time>1970-01-01T01:28:27Z</time>
      </trkpt>
      <trkpt lat="42.324544" lon="-8.821576">
        <ele>44.292</ele>
        <time>1970-01-01T01:29:19Z</time>
      </trkpt>
      <trkpt lat="42.325038" lon="-8.821253">
        <ele>51.273</ele>
        <time>1970-01-01T01:30:51Z</time>
      </trkpt>
      <trkpt lat="42.325094" lon="-8.819821">
        <ele>85.02</ele>
        <time>1970-01-01T01:32:42Z</time>
      </trkpt>
      <trkpt lat="42.325337" lon="-8.819448">
        <ele>93.408</ele>
        <time>1970-01-01T01:33:16Z</time>
      </trkpt>
      <trkpt lat="42.325215" lon="-8.818727">
        <ele>112.418</ele>
        <time>1970-01-01T01:34:27Z</time>
      </trkpt>
      <trkpt lat="42.325047" lon="-8.818625">
        <ele>117.45</ele>
        <time>1970-01-01T01:34:53Z</time>
      </trkpt>
      <trkpt lat="42.325172" lon="-8.818445">
        <ele>120.017</ele>
        <time>1970-01-01T01:35:16Z</time>
      </trkpt>
      <trkpt lat="42.325084" lon="-8.817582">
        <ele>103.463</ele>
        <time>1970-01-01T01:36:15Z</time>
      </trkpt>
      <trkpt lat="42.323968" lon="-8.818228">
        <ele>82.239</ele>
        <time>1970-01-01T01:37:13Z</time>
      </trkpt>
      <trkpt lat="42.323107" lon="-8.818937">
        <ele>62.671</ele>
        <time>1970-01-01T01:37:51Z</time>
      </trkpt>
      <trkpt lat="42.323142" lon="-8.818592">
        <ele>62.67</ele>
        <time>1970-01-01T01:38:11Z</time>
      </trkpt>
      <trkpt lat="42.32242" lon="-8.817737">
        <ele>73.627</ele>
        <time>1970-01-01T01:39:02Z</time>
      </trkpt>
      <trkpt lat="42.321771" lon="-8.818246">
        <ele>69.217</ele>
        <time>1970-01-01T01:39:31Z</time>
      </trkpt>
      <trkpt lat="42.321047" lon="-8.818124">
        <ele>67.087</ele>
        <time>1970-01-01T01:40:12Z</time>
      </trkpt>
      <trkpt lat="42.320385" lon="-8.818671">
        <ele>58.215</ele>
        <time>1970-01-01T01:40:41Z</time>
      </trkpt>
      <trkpt lat="42.320185" lon="-8.818415">
        <ele>56.008</ele>
        <time>1970-01-01T01:40:54Z</time>
      </trkpt>
      <trkpt lat="42.320174" lon="-8.820271">
        <ele>45.28</ele>
        <time>1970-01-01T01:41:44Z</time>
      </trkpt>
      <trkpt lat="42.320348" lon="-8.821386">
        <ele>39.492</ele>
        <time>1970-01-01T01:42:14Z</time>
      </trkpt>
      <trkpt lat="42.320103" lon="-8.821653">
        <ele>32.049</ele>
        <time>1970-01-01T01:42:35Z</time>
      </trkpt>
      <trkpt lat="42.320179" lon="-8.82199">
        <ele>28.665</ele>
        <time>1970-01-01T01:42:54Z</time>
      </trkpt>
      <trkpt lat="42.319837" lon="-8.822538">
        <ele>24.821</ele>
        <time>1970-01-01T01:43:19Z</time>
      </trkpt>
      <trkpt lat="42.319003" lon="-8.822694">
        <ele>21.253</ele>
        <time>1970-01-01T01:43:53Z</time>
      </trkpt>
      <trkpt lat="42.318781" lon="-8.823074">
        <ele>15.022</ele>
        <time>1970-01-01T01:44:14Z</time>
      </trkpt>
      <trkpt lat="42.318572" lon="-8.823075">
        <ele>13.079</ele>
        <time>1970-01-01T01:44:29Z</time>
      </trkpt>
      <trkpt lat="42.318649" lon="-8.822857">
        <ele>17.655</ele>
        <time>1970-01-01T01:44:47Z</time>
      </trkpt>
      <trkpt lat="42.318487" lon="-8.8228">
        <ele>22.607</ele>
        <time>1970-01-01T01:45:05Z</time>
      </trkpt>
      <trkpt lat="42.318487" lon="-8.822591">
        <ele>29.017</ele>
        <time>1970-01-01T01:45:25Z</time>
      </trkpt>
      <trkpt lat="42.318226" lon="-8.822611">
        <ele>31.608</ele>
        <time>1970-01-01T01:45:50Z</time>
      </trkpt>
      <trkpt lat="42.317878" lon="-8.822306">
        <ele>37.054</ele>
        <time>1970-01-01T01:46:32Z</time>
      </trkpt>
      <trkpt lat="42.317796" lon="-8.821877">
        <ele>46.076</ele>
        <time>1970-01-01T01:47:05Z</time>
      </trkpt>
      <trkpt lat="42.317463" lon="-8.822061">
        <ele>43.233</ele>
        <time>1970-01-01T01:47:29Z</time>
      </trkpt>
      <trkpt lat="42.317091" lon="-8.821952">
        <ele>35.869</ele>
        <time>1970-01-01T01:47:53Z</time>
      </trkpt>
      <trkpt lat="42.317045" lon="-8.822102">
        <ele>31.495</ele>
        <time>1970-01-01T01:48:01Z</time>
      </trkpt>
      <trkpt lat="42.31662" lon="-8.822088">
        <ele>20.247</ele>
        <time>1970-01-01T01:49:02Z</time>
      </trkpt>
      <trkpt lat="42.316389" lon="-8.821748">
        <ele>15.626</ele>
        <time>1970-01-01T01:49:41Z</time>
      </trkpt>
      <trkpt lat="42.316084" lon="-8.821841">
        <ele>10.893</ele>
        <time>1970-01-01T01:50:05Z</time>
      </trkpt>
      <trkpt lat="42.316087" lon="-8.822051">
        <ele>7.888</ele>
        <time>1970-01-01T01:50:15Z</time>
      </trkpt>
      <trkpt lat="42.315777" lon="-8.821788">
        <ele>3.824</ele>
        <time>1970-01-01T01:50:47Z</time>
      </trkpt>
      <trkpt lat="42.315191" lon="-8.821758">
        <ele>4.626</ele>
        <time>1970-01-01T01:51:27Z</time>
      </trkpt>
      <trkpt lat="42.314881" lon="-8.821998">
        <ele>4.408</ele>
        <time>1970-01-01T01:51:52Z</time>
      </trkpt>
      <trkpt lat="42.314714" lon="-8.821909">
        <ele>2.017</ele>
        <time>1970-01-01T01:52:05Z</time>
      </trkpt>
      <trkpt lat="42.314654" lon="-8.820827">
        <ele>-1.389</ele>
        <time>1970-01-01T01:52:47Z</time>
      </trkpt>
      <trkpt lat="42.314949" lon="-8.820551">
        <ele>0.256</ele>
        <time>1970-01-01T01:53:07Z</time>
      </trkpt>
      <trkpt lat="42.315194" lon="-8.819983">
        <ele>3.642</ele>
        <time>1970-01-01T01:53:31Z</time>
      </trkpt>
      <trkpt lat="42.315099" lon="-8.819037">
        <ele>0.698</ele>
        <time>1970-01-01T01:54:02Z</time>
      </trkpt>
      <trkpt lat="42.314865" lon="-8.818691">
        <ele>0.44</ele>
        <time>1970-01-01T01:54:18Z</time>
      </trkpt>
      <trkpt lat="42.314877" lon="-8.818735">
        <ele>7.469</ele>
        <time>1970-01-01T01:21:54Z</time>
      </trkpt>
      <trkpt lat="42.314682" lon="-8.818251">
        <ele>7.686</ele>
        <time>1970-01-01T01:22:11Z</time>
      </trkpt>
      <trkpt lat="42.314073" lon="-8.817943">
        <ele>4.515</ele>
        <time>1970-01-01T01:22:34Z</time>
      </trkpt>
      <trkpt lat="42.313466" lon="-8.81792">
        <ele>3.765</ele>
        <time>1970-01-01T01:22:56Z</time>
      </trkpt>
      <trkpt lat="42.313052" lon="-8.818079">
        <ele>5.711</ele>
        <time>1970-01-01T01:23:21Z</time>
      </trkpt>
      <trkpt lat="42.312959" lon="-8.817633">
        <ele>11.508</ele>
        <time>1970-01-01T01:23:35Z</time>
      </trkpt>
      <trkpt lat="42.312634" lon="-8.817149">
        <ele>19.86</ele>
        <time>1970-01-01T01:23:57Z</time>
      </trkpt>
      <trkpt lat="42.312136" lon="-8.817013">
        <ele>29.682</ele>
        <time>1970-01-01T01:24:15Z</time>
      </trkpt>
      <trkpt lat="42.311113" lon="-8.816193">
        <ele>29.619</ele>
        <time>1970-01-01T01:25:02Z</time>
      </trkpt>
      <trkpt lat="42.30998" lon="-8.816295">
        <ele>29.855</ele>
        <time>1970-01-01T01:25:44Z</time>
      </trkpt>
      <trkpt lat="42.309046" lon="-8.815802">
        <ele>23.691</ele>
        <time>1970-01-01T01:26:20Z</time>
      </trkpt>
      <trkpt lat="42.308615" lon="-8.815942">
        <ele>17.783</ele>
        <time>1970-01-01T01:26:34Z</time>
      </trkpt>
      <trkpt lat="42.308353" lon="-8.81663">
        <ele>13.312</ele>
        <time>1970-01-01T01:26:54Z</time>
      </trkpt>
      <trkpt lat="42.307888" lon="-8.816291">
        <ele>15.819</ele>
        <time>1970-01-01T01:27:21Z</time>
      </trkpt>
      <trkpt lat="42.308104" lon="-8.815307">
        <ele>29.157</ele>
        <time>1970-01-01T01:27:59Z</time>
      </trkpt>
      <trkpt lat="42.308111" lon="-8.813618">
        <ele>28.4</ele>
        <time>1970-01-01T01:29:06Z</time>
      </trkpt>
      <trkpt lat="42.307786" lon="-8.813374">
        <ele>31.22</ele>
        <time>1970-01-01T01:29:26Z</time>
      </trkpt>
      <trkpt lat="42.307134" lon="-8.813192">
        <ele>35.608</ele>
        <time>1970-01-01T01:29:57Z</time>
      </trkpt>
      <trkpt lat="42.306814" lon="-8.812292">
        <ele>35.424</ele>
        <time>1970-01-01T01:30:34Z</time>
      </trkpt>
      <trkpt lat="42.306786" lon="-8.811566">
        <ele>40.776</ele>
        <time>1970-01-01T01:31:00Z</time>
      </trkpt>
      <trkpt lat="42.307677" lon="-8.810234">
        <ele>49.613</ele>
        <time>1970-01-01T01:32:03Z</time>
      </trkpt>
      <trkpt lat="42.308221" lon="-8.809719">
        <ele>46.939</ele>
        <time>1970-01-01T01:32:31Z</time>
      </trkpt>
      <trkpt lat="42.308302" lon="-8.808752">
        <ele>55.185</ele>
        <time>1970-01-01T01:33:09Z</time>
      </trkpt>
      <trkpt lat="42.30894" lon="-8.808756">
        <ele>48.627</ele>
        <time>1970-01-01T01:33:36Z</time>
      </trkpt>
      <trkpt lat="42.30968" lon="-8.807898">
        <ele>45.176</ele>
        <time>1970-01-01T01:34:15Z</time>
      </trkpt>
      <trkpt lat="42.309714" lon="-8.807398">
        <ele>47.943</ele>
        <time>1970-01-01T01:34:34Z</time>
      </trkpt>
      <trkpt lat="42.309505" lon="-8.807016">
        <ele>54.044</ele>
        <time>1970-01-01T01:35:01Z</time>
      </trkpt>
      <trkpt lat="42.309326" lon="-8.805872">
        <ele>67.005</ele>
        <time>1970-01-01T01:35:39Z</time>
      </trkpt>
      <trkpt lat="42.309532" lon="-8.805322">
        <ele>71.515</ele>
        <time>1970-01-01T01:36:19Z</time>
      </trkpt>
      <trkpt lat="42.309686" lon="-8.805395">
        <ele>65.508</ele>
        <time>1970-01-01T01:36:32Z</time>
      </trkpt>
      <trkpt lat="42.310027" lon="-8.805065">
        <ele>63.683</ele>
        <time>1970-01-01T01:36:50Z</time>
      </trkpt>
      <trkpt lat="42.310131" lon="-8.804516">
        <ele>67.175</ele>
        <time>1970-01-01T01:37:12Z</time>
      </trkpt>
      <trkpt lat="42.3095" lon="-8.804761">
        <ele>83.912</ele>
        <time>1970-01-01T01:37:47Z</time>
      </trkpt>
      <trkpt lat="42.308987" lon="-8.804556">
        <ele>87.968</ele>
        <time>1970-01-01T01:38:22Z</time>
      </trkpt>
      <trkpt lat="42.308841" lon="-8.804158">
        <ele>94.074</ele>
        <time>1970-01-01T01:38:44Z</time>
      </trkpt>
      <trkpt lat="42.309027" lon="-8.803609">
        <ele>103.026</ele>
        <time>1970-01-01T01:39:11Z</time>
      </trkpt>
      <trkpt lat="42.308049" lon="-8.804324">
        <ele>107.285</ele>
        <time>1970-01-01T01:39:56Z</time>
      </trkpt>
      <trkpt lat="42.307108" lon="-8.805349">
        <ele>107.422</ele>
        <time>1970-01-01T01:40:52Z</time>
      </trkpt>
      <trkpt lat="42.306657" lon="-8.805441">
        <ele>112.428</ele>
        <time>1970-01-01T01:41:29Z</time>
      </trkpt>
      <trkpt lat="42.306588" lon="-8.805072">
        <ele>117.089</ele>
        <time>1970-01-01T01:42:16Z</time>
      </trkpt>
      <trkpt lat="42.306409" lon="-8.805095">
        <ele>120.217</ele>
        <time>1970-01-01T01:42:36Z</time>
      </trkpt>
      <trkpt lat="42.306382" lon="-8.804953">
        <ele>122.808</ele>
        <time>1970-01-01T01:42:56Z</time>
      </trkpt>
      <trkpt lat="42.305907" lon="-8.805101">
        <ele>128.391</ele>
        <time>1970-01-01T01:44:08Z</time>
      </trkpt>
      <trkpt lat="42.305677" lon="-8.804059">
        <ele>147.383</ele>
        <time>1970-01-01T01:46:07Z</time>
      </trkpt>
      <trkpt lat="42.306126" lon="-8.803755">
        <ele>144.83</ele>
        <time>1970-01-01T01:46:26Z</time>
      </trkpt>
      <trkpt lat="42.306344" lon="-8.803208">
        <ele>146.936</ele>
        <time>1970-01-01T01:46:41Z</time>
      </trkpt>
      <trkpt lat="42.306869" lon="-8.802835">
        <ele>140.692</ele>
        <time>1970-01-01T01:47:07Z</time>
      </trkpt>
      <trkpt lat="42.306249" lon="-8.802692">
        <ele>153.764</ele>
        <time>1970-01-01T01:47:39Z</time>
      </trkpt>
      <trkpt lat="42.305803" lon="-8.801994">
        <ele>164.993</ele>
        <time>1970-01-01T01:48:20Z</time>
      </trkpt>
      <trkpt lat="42.305769" lon="-8.801677">
        <ele>169.53</ele>
        <time>1970-01-01T01:48:43Z</time>
      </trkpt>
      <trkpt lat="42.30641" lon="-8.799107">
        <ele>192.899</ele>
        <time>1970-01-01T01:50:57Z</time>
      </trkpt>
      <trkpt lat="42.306291" lon="-8.798755">
        <ele>197.507</ele>
        <time>1970-01-01T01:51:16Z</time>
      </trkpt>
      <trkpt lat="42.305949" lon="-8.798696">
        <ele>205.027</ele>
        <time>1970-01-01T01:51:50Z</time>
      </trkpt>
      <trkpt lat="42.305603" lon="-8.798134">
        <ele>219.408</ele>
        <time>1970-01-01T01:53:04Z</time>
      </trkpt>
      <trkpt lat="42.305383" lon="-8.798638">
        <ele>223.298</ele>
        <time>1970-01-01T01:53:31Z</time>
      </trkpt>
      <trkpt lat="42.304907" lon="-8.798992">
        <ele>226.73</ele>
        <time>1970-01-01T01:54:09Z</time>
      </trkpt>
      <trkpt lat="42.304862" lon="-8.799628">
        <ele>222.277</ele>
        <time>1970-01-01T01:54:40Z</time>
      </trkpt>
      <trkpt lat="42.304596" lon="-8.800225">
        <ele>215.783</ele>
        <time>1970-01-01T01:55:09Z</time>
      </trkpt>
      <trkpt lat="42.304191" lon="-8.800208">
        <ele>219.459</ele>
        <time>1970-01-01T01:55:35Z</time>
      </trkpt>
      <trkpt lat="42.304064" lon="-8.800011">
        <ele>222.771</ele>
        <time>1970-01-01T01:55:46Z</time>
      </trkpt>
      <trkpt lat="42.30396" lon="-8.798884">
        <ele>223.28</ele>
        <time>1970-01-01T01:57:14Z</time>
      </trkpt>
      <trkpt lat="42.303725" lon="-8.798962">
        <ele>218.017</ele>
        <time>1970-01-01T01:58:25Z</time>
      </trkpt>
      <trkpt lat="42.3039" lon="-8.799115">
        <ele>223.849</ele>
        <time>1970-01-01T01:58:55Z</time>
      </trkpt>
      <trkpt lat="42.304146" lon="-8.798892">
        <ele>226.702</ele>
        <time>1970-01-01T01:59:29Z</time>
      </trkpt>
      <trkpt lat="42.304379" lon="-8.799108">
        <ele>231.522</ele>
        <time>1970-01-01T02:00:56Z</time>
      </trkpt>
      <trkpt lat="42.304697" lon="-8.798825">
        <ele>229.308</ele>
        <time>1970-01-01T02:01:57Z</time>
      </trkpt>
      <trkpt lat="42.304804" lon="-8.798878">
        <ele>228.843</ele>
        <time>1970-01-01T02:02:05Z</time>
      </trkpt>
      <trkpt lat="42.305203" lon="-8.798278">
        <ele>225.395</ele>
        <time>1970-01-01T02:02:35Z</time>
      </trkpt>
      <trkpt lat="42.30525" lon="-8.797811">
        <ele>220.432</ele>
        <time>1970-01-01T02:03:06Z</time>
      </trkpt>
      <trkpt lat="42.304643" lon="-8.797765">
        <ele>212.158</ele>
        <time>1970-01-01T02:03:43Z</time>
      </trkpt>
      <trkpt lat="42.304505" lon="-8.797487">
        <ele>203.954</ele>
        <time>1970-01-01T02:04:04Z</time>
      </trkpt>
      <trkpt lat="42.304255" lon="-8.797509">
        <ele>197.446</ele>
        <time>1970-01-01T02:04:25Z</time>
      </trkpt>
      <trkpt lat="42.303764" lon="-8.796511">
        <ele>170.455</ele>
        <time>1970-01-01T02:05:42Z</time>
      </trkpt>
      <trkpt lat="42.303337" lon="-8.796541">
        <ele>161.842</ele>
        <time>1970-01-01T02:06:20Z</time>
      </trkpt>
      <trkpt lat="42.302965" lon="-8.796054">
        <ele>146.345</ele>
        <time>1970-01-01T02:06:57Z</time>
      </trkpt>
      <trkpt lat="42.303793" lon="-8.794327">
        <ele>154.447</ele>
        <time>1970-01-01T02:08:37Z</time>
      </trkpt>
      <trkpt lat="42.303656" lon="-8.794117">
        <ele>157.211</ele>
        <time>1970-01-01T02:09:13Z</time>
      </trkpt>
      <trkpt lat="42.303599" lon="-8.794287">
        <ele>156.608</ele>
        <time>1970-01-01T02:10:01Z</time>
      </trkpt>
      <trkpt lat="42.303637" lon="-8.793984">
        <ele>158.893</ele>
        <time>1970-01-01T02:10:29Z</time>
      </trkpt>
      <trkpt lat="42.303618" lon="-8.794233">
        <ele>156.765</ele>
        <time>1970-01-01T02:11:08Z</time>
      </trkpt>
      <trkpt lat="42.303607" lon="-8.794093">
        <ele>157.812</ele>
        <time>1970-01-01T02:11:18Z</time>
      </trkpt>
      <trkpt lat="42.303805" lon="-8.794187">
        <ele>155.428</ele>
        <time>1970-01-01T02:12:18Z</time>
      </trkpt>
      <trkpt lat="42.303399" lon="-8.793727">
        <ele>161.774</ele>
        <time>1970-01-01T02:13:01Z</time>
      </trkpt>
      <trkpt lat="42.30261" lon="-8.793322">
        <ele>154.736</ele>
        <time>1970-01-01T02:13:35Z</time>
      </trkpt>
      <trkpt lat="42.30218" lon="-8.79302">
        <ele>167.1</ele>
        <time>2022-08-21T07:13:40.000Z</time>
      </trkpt>
      <trkpt lat="42.302132" lon="-8.793041">
        <ele>170.4</ele>
        <time>2022-08-21T07:13:48.000Z</time>
      </trkpt>
      <trkpt lat="42.302086" lon="-8.793055">
        <ele>168.9</ele>
        <time>2022-08-21T07:13:52.000Z</time>
      </trkpt>
      <trkpt lat="42.301817" lon="-8.793117">
        <ele>177.7</ele>
        <time>2022-08-21T07:14:04.000Z</time>
      </trkpt>
      <trkpt lat="42.301795" lon="-8.793176">
        <ele>175.1</ele>
        <time>2022-08-21T07:14:16.000Z</time>
      </trkpt>
      <trkpt lat="42.301778" lon="-8.793235">
        <ele>173.2</ele>
        <time>2022-08-21T07:14:20.000Z</time>
      </trkpt>
      <trkpt lat="42.301772" lon="-8.793302">
        <ele>172.4</ele>
        <time>2022-08-21T07:14:24.000Z</time>
      </trkpt>
      <trkpt lat="42.301742" lon="-8.793347">
        <ele>169.6</ele>
        <time>2022-08-21T07:14:33.000Z</time>
      </trkpt>
      <trkpt lat="42.301705" lon="-8.793385">
        <ele>163.6</ele>
        <time>2022-08-21T07:14:40.000Z</time>
      </trkpt>
      <trkpt lat="42.301672" lon="-8.793432">
        <ele>159</ele>
        <time>2022-08-21T07:14:47.000Z</time>
      </trkpt>
      <trkpt lat="42.301634" lon="-8.793477">
        <ele>156.6</ele>
        <time>2022-08-21T07:14:52.000Z</time>
      </trkpt>
      <trkpt lat="42.301595" lon="-8.793509">
        <ele>155.9</ele>
        <time>2022-08-21T07:14:55.000Z</time>
      </trkpt>
      <trkpt lat="42.301549" lon="-8.793547">
        <ele>154.7</ele>
        <time>2022-08-21T07:14:58.000Z</time>
      </trkpt>
      <trkpt lat="42.301506" lon="-8.793586">
        <ele>152.4</ele>
        <time>2022-08-21T07:15:02.000Z</time>
      </trkpt>
      <trkpt lat="42.301475" lon="-8.793632">
        <ele>147.8</ele>
        <time>2022-08-21T07:15:05.000Z</time>
      </trkpt>
      <trkpt lat="42.301443" lon="-8.793678">
        <ele>142.6</ele>
        <time>2022-08-21T07:15:10.000Z</time>
      </trkpt>
      <trkpt lat="42.301395" lon="-8.793666">
        <ele>141.5</ele>
        <time>2022-08-21T07:15:18.000Z</time>
      </trkpt>
      <trkpt lat="42.301312" lon="-8.793735">
        <ele>141.3</ele>
        <time>2022-08-21T07:15:24.000Z</time>
      </trkpt>
      <trkpt lat="42.301236" lon="-8.793817">
        <ele>141.4</ele>
        <time>2022-08-21T07:15:30.000Z</time>
      </trkpt>
      <trkpt lat="42.301193" lon="-8.793839">
        <ele>141.1</ele>
        <time>2022-08-21T07:15:35.000Z</time>
      </trkpt>
      <trkpt lat="42.301145" lon="-8.793856">
        <ele>139.7</ele>
        <time>2022-08-21T07:15:38.000Z</time>
      </trkpt>
      <trkpt lat="42.301106" lon="-8.79389">
        <ele>138.2</ele>
        <time>2022-08-21T07:15:42.000Z</time>
      </trkpt>
      <trkpt lat="42.301108" lon="-8.793957">
        <ele>135.2</ele>
        <time>2022-08-21T07:15:48.000Z</time>
      </trkpt>
      <trkpt lat="42.301067" lon="-8.793996">
        <ele>134.1</ele>
        <time>2022-08-21T07:15:52.000Z</time>
      </trkpt>
      <trkpt lat="42.301009" lon="-8.793995">
        <ele>132.7</ele>
        <time>2022-08-21T07:15:56.000Z</time>
      </trkpt>
      <trkpt lat="42.30096" lon="-8.793999">
        <ele>131</ele>
        <time>2022-08-21T07:16:00.000Z</time>
      </trkpt>
      <trkpt lat="42.300911" lon="-8.793995">
        <ele>130.3</ele>
        <time>2022-08-21T07:16:03.000Z</time>
      </trkpt>
      <trkpt lat="42.30087" lon="-8.794021">
        <ele>129.6</ele>
        <time>2022-08-21T07:16:06.000Z</time>
      </trkpt>
      <trkpt lat="42.300818" lon="-8.794042">
        <ele>129.7</ele>
        <time>2022-08-21T07:16:10.000Z</time>
      </trkpt>
      <trkpt lat="42.30077" lon="-8.794014">
        <ele>128.2</ele>
        <time>2022-08-21T07:16:13.000Z</time>
      </trkpt>
      <trkpt lat="42.300723" lon="-8.79401">
        <ele>125.1</ele>
        <time>2022-08-21T07:16:19.000Z</time>
      </trkpt>
      <trkpt lat="42.300674" lon="-8.794041">
        <ele>123.2</ele>
        <time>2022-08-21T07:16:23.000Z</time>
      </trkpt>
      <trkpt lat="42.300628" lon="-8.794046">
        <ele>122</ele>
        <time>2022-08-21T07:16:28.000Z</time>
      </trkpt>
      <trkpt lat="42.300578" lon="-8.79406">
        <ele>121.4</ele>
        <time>2022-08-21T07:16:31.000Z</time>
      </trkpt>
      <trkpt lat="42.300527" lon="-8.794077">
        <ele>119.8</ele>
        <time>2022-08-21T07:16:36.000Z</time>
      </trkpt>
      <trkpt lat="42.300479" lon="-8.794082">
        <ele>117.9</ele>
        <time>2022-08-21T07:16:41.000Z</time>
      </trkpt>
      <trkpt lat="42.300434" lon="-8.794096">
        <ele>116.1</ele>
        <time>2022-08-21T07:16:47.000Z</time>
      </trkpt>
      <trkpt lat="42.300393" lon="-8.794123">
        <ele>114.4</ele>
        <time>2022-08-21T07:16:52.000Z</time>
      </trkpt>
      <trkpt lat="42.30034" lon="-8.794149">
        <ele>113.5</ele>
        <time>2022-08-21T07:16:57.000Z</time>
      </trkpt>
      <trkpt lat="42.300296" lon="-8.794173">
        <ele>113.2</ele>
        <time>2022-08-21T07:17:00.000Z</time>
      </trkpt>
      <trkpt lat="42.300255" lon="-8.79421">
        <ele>113.7</ele>
        <time>2022-08-21T07:17:02.000Z</time>
      </trkpt>
      <trkpt lat="42.300216" lon="-8.794249">
        <ele>114.4</ele>
        <time>2022-08-21T07:17:06.000Z</time>
      </trkpt>
      <trkpt lat="42.300038" lon="-8.79439">
        <ele>112.5</ele>
        <time>2022-08-21T07:17:15.000Z</time>
      </trkpt>
      <trkpt lat="42.299928" lon="-8.794411">
        <ele>112.6</ele>
        <time>2022-08-21T07:17:20.000Z</time>
      </trkpt>
      <trkpt lat="42.299884" lon="-8.794425">
        <ele>110.9</ele>
        <time>2022-08-21T07:17:23.000Z</time>
      </trkpt>
      <trkpt lat="42.299851" lon="-8.794473">
        <ele>108.7</ele>
        <time>2022-08-21T07:17:28.000Z</time>
      </trkpt>
      <trkpt lat="42.299846" lon="-8.794538">
        <ele>108.7</ele>
        <time>2022-08-21T07:17:32.000Z</time>
      </trkpt>
      <trkpt lat="42.299869" lon="-8.794593">
        <ele>107.8</ele>
        <time>2022-08-21T07:17:37.000Z</time>
      </trkpt>
      <trkpt lat="42.29985" lon="-8.794652">
        <ele>105.9</ele>
        <time>2022-08-21T07:17:43.000Z</time>
      </trkpt>
      <trkpt lat="42.299767" lon="-8.794736">
        <ele>103.5</ele>
        <time>2022-08-21T07:17:49.000Z</time>
      </trkpt>
      <trkpt lat="42.299731" lon="-8.794783">
        <ele>101.8</ele>
        <time>2022-08-21T07:17:52.000Z</time>
      </trkpt>
      <trkpt lat="42.299696" lon="-8.794824">
        <ele>102.4</ele>
        <time>2022-08-21T07:17:55.000Z</time>
      </trkpt>
      <trkpt lat="42.299618" lon="-8.794904">
        <ele>103.1</ele>
        <time>2022-08-21T07:17:59.000Z</time>
      </trkpt>
      <trkpt lat="42.299571" lon="-8.794924">
        <ele>104.3</ele>
        <time>2022-08-21T07:18:03.000Z</time>
      </trkpt>
      <trkpt lat="42.299519" lon="-8.794928">
        <ele>105.2</ele>
        <time>2022-08-21T07:18:06.000Z</time>
      </trkpt>
      <trkpt lat="42.299471" lon="-8.794924">
        <ele>104.6</ele>
        <time>2022-08-21T07:18:08.000Z</time>
      </trkpt>
      <trkpt lat="42.299227" lon="-8.794846">
        <ele>104.4</ele>
        <time>2022-08-21T07:18:23.000Z</time>
      </trkpt>
      <trkpt lat="42.299183" lon="-8.79486">
        <ele>105.7</ele>
        <time>2022-08-21T07:18:27.000Z</time>
      </trkpt>
      <trkpt lat="42.29913" lon="-8.794869">
        <ele>106.3</ele>
        <time>2022-08-21T07:18:32.000Z</time>
      </trkpt>
      <trkpt lat="42.299081" lon="-8.79486">
        <ele>108</ele>
        <time>2022-08-21T07:18:36.000Z</time>
      </trkpt>
      <trkpt lat="42.29904" lon="-8.794885">
        <ele>109.2</ele>
        <time>2022-08-21T07:18:39.000Z</time>
      </trkpt>
      <trkpt lat="42.299013" lon="-8.794937">
        <ele>112.2</ele>
        <time>2022-08-21T07:18:48.000Z</time>
      </trkpt>
      <trkpt lat="42.298998" lon="-8.794995">
        <ele>113.7</ele>
        <time>2022-08-21T07:18:53.000Z</time>
      </trkpt>
      <trkpt lat="42.298991" lon="-8.795061">
        <ele>113.4</ele>
        <time>2022-08-21T07:18:57.000Z</time>
      </trkpt>
      <trkpt lat="42.298975" lon="-8.795134">
        <ele>112.9</ele>
        <time>2022-08-21T07:19:03.000Z</time>
      </trkpt>
      <trkpt lat="42.298949" lon="-8.795185">
        <ele>113.8</ele>
        <time>2022-08-21T07:19:10.000Z</time>
      </trkpt>
      <trkpt lat="42.298914" lon="-8.795225">
        <ele>116.2</ele>
        <time>2022-08-21T07:19:17.000Z</time>
      </trkpt>
      <trkpt lat="42.298874" lon="-8.795261">
        <ele>117.6</ele>
        <time>2022-08-21T07:19:24.000Z</time>
      </trkpt>
      <trkpt lat="42.298846" lon="-8.795309">
        <ele>119.7</ele>
        <time>2022-08-21T07:19:30.000Z</time>
      </trkpt>
      <trkpt lat="42.298824" lon="-8.795364">
        <ele>120.7</ele>
        <time>2022-08-21T07:19:37.000Z</time>
      </trkpt>
      <trkpt lat="42.298738" lon="-8.795439">
        <ele>124.6</ele>
        <time>2022-08-21T07:19:46.000Z</time>
      </trkpt>
      <trkpt lat="42.298668" lon="-8.795531">
        <ele>126.3</ele>
        <time>2022-08-21T07:19:53.000Z</time>
      </trkpt>
      <trkpt lat="42.298636" lon="-8.795579">
        <ele>126.4</ele>
        <time>2022-08-21T07:19:59.000Z</time>
      </trkpt>
      <trkpt lat="42.298644" lon="-8.79564">
        <ele>127.7</ele>
        <time>2022-08-21T07:20:06.000Z</time>
      </trkpt>
      <trkpt lat="42.298624" lon="-8.795695">
        <ele>128.4</ele>
        <time>2022-08-21T07:20:12.000Z</time>
      </trkpt>
      <trkpt lat="42.298606" lon="-8.795752">
        <ele>126.3</ele>
        <time>2022-08-21T07:20:16.000Z</time>
      </trkpt>
      <trkpt lat="42.298602" lon="-8.795817">
        <ele>123.8</ele>
        <time>2022-08-21T07:20:20.000Z</time>
      </trkpt>
      <trkpt lat="42.298609" lon="-8.795889">
        <ele>123</ele>
        <time>2022-08-21T07:20:24.000Z</time>
      </trkpt>
      <trkpt lat="42.298616" lon="-8.795967">
        <ele>121.9</ele>
        <time>2022-08-21T07:20:28.000Z</time>
      </trkpt>
      <trkpt lat="42.298587" lon="-8.796109">
        <ele>121.3</ele>
        <time>2022-08-21T07:20:35.000Z</time>
      </trkpt>
      <trkpt lat="42.298602" lon="-8.796173">
        <ele>120.9</ele>
        <time>2022-08-21T07:20:40.000Z</time>
      </trkpt>
      <trkpt lat="42.298652" lon="-8.7962">
        <ele>121.8</ele>
        <time>2022-08-21T07:20:44.000Z</time>
      </trkpt>
      <trkpt lat="42.298695" lon="-8.796225">
        <ele>123.7</ele>
        <time>2022-08-21T07:20:47.000Z</time>
      </trkpt>
      <trkpt lat="42.298719" lon="-8.796281">
        <ele>126.8</ele>
        <time>2022-08-21T07:20:52.000Z</time>
      </trkpt>
      <trkpt lat="42.29871" lon="-8.796348">
        <ele>127.4</ele>
        <time>2022-08-21T07:21:00.000Z</time>
      </trkpt>
      <trkpt lat="42.298794" lon="-8.796605">
        <ele>122.3</ele>
        <time>2022-08-21T07:21:12.000Z</time>
      </trkpt>
      <trkpt lat="42.298812" lon="-8.796737">
        <ele>119.5</ele>
        <time>2022-08-21T07:21:18.000Z</time>
      </trkpt>
      <trkpt lat="42.298806" lon="-8.796806">
        <ele>118</ele>
        <time>2022-08-21T07:21:21.000Z</time>
      </trkpt>
      <trkpt lat="42.298791" lon="-8.79688">
        <ele>117</ele>
        <time>2022-08-21T07:21:26.000Z</time>
      </trkpt>
      <trkpt lat="42.298767" lon="-8.796936">
        <ele>117</ele>
        <time>2022-08-21T07:21:30.000Z</time>
      </trkpt>
      <trkpt lat="42.298734" lon="-8.796984">
        <ele>117.1</ele>
        <time>2022-08-21T07:21:34.000Z</time>
      </trkpt>
      <trkpt lat="42.298708" lon="-8.797043">
        <ele>116.8</ele>
        <time>2022-08-21T07:21:38.000Z</time>
      </trkpt>
      <trkpt lat="42.298725" lon="-8.79724">
        <ele>113.9</ele>
        <time>2022-08-21T07:21:47.000Z</time>
      </trkpt>
      <trkpt lat="42.298685" lon="-8.797268">
        <ele>111</ele>
        <time>2022-08-21T07:21:55.000Z</time>
      </trkpt>
      <trkpt lat="42.298664" lon="-8.797324">
        <ele>109</ele>
        <time>2022-08-21T07:22:02.000Z</time>
      </trkpt>
      <trkpt lat="42.298644" lon="-8.79738">
        <ele>107.9</ele>
        <time>2022-08-21T07:22:05.000Z</time>
      </trkpt>
      <trkpt lat="42.298628" lon="-8.797442">
        <ele>105.6</ele>
        <time>2022-08-21T07:22:08.000Z</time>
      </trkpt>
      <trkpt lat="42.298605" lon="-8.797501">
        <ele>104.3</ele>
        <time>2022-08-21T07:22:11.000Z</time>
      </trkpt>
      <trkpt lat="42.298596" lon="-8.797562">
        <ele>103.7</ele>
        <time>2022-08-21T07:22:14.000Z</time>
      </trkpt>
      <trkpt lat="42.298599" lon="-8.797623">
        <ele>102.5</ele>
        <time>2022-08-21T07:22:17.000Z</time>
      </trkpt>
      <trkpt lat="42.298611" lon="-8.797686">
        <ele>99.7</ele>
        <time>2022-08-21T07:22:22.000Z</time>
      </trkpt>
      <trkpt lat="42.298614" lon="-8.797752">
        <ele>97.3</ele>
        <time>2022-08-21T07:22:26.000Z</time>
      </trkpt>
      <trkpt lat="42.29862" lon="-8.797821">
        <ele>95</ele>
        <time>2022-08-21T07:22:30.000Z</time>
      </trkpt>
      <trkpt lat="42.298607" lon="-8.797886">
        <ele>92.2</ele>
        <time>2022-08-21T07:22:36.000Z</time>
      </trkpt>
      <trkpt lat="42.298579" lon="-8.797941">
        <ele>90</ele>
        <time>2022-08-21T07:22:40.000Z</time>
      </trkpt>
      <trkpt lat="42.298561" lon="-8.798003">
        <ele>88.4</ele>
        <time>2022-08-21T07:22:43.000Z</time>
      </trkpt>
      <trkpt lat="42.298561" lon="-8.798076">
        <ele>87.3</ele>
        <time>2022-08-21T07:22:47.000Z</time>
      </trkpt>
      <trkpt lat="42.298553" lon="-8.798147">
        <ele>87.7</ele>
        <time>2022-08-21T07:22:50.000Z</time>
      </trkpt>
      <trkpt lat="42.298524" lon="-8.798205">
        <ele>88.2</ele>
        <time>2022-08-21T07:22:53.000Z</time>
      </trkpt>
      <trkpt lat="42.298482" lon="-8.798266">
        <ele>88.2</ele>
        <time>2022-08-21T07:22:57.000Z</time>
      </trkpt>
      <trkpt lat="42.298398" lon="-8.798336">
        <ele>90</ele>
        <time>2022-08-21T07:23:03.000Z</time>
      </trkpt>
      <trkpt lat="42.298352" lon="-8.798357">
        <ele>90.3</ele>
        <time>2022-08-21T07:23:06.000Z</time>
      </trkpt>
      <trkpt lat="42.298305" lon="-8.798376">
        <ele>90.5</ele>
        <time>2022-08-21T07:23:09.000Z</time>
      </trkpt>
      <trkpt lat="42.298258" lon="-8.798396">
        <ele>90.9</ele>
        <time>2022-08-21T07:23:13.000Z</time>
      </trkpt>
      <trkpt lat="42.298208" lon="-8.798418">
        <ele>92.1</ele>
        <time>2022-08-21T07:23:16.000Z</time>
      </trkpt>
      <trkpt lat="42.298159" lon="-8.798413">
        <ele>95.9</ele>
        <time>2022-08-21T07:23:21.000Z</time>
      </trkpt>
      <trkpt lat="42.298111" lon="-8.798399">
        <ele>97.7</ele>
        <time>2022-08-21T07:23:25.000Z</time>
      </trkpt>
      <trkpt lat="42.298074" lon="-8.798435">
        <ele>99.4</ele>
        <time>2022-08-21T07:23:32.000Z</time>
      </trkpt>
      <trkpt lat="42.298043" lon="-8.798387">
        <ele>93.5</ele>
        <time>2022-08-21T07:23:49.000Z</time>
      </trkpt>
      <trkpt lat="42.298009" lon="-8.798346">
        <ele>94.8</ele>
        <time>2022-08-21T07:23:55.000Z</time>
      </trkpt>
      <trkpt lat="42.297966" lon="-8.798325">
        <ele>95</ele>
        <time>2022-08-21T07:23:58.000Z</time>
      </trkpt>
      <trkpt lat="42.29792" lon="-8.798314">
        <ele>95.2</ele>
        <time>2022-08-21T07:24:02.000Z</time>
      </trkpt>
      <trkpt lat="42.297833" lon="-8.798272">
        <ele>95.9</ele>
        <time>2022-08-21T07:24:07.000Z</time>
      </trkpt>
      <trkpt lat="42.297755" lon="-8.79819">
        <ele>95.5</ele>
        <time>2022-08-21T07:24:13.000Z</time>
      </trkpt>
      <trkpt lat="42.297732" lon="-8.798132">
        <ele>96.2</ele>
        <time>2022-08-21T07:24:17.000Z</time>
      </trkpt>
      <trkpt lat="42.297684" lon="-8.798114">
        <ele>95.2</ele>
        <time>2022-08-21T07:24:23.000Z</time>
      </trkpt>
      <trkpt lat="42.297499" lon="-8.798014">
        <ele>97.9</ele>
        <time>2022-08-21T07:24:35.000Z</time>
      </trkpt>
      <trkpt lat="42.297455" lon="-8.797989">
        <ele>99.2</ele>
        <time>2022-08-21T07:24:38.000Z</time>
      </trkpt>
      <trkpt lat="42.297413" lon="-8.797951">
        <ele>100.3</ele>
        <time>2022-08-21T07:24:42.000Z</time>
      </trkpt>
      <trkpt lat="42.297374" lon="-8.797916">
        <ele>101.6</ele>
        <time>2022-08-21T07:24:47.000Z</time>
      </trkpt>
      <trkpt lat="42.297343" lon="-8.797868">
        <ele>103.2</ele>
        <time>2022-08-21T07:24:51.000Z</time>
      </trkpt>
      <trkpt lat="42.297198" lon="-8.797793">
        <ele>103.8</ele>
        <time>2022-08-21T07:25:00.000Z</time>
      </trkpt>
      <trkpt lat="42.297105" lon="-8.797749">
        <ele>104.4</ele>
        <time>2022-08-21T07:25:06.000Z</time>
      </trkpt>
      <trkpt lat="42.297038" lon="-8.797717">
        <ele>104.7</ele>
        <time>2022-08-21T07:25:10.000Z</time>
      </trkpt>
      <trkpt lat="42.296994" lon="-8.797688">
        <ele>105.4</ele>
        <time>2022-08-21T07:25:14.000Z</time>
      </trkpt>
      <trkpt lat="42.296957" lon="-8.797638">
        <ele>105.2</ele>
        <time>2022-08-21T07:25:18.000Z</time>
      </trkpt>
      <trkpt lat="42.29692" lon="-8.797601">
        <ele>102.2</ele>
        <time>2022-08-21T07:25:22.000Z</time>
      </trkpt>
      <trkpt lat="42.296884" lon="-8.797554">
        <ele>99.3</ele>
        <time>2022-08-21T07:25:28.000Z</time>
      </trkpt>
      <trkpt lat="42.296847" lon="-8.797519">
        <ele>96.8</ele>
        <time>2022-08-21T07:25:32.000Z</time>
      </trkpt>
      <trkpt lat="42.296798" lon="-8.797501">
        <ele>93.6</ele>
        <time>2022-08-21T07:25:39.000Z</time>
      </trkpt>
      <trkpt lat="42.296746" lon="-8.797497">
        <ele>92</ele>
        <time>2022-08-21T07:25:44.000Z</time>
      </trkpt>
      <trkpt lat="42.296701" lon="-8.797483">
        <ele>91.4</ele>
        <time>2022-08-21T07:25:48.000Z</time>
      </trkpt>
      <trkpt lat="42.296659" lon="-8.797463">
        <ele>90.6</ele>
        <time>2022-08-21T07:25:51.000Z</time>
      </trkpt>
      <trkpt lat="42.296605" lon="-8.797457">
        <ele>87.5</ele>
        <time>2022-08-21T07:25:56.000Z</time>
      </trkpt>
      <trkpt lat="42.296557" lon="-8.797475">
        <ele>86.4</ele>
        <time>2022-08-21T07:25:59.000Z</time>
      </trkpt>
      <trkpt lat="42.296466" lon="-8.797541">
        <ele>84.3</ele>
        <time>2022-08-21T07:26:05.000Z</time>
      </trkpt>
      <trkpt lat="42.296423" lon="-8.797591">
        <ele>83.1</ele>
        <time>2022-08-21T07:26:09.000Z</time>
      </trkpt>
      <trkpt lat="42.296404" lon="-8.797646">
        <ele>80.3</ele>
        <time>2022-08-21T07:26:14.000Z</time>
      </trkpt>
      <trkpt lat="42.296393" lon="-8.797708">
        <ele>79.8</ele>
        <time>2022-08-21T07:26:18.000Z</time>
      </trkpt>
      <trkpt lat="42.29637" lon="-8.797772">
        <ele>78.2</ele>
        <time>2022-08-21T07:26:23.000Z</time>
      </trkpt>
      <trkpt lat="42.296333" lon="-8.797815">
        <ele>77.8</ele>
        <time>2022-08-21T07:26:26.000Z</time>
      </trkpt>
      <trkpt lat="42.296294" lon="-8.797856">
        <ele>77.6</ele>
        <time>2022-08-21T07:26:29.000Z</time>
      </trkpt>
      <trkpt lat="42.296263" lon="-8.797905">
        <ele>77</ele>
        <time>2022-08-21T07:26:34.000Z</time>
      </trkpt>
      <trkpt lat="42.296251" lon="-8.79797">
        <ele>76.8</ele>
        <time>2022-08-21T07:26:38.000Z</time>
      </trkpt>
      <trkpt lat="42.296227" lon="-8.798028">
        <ele>77.3</ele>
        <time>2022-08-21T07:26:45.000Z</time>
      </trkpt>
      <trkpt lat="42.296153" lon="-8.798271">
        <ele>74</ele>
        <time>2022-08-21T07:27:04.000Z</time>
      </trkpt>
      <trkpt lat="42.29613" lon="-8.798327">
        <ele>71.6</ele>
        <time>2022-08-21T07:27:07.000Z</time>
      </trkpt>
      <trkpt lat="42.29612" lon="-8.798264">
        <ele>69.4</ele>
        <time>2022-08-21T07:27:14.000Z</time>
      </trkpt>
      <trkpt lat="42.296102" lon="-8.798193">
        <ele>68.5</ele>
        <time>2022-08-21T07:27:18.000Z</time>
      </trkpt>
      <trkpt lat="42.296083" lon="-8.798136">
        <ele>68.1</ele>
        <time>2022-08-21T07:27:21.000Z</time>
      </trkpt>
      <trkpt lat="42.296039" lon="-8.7981">
        <ele>67.2</ele>
        <time>2022-08-21T07:27:26.000Z</time>
      </trkpt>
      <trkpt lat="42.295993" lon="-8.798083">
        <ele>66.7</ele>
        <time>2022-08-21T07:27:29.000Z</time>
      </trkpt>
      <trkpt lat="42.295935" lon="-8.798067">
        <ele>66.3</ele>
        <time>2022-08-21T07:27:33.000Z</time>
      </trkpt>
      <trkpt lat="42.29589" lon="-8.798053">
        <ele>66.7</ele>
        <time>2022-08-21T07:27:37.000Z</time>
      </trkpt>
      <trkpt lat="42.295843" lon="-8.798048">
        <ele>66.8</ele>
        <time>2022-08-21T07:27:40.000Z</time>
      </trkpt>
      <trkpt lat="42.295798" lon="-8.798039">
        <ele>67.3</ele>
        <time>2022-08-21T07:27:43.000Z</time>
      </trkpt>
      <trkpt lat="42.29575" lon="-8.798045">
        <ele>67.7</ele>
        <time>2022-08-21T07:27:50.000Z</time>
      </trkpt>
      <trkpt lat="42.295699" lon="-8.798064">
        <ele>68</ele>
        <time>2022-08-21T07:27:55.000Z</time>
      </trkpt>
      <trkpt lat="42.295649" lon="-8.798094">
        <ele>67.5</ele>
        <time>2022-08-21T07:27:59.000Z</time>
      </trkpt>
      <trkpt lat="42.295606" lon="-8.798125">
        <ele>67.2</ele>
        <time>2022-08-21T07:28:02.000Z</time>
      </trkpt>
      <trkpt lat="42.295561" lon="-8.79814">
        <ele>66.7</ele>
        <time>2022-08-21T07:28:06.000Z</time>
      </trkpt>
      <trkpt lat="42.295513" lon="-8.798155">
        <ele>66.5</ele>
        <time>2022-08-21T07:28:11.000Z</time>
      </trkpt>
      <trkpt lat="42.295467" lon="-8.798162">
        <ele>64.9</ele>
        <time>2022-08-21T07:28:17.000Z</time>
      </trkpt>
      <trkpt lat="42.295419" lon="-8.79817">
        <ele>63.6</ele>
        <time>2022-08-21T07:28:28.000Z</time>
      </trkpt>
      <trkpt lat="42.295376" lon="-8.798201">
        <ele>63.1</ele>
        <time>2022-08-21T07:28:33.000Z</time>
      </trkpt>
      <trkpt lat="42.295327" lon="-8.798191">
        <ele>64</ele>
        <time>2022-08-21T07:28:37.000Z</time>
      </trkpt>
      <trkpt lat="42.295284" lon="-8.798161">
        <ele>63.2</ele>
        <time>2022-08-21T07:28:42.000Z</time>
      </trkpt>
      <trkpt lat="42.295247" lon="-8.798121">
        <ele>63.7</ele>
        <time>2022-08-21T07:28:47.000Z</time>
      </trkpt>
      <trkpt lat="42.295221" lon="-8.79807">
        <ele>64</ele>
        <time>2022-08-21T07:28:51.000Z</time>
      </trkpt>
      <trkpt lat="42.295184" lon="-8.798026">
        <ele>63.5</ele>
        <time>2022-08-21T07:28:55.000Z</time>
      </trkpt>
      <trkpt lat="42.29506" lon="-8.797935">
        <ele>64</ele>
        <time>2022-08-21T07:29:03.000Z</time>
      </trkpt>
      <trkpt lat="42.295012" lon="-8.797935">
        <ele>64.5</ele>
        <time>2022-08-21T07:29:06.000Z</time>
      </trkpt>
      <trkpt lat="42.294991" lon="-8.797989">
        <ele>64</ele>
        <time>2022-08-21T07:29:11.000Z</time>
      </trkpt>
      <trkpt lat="42.29498" lon="-8.798051">
        <ele>64.9</ele>
        <time>2022-08-21T07:29:20.000Z</time>
      </trkpt>
      <trkpt lat="42.294914" lon="-8.798146">
        <ele>65.2</ele>
        <time>2022-08-21T07:29:28.000Z</time>
      </trkpt>
      <trkpt lat="42.294883" lon="-8.7982">
        <ele>65.2</ele>
        <time>2022-08-21T07:29:33.000Z</time>
      </trkpt>
      <trkpt lat="42.294849" lon="-8.798255">
        <ele>66.1</ele>
        <time>2022-08-21T07:29:37.000Z</time>
      </trkpt>
      <trkpt lat="42.294803" lon="-8.79828">
        <ele>66.1</ele>
        <time>2022-08-21T07:29:42.000Z</time>
      </trkpt>
      <trkpt lat="42.294771" lon="-8.798327">
        <ele>66.1</ele>
        <time>2022-08-21T07:29:48.000Z</time>
      </trkpt>
      <trkpt lat="42.294729" lon="-8.798369">
        <ele>66.1</ele>
        <time>2022-08-21T07:29:54.000Z</time>
      </trkpt>
      <trkpt lat="42.294691" lon="-8.798419">
        <ele>64.2</ele>
        <time>2022-08-21T07:30:01.000Z</time>
      </trkpt>
      <trkpt lat="42.294669" lon="-8.798476">
        <ele>64.1</ele>
        <time>2022-08-21T07:30:05.000Z</time>
      </trkpt>
      <trkpt lat="42.294655" lon="-8.79854">
        <ele>64.1</ele>
        <time>2022-08-21T07:30:08.000Z</time>
      </trkpt>
      <trkpt lat="42.29464" lon="-8.798599">
        <ele>64.1</ele>
        <time>2022-08-21T07:30:12.000Z</time>
      </trkpt>
      <trkpt lat="42.294669" lon="-8.798931">
        <ele>64.9</ele>
        <time>2022-08-21T07:30:31.000Z</time>
      </trkpt>
      <trkpt lat="42.294666" lon="-8.798994">
        <ele>64.4</ele>
        <time>2022-08-21T07:30:34.000Z</time>
      </trkpt>
      <trkpt lat="42.294665" lon="-8.799056">
        <ele>63.3</ele>
        <time>2022-08-21T07:30:38.000Z</time>
      </trkpt>
      <trkpt lat="42.294661" lon="-8.799118">
        <ele>61.5</ele>
        <time>2022-08-21T07:30:43.000Z</time>
      </trkpt>
      <trkpt lat="42.294629" lon="-8.799168">
        <ele>60.6</ele>
        <time>2022-08-21T07:30:48.000Z</time>
      </trkpt>
      <trkpt lat="42.294599" lon="-8.799221">
        <ele>60.7</ele>
        <time>2022-08-21T07:30:51.000Z</time>
      </trkpt>
      <trkpt lat="42.294572" lon="-8.79928">
        <ele>61.3</ele>
        <time>2022-08-21T07:30:55.000Z</time>
      </trkpt>
      <trkpt lat="42.294541" lon="-8.799335">
        <ele>62.5</ele>
        <time>2022-08-21T07:31:00.000Z</time>
      </trkpt>
      <trkpt lat="42.29449" lon="-8.799442">
        <ele>65.4</ele>
        <time>2022-08-21T07:31:08.000Z</time>
      </trkpt>
      <trkpt lat="42.294464" lon="-8.799513">
        <ele>66.8</ele>
        <time>2022-08-21T07:31:12.000Z</time>
      </trkpt>
      <trkpt lat="42.294445" lon="-8.799573">
        <ele>67</ele>
        <time>2022-08-21T07:31:16.000Z</time>
      </trkpt>
      <trkpt lat="42.294411" lon="-8.799618">
        <ele>66.5</ele>
        <time>2022-08-21T07:31:22.000Z</time>
      </trkpt>
      <trkpt lat="42.294224" lon="-8.799789">
        <ele>66.6</ele>
        <time>2022-08-21T07:31:34.000Z</time>
      </trkpt>
      <trkpt lat="42.294182" lon="-8.799839">
        <ele>68.4</ele>
        <time>2022-08-21T07:31:38.000Z</time>
      </trkpt>
      <trkpt lat="42.294132" lon="-8.799944">
        <ele>66.5</ele>
        <time>2022-08-21T07:31:43.000Z</time>
      </trkpt>
      <trkpt lat="42.294126" lon="-8.800005">
        <ele>63.8</ele>
        <time>2022-08-21T07:31:47.000Z</time>
      </trkpt>
      <trkpt lat="42.294121" lon="-8.800071">
        <ele>61.6</ele>
        <time>2022-08-21T07:31:51.000Z</time>
      </trkpt>
      <trkpt lat="42.294122" lon="-8.800134">
        <ele>61.4</ele>
        <time>2022-08-21T07:31:56.000Z</time>
      </trkpt>
      <trkpt lat="42.294079" lon="-8.800159">
        <ele>62.4</ele>
        <time>2022-08-21T07:32:02.000Z</time>
      </trkpt>
      <trkpt lat="42.294035" lon="-8.800141">
        <ele>62.6</ele>
        <time>2022-08-21T07:32:05.000Z</time>
      </trkpt>
      <trkpt lat="42.293987" lon="-8.800155">
        <ele>63.5</ele>
        <time>2022-08-21T07:32:09.000Z</time>
      </trkpt>
      <trkpt lat="42.293941" lon="-8.800168">
        <ele>62.7</ele>
        <time>2022-08-21T07:32:12.000Z</time>
      </trkpt>
      <trkpt lat="42.293895" lon="-8.80019">
        <ele>60.5</ele>
        <time>2022-08-21T07:32:16.000Z</time>
      </trkpt>
      <trkpt lat="42.293854" lon="-8.800216">
        <ele>59.4</ele>
        <time>2022-08-21T07:32:19.000Z</time>
      </trkpt>
      <trkpt lat="42.29381" lon="-8.800244">
        <ele>58.7</ele>
        <time>2022-08-21T07:32:22.000Z</time>
      </trkpt>
      <trkpt lat="42.293771" lon="-8.800278">
        <ele>58.4</ele>
        <time>2022-08-21T07:32:25.000Z</time>
      </trkpt>
      <trkpt lat="42.293722" lon="-8.80031">
        <ele>58.1</ele>
        <time>2022-08-21T07:32:29.000Z</time>
      </trkpt>
      <trkpt lat="42.293677" lon="-8.80035">
        <ele>57.4</ele>
        <time>2022-08-21T07:32:35.000Z</time>
      </trkpt>
      <trkpt lat="42.293627" lon="-8.800334">
        <ele>55.2</ele>
        <time>2022-08-21T07:32:43.000Z</time>
      </trkpt>
      <trkpt lat="42.293472" lon="-8.800362">
        <ele>131.1</ele>
        <time>2022-08-21T07:32:52.000Z</time>
      </trkpt>
      <trkpt lat="42.293422" lon="-8.800382">
        <ele>131.1</ele>
        <time>2022-08-21T07:32:55.000Z</time>
      </trkpt>
      <trkpt lat="42.293375" lon="-8.800405">
        <ele>131.1</ele>
        <time>2022-08-21T07:32:59.000Z</time>
      </trkpt>
      <trkpt lat="42.293334" lon="-8.800447">
        <ele>131.1</ele>
        <time>2022-08-21T07:33:03.000Z</time>
      </trkpt>
      <trkpt lat="42.293297" lon="-8.800491">
        <ele>131.1</ele>
        <time>2022-08-21T07:33:06.000Z</time>
      </trkpt>
      <trkpt lat="42.293259" lon="-8.800525">
        <ele>131.1</ele>
        <time>2022-08-21T07:33:10.000Z</time>
      </trkpt>
      <trkpt lat="42.293229" lon="-8.800571">
        <ele>55.5</ele>
        <time>2022-08-21T07:33:15.000Z</time>
      </trkpt>
      <trkpt lat="42.293188" lon="-8.800597">
        <ele>56.2</ele>
        <time>2022-08-21T07:33:18.000Z</time>
      </trkpt>
      <trkpt lat="42.293093" lon="-8.800615">
        <ele>57.9</ele>
        <time>2022-08-21T07:33:24.000Z</time>
      </trkpt>
      <trkpt lat="42.293049" lon="-8.800596">
        <ele>58.6</ele>
        <time>2022-08-21T07:33:27.000Z</time>
      </trkpt>
      <trkpt lat="42.293035" lon="-8.800536">
        <ele>58.5</ele>
        <time>2022-08-21T07:33:32.000Z</time>
      </trkpt>
      <trkpt lat="42.293032" lon="-8.800474">
        <ele>58.6</ele>
        <time>2022-08-21T07:33:36.000Z</time>
      </trkpt>
      <trkpt lat="42.293028" lon="-8.800413">
        <ele>59.3</ele>
        <time>2022-08-21T07:33:41.000Z</time>
      </trkpt>
      <trkpt lat="42.293006" lon="-8.800357">
        <ele>60.3</ele>
        <time>2022-08-21T07:33:45.000Z</time>
      </trkpt>
      <trkpt lat="42.292974" lon="-8.800309">
        <ele>60.4</ele>
        <time>2022-08-21T07:33:49.000Z</time>
      </trkpt>
      <trkpt lat="42.292954" lon="-8.800253">
        <ele>59.8</ele>
        <time>2022-08-21T07:33:53.000Z</time>
      </trkpt>
      <trkpt lat="42.292945" lon="-8.80019">
        <ele>59.9</ele>
        <time>2022-08-21T07:33:57.000Z</time>
      </trkpt>
      <trkpt lat="42.292923" lon="-8.800128">
        <ele>59.4</ele>
        <time>2022-08-21T07:34:03.000Z</time>
      </trkpt>
      <trkpt lat="42.292895" lon="-8.80008">
        <ele>131.1</ele>
        <time>2022-08-21T07:34:08.000Z</time>
      </trkpt>
      <trkpt lat="42.292802" lon="-8.799937">
        <ele>60.6</ele>
        <time>2022-08-21T07:34:19.000Z</time>
      </trkpt>
      <trkpt lat="42.292766" lon="-8.799884">
        <ele>61</ele>
        <time>2022-08-21T07:34:25.000Z</time>
      </trkpt>
      <trkpt lat="42.292723" lon="-8.799856">
        <ele>60.9</ele>
        <time>2022-08-21T07:34:30.000Z</time>
      </trkpt>
      <trkpt lat="42.292678" lon="-8.799779">
        <ele>62.3</ele>
        <time>2022-08-21T07:35:06.000Z</time>
      </trkpt>
      <trkpt lat="42.292649" lon="-8.799733">
        <ele>62.4</ele>
        <time>2022-08-21T07:35:10.000Z</time>
      </trkpt>
      <trkpt lat="42.292693" lon="-8.799753">
        <ele>57.8</ele>
        <time>2022-08-21T07:35:30.000Z</time>
      </trkpt>
      <trkpt lat="42.292743" lon="-8.799745">
        <ele>57.7</ele>
        <time>2022-08-21T07:35:33.000Z</time>
      </trkpt>
      <trkpt lat="42.292777" lon="-8.799697">
        <ele>58.4</ele>
        <time>2022-08-21T07:35:48.000Z</time>
      </trkpt>
      <trkpt lat="42.292803" lon="-8.799646">
        <ele>57.3</ele>
        <time>2022-08-21T07:35:57.000Z</time>
      </trkpt>
      <trkpt lat="42.292895" lon="-8.799611">
        <ele>55.3</ele>
        <time>2022-08-21T07:36:03.000Z</time>
      </trkpt>
      <trkpt lat="42.292939" lon="-8.799595">
        <ele>54.1</ele>
        <time>2022-08-21T07:36:07.000Z</time>
      </trkpt>
      <trkpt lat="42.292985" lon="-8.799588">
        <ele>51.7</ele>
        <time>2022-08-21T07:36:11.000Z</time>
      </trkpt>
      <trkpt lat="42.293035" lon="-8.799586">
        <ele>50.7</ele>
        <time>2022-08-21T07:36:14.000Z</time>
      </trkpt>
      <trkpt lat="42.293057" lon="-8.79953">
        <ele>49.1</ele>
        <time>2022-08-21T07:36:18.000Z</time>
      </trkpt>
      <trkpt lat="42.293005" lon="-8.799421">
        <ele>48.5</ele>
        <time>2022-08-21T07:36:25.000Z</time>
      </trkpt>
      <trkpt lat="42.292971" lon="-8.799379">
        <ele>48.2</ele>
        <time>2022-08-21T07:36:28.000Z</time>
      </trkpt>
      <trkpt lat="42.292929" lon="-8.799336">
        <ele>47.3</ele>
        <time>2022-08-21T07:36:32.000Z</time>
      </trkpt>
      <trkpt lat="42.292885" lon="-8.799306">
        <ele>47.2</ele>
        <time>2022-08-21T07:36:35.000Z</time>
      </trkpt>
      <trkpt lat="42.292882" lon="-8.799243">
        <ele>48.8</ele>
        <time>2022-08-21T07:36:47.000Z</time>
      </trkpt>
      <trkpt lat="42.292843" lon="-8.799201">
        <ele>49.4</ele>
        <time>2022-08-21T07:36:54.000Z</time>
      </trkpt>
      <trkpt lat="42.292807" lon="-8.799165">
        <ele>50.3</ele>
        <time>2022-08-21T07:36:59.000Z</time>
      </trkpt>
      <trkpt lat="42.292779" lon="-8.799116">
        <ele>53.7</ele>
        <time>2022-08-21T07:37:09.000Z</time>
      </trkpt>
      <trkpt lat="42.29276" lon="-8.799056">
        <ele>56.1</ele>
        <time>2022-08-21T07:37:18.000Z</time>
      </trkpt>
      <trkpt lat="42.292752" lon="-8.798994">
        <ele>60.3</ele>
        <time>2022-08-21T07:37:27.000Z</time>
      </trkpt>
      <trkpt lat="42.292776" lon="-8.79894">
        <ele>64.3</ele>
        <time>2022-08-21T07:37:34.000Z</time>
      </trkpt>
      <trkpt lat="42.292779" lon="-8.798877">
        <ele>68.1</ele>
        <time>2022-08-21T07:37:40.000Z</time>
      </trkpt>
      <trkpt lat="42.292747" lon="-8.798813">
        <ele>72.5</ele>
        <time>2022-08-21T07:37:46.000Z</time>
      </trkpt>
      <trkpt lat="42.292718" lon="-8.798767">
        <ele>72.1</ele>
        <time>2022-08-21T07:37:50.000Z</time>
      </trkpt>
      <trkpt lat="42.292746" lon="-8.79871">
        <ele>72.4</ele>
        <time>2022-08-21T07:37:58.000Z</time>
      </trkpt>
      <trkpt lat="42.2927" lon="-8.7987">
        <ele>131.1</ele>
        <time>2022-08-21T07:38:07.000Z</time>
      </trkpt>
      <trkpt lat="42.292653" lon="-8.798728">
        <ele>131.1</ele>
        <time>2022-08-21T07:38:14.000Z</time>
      </trkpt>
      <trkpt lat="42.292614" lon="-8.798697">
        <ele>131.1</ele>
        <time>2022-08-21T07:38:20.000Z</time>
      </trkpt>
      <trkpt lat="42.292622" lon="-8.798634">
        <ele>131.1</ele>
        <time>2022-08-21T07:38:26.000Z</time>
      </trkpt>
      <trkpt lat="42.292607" lon="-8.798568">
        <ele>131.1</ele>
        <time>2022-08-21T07:38:31.000Z</time>
      </trkpt>
      <trkpt lat="42.292603" lon="-8.798507">
        <ele>131.1</ele>
        <time>2022-08-21T07:38:39.000Z</time>
      </trkpt>
      <trkpt lat="42.292733" lon="-8.798228">
        <ele>131.1</ele>
        <time>2022-08-21T07:39:04.000Z</time>
      </trkpt>
      <trkpt lat="42.292759" lon="-8.798175">
        <ele>131.1</ele>
        <time>2022-08-21T07:39:10.000Z</time>
      </trkpt>
      <trkpt lat="42.29278" lon="-8.79812">
        <ele>131.1</ele>
        <time>2022-08-21T07:39:15.000Z</time>
      </trkpt>
      <trkpt lat="42.292801" lon="-8.798063">
        <ele>131.1</ele>
        <time>2022-08-21T07:39:21.000Z</time>
      </trkpt>
      <trkpt lat="42.292845" lon="-8.798042">
        <ele>131.1</ele>
        <time>2022-08-21T07:39:31.000Z</time>
      </trkpt>
      <trkpt lat="42.292883" lon="-8.798002">
        <ele>131.1</ele>
        <time>2022-08-21T07:39:38.000Z</time>
      </trkpt>
      <trkpt lat="42.292918" lon="-8.797956">
        <ele>131.1</ele>
        <time>2022-08-21T07:39:42.000Z</time>
      </trkpt>
      <trkpt lat="42.292952" lon="-8.797917">
        <ele>131.1</ele>
        <time>2022-08-21T07:39:46.000Z</time>
      </trkpt>
      <trkpt lat="42.292988" lon="-8.797874">
        <ele>82.4</ele>
        <time>2022-08-21T07:39:50.000Z</time>
      </trkpt>
      <trkpt lat="42.293006" lon="-8.797814">
        <ele>84.6</ele>
        <time>2022-08-21T07:39:57.000Z</time>
      </trkpt>
      <trkpt lat="42.293013" lon="-8.797749">
        <ele>85.4</ele>
        <time>2022-08-21T07:40:05.000Z</time>
      </trkpt>
      <trkpt lat="42.293051" lon="-8.797636">
        <ele>84.6</ele>
        <time>2022-08-21T07:40:14.000Z</time>
      </trkpt>
      <trkpt lat="42.293097" lon="-8.797615">
        <ele>85.7</ele>
        <time>2022-08-21T07:40:19.000Z</time>
      </trkpt>
      <trkpt lat="42.293139" lon="-8.79759">
        <ele>86.9</ele>
        <time>2022-08-21T07:40:24.000Z</time>
      </trkpt>
      <trkpt lat="42.293141" lon="-8.797522">
        <ele>87.8</ele>
        <time>2022-08-21T07:40:30.000Z</time>
      </trkpt>
      <trkpt lat="42.293151" lon="-8.797457">
        <ele>89.8</ele>
        <time>2022-08-21T07:40:36.000Z</time>
      </trkpt>
      <trkpt lat="42.293187" lon="-8.797206">
        <ele>95.4</ele>
        <time>2022-08-21T07:40:50.000Z</time>
      </trkpt>
      <trkpt lat="42.29319" lon="-8.797143">
        <ele>98.1</ele>
        <time>2022-08-21T07:40:55.000Z</time>
      </trkpt>
      <trkpt lat="42.293191" lon="-8.797082">
        <ele>102.2</ele>
        <time>2022-08-21T07:41:02.000Z</time>
      </trkpt>
      <trkpt lat="42.29322" lon="-8.797031">
        <ele>107.3</ele>
        <time>2022-08-21T07:41:13.000Z</time>
      </trkpt>
      <trkpt lat="42.293237" lon="-8.796971">
        <ele>109.8</ele>
        <time>2022-08-21T07:41:18.000Z</time>
      </trkpt>
      <trkpt lat="42.293261" lon="-8.796917">
        <ele>112.8</ele>
        <time>2022-08-21T07:41:24.000Z</time>
      </trkpt>
      <trkpt lat="42.293388" lon="-8.79664">
        <ele>120.9</ele>
        <time>2022-08-21T07:41:43.000Z</time>
      </trkpt>
      <trkpt lat="42.29342" lon="-8.796596">
        <ele>120.6</ele>
        <time>2022-08-21T07:41:52.000Z</time>
      </trkpt>
      <trkpt lat="42.29344" lon="-8.796539">
        <ele>121.6</ele>
        <time>2022-08-21T07:42:00.000Z</time>
      </trkpt>
      <trkpt lat="42.293443" lon="-8.796478">
        <ele>123.4</ele>
        <time>2022-08-21T07:42:08.000Z</time>
      </trkpt>
      <trkpt lat="42.293408" lon="-8.796436">
        <ele>124.8</ele>
        <time>2022-08-21T07:42:13.000Z</time>
      </trkpt>
      <trkpt lat="42.293397" lon="-8.796371">
        <ele>123.4</ele>
        <time>2022-08-21T07:42:20.000Z</time>
      </trkpt>
      <trkpt lat="42.293412" lon="-8.79631">
        <ele>123.7</ele>
        <time>2022-08-21T07:42:27.000Z</time>
      </trkpt>
      <trkpt lat="42.293606" lon="-8.795963">
        <ele>127.6</ele>
        <time>2022-08-21T07:42:54.000Z</time>
      </trkpt>
      <trkpt lat="42.293626" lon="-8.795907">
        <ele>129.3</ele>
        <time>2022-08-21T07:42:59.000Z</time>
      </trkpt>
      <trkpt lat="42.293607" lon="-8.795849">
        <ele>133.2</ele>
        <time>2022-08-21T07:43:15.000Z</time>
      </trkpt>
      <trkpt lat="42.293582" lon="-8.795785">
        <ele>134.2</ele>
        <time>2022-08-21T07:43:21.000Z</time>
      </trkpt>
      <trkpt lat="42.293555" lon="-8.79573">
        <ele>135.2</ele>
        <time>2022-08-21T07:43:26.000Z</time>
      </trkpt>
      <trkpt lat="42.293516" lon="-8.795684">
        <ele>136</ele>
        <time>2022-08-21T07:43:32.000Z</time>
      </trkpt>
      <trkpt lat="42.293476" lon="-8.795654">
        <ele>137</ele>
        <time>2022-08-21T07:43:36.000Z</time>
      </trkpt>
      <trkpt lat="42.29343" lon="-8.795635">
        <ele>137.6</ele>
        <time>2022-08-21T07:43:41.000Z</time>
      </trkpt>
      <trkpt lat="42.293383" lon="-8.795608">
        <ele>138.3</ele>
        <time>2022-08-21T07:43:47.000Z</time>
      </trkpt>
      <trkpt lat="42.293365" lon="-8.795547">
        <ele>140.4</ele>
        <time>2022-08-21T07:43:53.000Z</time>
      </trkpt>
      <trkpt lat="42.293344" lon="-8.795484">
        <ele>141.2</ele>
        <time>2022-08-21T07:43:59.000Z</time>
      </trkpt>
      <trkpt lat="42.293323" lon="-8.795429">
        <ele>141.8</ele>
        <time>2022-08-21T07:44:07.000Z</time>
      </trkpt>
      <trkpt lat="42.293308" lon="-8.795371">
        <ele>141.9</ele>
        <time>2022-08-21T07:44:15.000Z</time>
      </trkpt>
      <trkpt lat="42.29328" lon="-8.795317">
        <ele>141.5</ele>
        <time>2022-08-21T07:44:21.000Z</time>
      </trkpt>
      <trkpt lat="42.293233" lon="-8.795288">
        <ele>141.3</ele>
        <time>2022-08-21T07:44:26.000Z</time>
      </trkpt>
      <trkpt lat="42.29319" lon="-8.795264">
        <ele>141.7</ele>
        <time>2022-08-21T07:44:30.000Z</time>
      </trkpt>
      <trkpt lat="42.293176" lon="-8.795203">
        <ele>141.6</ele>
        <time>2022-08-21T07:44:34.000Z</time>
      </trkpt>
      <trkpt lat="42.293184" lon="-8.795141">
        <ele>141.6</ele>
        <time>2022-08-21T07:44:39.000Z</time>
      </trkpt>
      <trkpt lat="42.293184" lon="-8.795079">
        <ele>142.7</ele>
        <time>2022-08-21T07:44:44.000Z</time>
      </trkpt>
      <trkpt lat="42.293188" lon="-8.795016">
        <ele>142.6</ele>
        <time>2022-08-21T07:44:50.000Z</time>
      </trkpt>
      <trkpt lat="42.293167" lon="-8.79496">
        <ele>142.5</ele>
        <time>2022-08-21T07:44:56.000Z</time>
      </trkpt>
      <trkpt lat="42.293126" lon="-8.794934">
        <ele>141.2</ele>
        <time>2022-08-21T07:45:08.000Z</time>
      </trkpt>
      <trkpt lat="42.293081" lon="-8.794908">
        <ele>142.1</ele>
        <time>2022-08-21T07:45:13.000Z</time>
      </trkpt>
      <trkpt lat="42.293037" lon="-8.794887">
        <ele>142.8</ele>
        <time>2022-08-21T07:45:17.000Z</time>
      </trkpt>
      <trkpt lat="42.292988" lon="-8.794872">
        <ele>142.8</ele>
        <time>2022-08-21T07:45:21.000Z</time>
      </trkpt>
      <trkpt lat="42.292938" lon="-8.794843">
        <ele>143.6</ele>
        <time>2022-08-21T07:45:25.000Z</time>
      </trkpt>
      <trkpt lat="42.292902" lon="-8.794805">
        <ele>144.2</ele>
        <time>2022-08-21T07:45:30.000Z</time>
      </trkpt>
      <trkpt lat="42.292883" lon="-8.794738">
        <ele>145.8</ele>
        <time>2022-08-21T07:45:40.000Z</time>
      </trkpt>
      <trkpt lat="42.29285" lon="-8.794691">
        <ele>145.9</ele>
        <time>2022-08-21T07:45:43.000Z</time>
      </trkpt>
      <trkpt lat="42.292814" lon="-8.794643">
        <ele>146.5</ele>
        <time>2022-08-21T07:45:47.000Z</time>
      </trkpt>
      <trkpt lat="42.292775" lon="-8.7946">
        <ele>147.9</ele>
        <time>2022-08-21T07:45:51.000Z</time>
      </trkpt>
      <trkpt lat="42.292734" lon="-8.794566">
        <ele>149.8</ele>
        <time>2022-08-21T07:45:54.000Z</time>
      </trkpt>
      <trkpt lat="42.292694" lon="-8.79453">
        <ele>150.7</ele>
        <time>2022-08-21T07:45:58.000Z</time>
      </trkpt>
      <trkpt lat="42.292655" lon="-8.794496">
        <ele>151.9</ele>
        <time>2022-08-21T07:46:02.000Z</time>
      </trkpt>
      <trkpt lat="42.292609" lon="-8.794461">
        <ele>153.5</ele>
        <time>2022-08-21T07:46:06.000Z</time>
      </trkpt>
      <trkpt lat="42.292539" lon="-8.794341">
        <ele>157.3</ele>
        <time>2022-08-21T07:46:13.000Z</time>
      </trkpt>
      <trkpt lat="42.292515" lon="-8.794288">
        <ele>159.7</ele>
        <time>2022-08-21T07:46:18.000Z</time>
      </trkpt>
      <trkpt lat="42.292525" lon="-8.794229">
        <ele>160.3</ele>
        <time>2022-08-21T07:46:24.000Z</time>
      </trkpt>
      <trkpt lat="42.292521" lon="-8.794167">
        <ele>159.2</ele>
        <time>2022-08-21T07:46:30.000Z</time>
      </trkpt>
      <trkpt lat="42.292507" lon="-8.794108">
        <ele>159.3</ele>
        <time>2022-08-21T07:46:37.000Z</time>
      </trkpt>
      <trkpt lat="42.29249" lon="-8.794049">
        <ele>159.9</ele>
        <time>2022-08-21T07:46:42.000Z</time>
      </trkpt>
      <trkpt lat="42.292408" lon="-8.793987">
        <ele>162.9</ele>
        <time>2022-08-21T07:46:53.000Z</time>
      </trkpt>
      <trkpt lat="42.292372" lon="-8.793949">
        <ele>164.2</ele>
        <time>2022-08-21T07:47:00.000Z</time>
      </trkpt>
      <trkpt lat="42.292357" lon="-8.79389">
        <ele>164.9</ele>
        <time>2022-08-21T07:47:06.000Z</time>
      </trkpt>
      <trkpt lat="42.292322" lon="-8.79385">
        <ele>167.4</ele>
        <time>2022-08-21T07:47:14.000Z</time>
      </trkpt>
      <trkpt lat="42.292279" lon="-8.793827">
        <ele>167.9</ele>
        <time>2022-08-21T07:47:20.000Z</time>
      </trkpt>
      <trkpt lat="42.292246" lon="-8.793776">
        <ele>170</ele>
        <time>2022-08-21T07:47:28.000Z</time>
      </trkpt>
      <trkpt lat="42.292278" lon="-8.793732">
        <ele>168.1</ele>
        <time>2022-08-21T07:47:36.000Z</time>
      </trkpt>
      <trkpt lat="42.292473" lon="-8.793451">
        <ele>171.2</ele>
        <time>2022-08-21T07:48:02.000Z</time>
      </trkpt>
      <trkpt lat="42.292466" lon="-8.793384">
        <ele>171.2</ele>
        <time>2022-08-21T07:48:09.000Z</time>
      </trkpt>
      <trkpt lat="42.292564" lon="-8.793228">
        <ele>174.3</ele>
        <time>2022-08-21T07:48:24.000Z</time>
      </trkpt>
      <trkpt lat="42.29247" lon="-8.793192">
        <ele>176.4</ele>
        <time>2022-08-21T07:48:39.000Z</time>
      </trkpt>
      <trkpt lat="42.292769" lon="-8.792761">
        <ele>182.6</ele>
        <time>2022-08-21T07:49:16.000Z</time>
      </trkpt>
      <trkpt lat="42.292726" lon="-8.792733">
        <ele>186.1</ele>
        <time>2022-08-21T07:49:26.000Z</time>
      </trkpt>
      <trkpt lat="42.292729" lon="-8.792795">
        <ele>190.9</ele>
        <time>2022-08-21T07:49:59.000Z</time>
      </trkpt>
      <trkpt lat="42.292711" lon="-8.792734">
        <ele>193.8</ele>
        <time>2022-08-21T07:51:12.000Z</time>
      </trkpt>
      <trkpt lat="42.292738" lon="-8.792681">
        <ele>197.4</ele>
        <time>2022-08-21T07:51:31.000Z</time>
      </trkpt>
      <trkpt lat="42.292734" lon="-8.792749">
        <ele>199.5</ele>
        <time>2022-08-21T07:51:36.000Z</time>
      </trkpt>
      <trkpt lat="42.292773" lon="-8.792782">
        <ele>199.6</ele>
        <time>2022-08-21T07:51:41.000Z</time>
      </trkpt>
      <trkpt lat="42.292722" lon="-8.792784">
        <ele>198.8</ele>
        <time>2022-08-21T07:51:46.000Z</time>
      </trkpt>
      <trkpt lat="42.292738" lon="-8.792862">
        <ele>201.1</ele>
        <time>2022-08-21T07:52:11.000Z</time>
      </trkpt>
      <trkpt lat="42.292756" lon="-8.7928">
        <ele>198.4</ele>
        <time>2022-08-21T07:52:27.000Z</time>
      </trkpt>
      <trkpt lat="42.292726" lon="-8.79274">
        <ele>194</ele>
        <time>2022-08-21T07:52:35.000Z</time>
      </trkpt>
      <trkpt lat="42.292681" lon="-8.792761">
        <ele>191.9</ele>
        <time>2022-08-21T07:52:59.000Z</time>
      </trkpt>
      <trkpt lat="42.29272" lon="-8.792794">
        <ele>194</ele>
        <time>2022-08-21T07:53:12.000Z</time>
      </trkpt>
      <trkpt lat="42.292748" lon="-8.792852">
        <ele>197.1</ele>
        <time>2022-08-21T07:53:31.000Z</time>
      </trkpt>
      <trkpt lat="42.292703" lon="-8.792862">
        <ele>198.8</ele>
        <time>2022-08-21T07:53:40.000Z</time>
      </trkpt>
      <trkpt lat="42.29252" lon="-8.792957">
        <ele>200.7</ele>
        <time>2022-08-21T07:54:06.000Z</time>
      </trkpt>
      <trkpt lat="42.292436" lon="-8.793029">
        <ele>200.5</ele>
        <time>2022-08-21T07:54:12.000Z</time>
      </trkpt>
      <trkpt lat="42.29239" lon="-8.793072">
        <ele>201.3</ele>
        <time>2022-08-21T07:54:15.000Z</time>
      </trkpt>
      <trkpt lat="42.292346" lon="-8.793093">
        <ele>201.3</ele>
        <time>2022-08-21T07:54:18.000Z</time>
      </trkpt>
      <trkpt lat="42.292304" lon="-8.793145">
        <ele>200.8</ele>
        <time>2022-08-21T07:54:22.000Z</time>
      </trkpt>
      <trkpt lat="42.292231" lon="-8.793227">
        <ele>200</ele>
        <time>2022-08-21T07:54:28.000Z</time>
      </trkpt>
      <trkpt lat="42.292184" lon="-8.793239">
        <ele>199.3</ele>
        <time>2022-08-21T07:54:34.000Z</time>
      </trkpt>
      <trkpt lat="42.292145" lon="-8.793205">
        <ele>197.6</ele>
        <time>2022-08-21T07:54:39.000Z</time>
      </trkpt>
      <trkpt lat="42.292093" lon="-8.793213">
        <ele>196.4</ele>
        <time>2022-08-21T07:54:42.000Z</time>
      </trkpt>
      <trkpt lat="42.292043" lon="-8.793238">
        <ele>195.2</ele>
        <time>2022-08-21T07:54:46.000Z</time>
      </trkpt>
      <trkpt lat="42.292002" lon="-8.793266">
        <ele>195.3</ele>
        <time>2022-08-21T07:54:51.000Z</time>
      </trkpt>
      <trkpt lat="42.291953" lon="-8.793294">
        <ele>195.4</ele>
        <time>2022-08-21T07:54:54.000Z</time>
      </trkpt>
      <trkpt lat="42.291907" lon="-8.793313">
        <ele>195.4</ele>
        <time>2022-08-21T07:54:58.000Z</time>
      </trkpt>
      <trkpt lat="42.291858" lon="-8.793339">
        <ele>195.5</ele>
        <time>2022-08-21T07:55:02.000Z</time>
      </trkpt>
      <trkpt lat="42.291822" lon="-8.793386">
        <ele>194.7</ele>
        <time>2022-08-21T07:55:08.000Z</time>
      </trkpt>
      <trkpt lat="42.29179" lon="-8.793433">
        <ele>195.1</ele>
        <time>2022-08-21T07:55:11.000Z</time>
      </trkpt>
      <trkpt lat="42.291754" lon="-8.793472">
        <ele>196</ele>
        <time>2022-08-21T07:55:16.000Z</time>
      </trkpt>
      <trkpt lat="42.291716" lon="-8.793509">
        <ele>197.1</ele>
        <time>2022-08-21T07:55:19.000Z</time>
      </trkpt>
      <trkpt lat="42.291619" lon="-8.793516">
        <ele>198.1</ele>
        <time>2022-08-21T07:55:26.000Z</time>
      </trkpt>
      <trkpt lat="42.291579" lon="-8.793466">
        <ele>196.9</ele>
        <time>2022-08-21T07:55:30.000Z</time>
      </trkpt>
      <trkpt lat="42.291541" lon="-8.793428">
        <ele>197.1</ele>
        <time>2022-08-21T07:55:33.000Z</time>
      </trkpt>
      <trkpt lat="42.291495" lon="-8.793423">
        <ele>197.5</ele>
        <time>2022-08-21T07:55:36.000Z</time>
      </trkpt>
      <trkpt lat="42.291436" lon="-8.793424">
        <ele>197.7</ele>
        <time>2022-08-21T07:55:41.000Z</time>
      </trkpt>
      <trkpt lat="42.291392" lon="-8.793401">
        <ele>197.7</ele>
        <time>2022-08-21T07:55:46.000Z</time>
      </trkpt>
      <trkpt lat="42.291348" lon="-8.793389">
        <ele>198.1</ele>
        <time>2022-08-21T07:55:51.000Z</time>
      </trkpt>
      <trkpt lat="42.291303" lon="-8.79341">
        <ele>198.5</ele>
        <time>2022-08-21T07:55:55.000Z</time>
      </trkpt>
      <trkpt lat="42.291254" lon="-8.793423">
        <ele>199.3</ele>
        <time>2022-08-21T07:55:58.000Z</time>
      </trkpt>
      <trkpt lat="42.291208" lon="-8.793432">
        <ele>200.4</ele>
        <time>2022-08-21T07:56:05.000Z</time>
      </trkpt>
      <trkpt lat="42.291157" lon="-8.793441">
        <ele>200.7</ele>
        <time>2022-08-21T07:56:08.000Z</time>
      </trkpt>
      <trkpt lat="42.291097" lon="-8.793448">
        <ele>200.8</ele>
        <time>2022-08-21T07:56:11.000Z</time>
      </trkpt>
      <trkpt lat="42.291048" lon="-8.793446">
        <ele>201</ele>
        <time>2022-08-21T07:56:14.000Z</time>
      </trkpt>
      <trkpt lat="42.291003" lon="-8.793454">
        <ele>201.4</ele>
        <time>2022-08-21T07:56:17.000Z</time>
      </trkpt>
      <trkpt lat="42.290951" lon="-8.793481">
        <ele>201.3</ele>
        <time>2022-08-21T07:56:22.000Z</time>
      </trkpt>
      <trkpt lat="42.290904" lon="-8.793496">
        <ele>200.8</ele>
        <time>2022-08-21T07:56:25.000Z</time>
      </trkpt>
      <trkpt lat="42.290859" lon="-8.7935">
        <ele>201.5</ele>
        <time>2022-08-21T07:56:29.000Z</time>
      </trkpt>
      <trkpt lat="42.290811" lon="-8.793501">
        <ele>202</ele>
        <time>2022-08-21T07:56:33.000Z</time>
      </trkpt>
      <trkpt lat="42.290763" lon="-8.7935">
        <ele>201.9</ele>
        <time>2022-08-21T07:56:37.000Z</time>
      </trkpt>
      <trkpt lat="42.290718" lon="-8.793499">
        <ele>201.9</ele>
        <time>2022-08-21T07:56:40.000Z</time>
      </trkpt>
      <trkpt lat="42.290665" lon="-8.793512">
        <ele>204.6</ele>
        <time>2022-08-21T07:56:46.000Z</time>
      </trkpt>
      <trkpt lat="42.290617" lon="-8.793494">
        <ele>207.8</ele>
        <time>2022-08-21T07:56:57.000Z</time>
      </trkpt>
      <trkpt lat="42.290569" lon="-8.793512">
        <ele>209</ele>
        <time>2022-08-21T07:57:01.000Z</time>
      </trkpt>
      <trkpt lat="42.290399" lon="-8.793557">
        <ele>208.7</ele>
        <time>2022-08-21T07:57:09.000Z</time>
      </trkpt>
      <trkpt lat="42.290238" lon="-8.793629">
        <ele>207.5</ele>
        <time>2022-08-21T07:57:17.000Z</time>
      </trkpt>
      <trkpt lat="42.290192" lon="-8.793607">
        <ele>206.6</ele>
        <time>2022-08-21T07:57:20.000Z</time>
      </trkpt>
      <trkpt lat="42.290147" lon="-8.79359">
        <ele>205.4</ele>
        <time>2022-08-21T07:57:25.000Z</time>
      </trkpt>
      <trkpt lat="42.290105" lon="-8.793614">
        <ele>203.8</ele>
        <time>2022-08-21T07:57:29.000Z</time>
      </trkpt>
      <trkpt lat="42.290062" lon="-8.793631">
        <ele>202.8</ele>
        <time>2022-08-21T07:57:35.000Z</time>
      </trkpt>
      <trkpt lat="42.290012" lon="-8.793625">
        <ele>202</ele>
        <time>2022-08-21T07:57:39.000Z</time>
      </trkpt>
      <trkpt lat="42.289967" lon="-8.793625">
        <ele>201.4</ele>
        <time>2022-08-21T07:57:42.000Z</time>
      </trkpt>
      <trkpt lat="42.289907" lon="-8.793612">
        <ele>201.2</ele>
        <time>2022-08-21T07:57:46.000Z</time>
      </trkpt>
      <trkpt lat="42.289859" lon="-8.793581">
        <ele>200.8</ele>
        <time>2022-08-21T07:57:49.000Z</time>
      </trkpt>
      <trkpt lat="42.289817" lon="-8.793555">
        <ele>199.7</ele>
        <time>2022-08-21T07:57:53.000Z</time>
      </trkpt>
      <trkpt lat="42.289767" lon="-8.793545">
        <ele>198.7</ele>
        <time>2022-08-21T07:57:58.000Z</time>
      </trkpt>
      <trkpt lat="42.289717" lon="-8.793545">
        <ele>198.9</ele>
        <time>2022-08-21T07:58:01.000Z</time>
      </trkpt>
      <trkpt lat="42.289672" lon="-8.793547">
        <ele>198</ele>
        <time>2022-08-21T07:58:04.000Z</time>
      </trkpt>
      <trkpt lat="42.289626" lon="-8.793536">
        <ele>196.5</ele>
        <time>2022-08-21T07:58:08.000Z</time>
      </trkpt>
      <trkpt lat="42.289576" lon="-8.793538">
        <ele>196.3</ele>
        <time>2022-08-21T07:58:11.000Z</time>
      </trkpt>
      <trkpt lat="42.289525" lon="-8.79353">
        <ele>193.9</ele>
        <time>2022-08-21T07:58:16.000Z</time>
      </trkpt>
      <trkpt lat="42.289476" lon="-8.793521">
        <ele>192.4</ele>
        <time>2022-08-21T07:58:19.000Z</time>
      </trkpt>
      <trkpt lat="42.289431" lon="-8.793519">
        <ele>191.1</ele>
        <time>2022-08-21T07:58:22.000Z</time>
      </trkpt>
      <trkpt lat="42.289376" lon="-8.793526">
        <ele>188.7</ele>
        <time>2022-08-21T07:58:26.000Z</time>
      </trkpt>
      <trkpt lat="42.289329" lon="-8.793534">
        <ele>141</ele>
        <time>2022-08-21T07:58:31.000Z</time>
      </trkpt>
      <trkpt lat="42.289287" lon="-8.793559">
        <ele>141</ele>
        <time>2022-08-21T07:58:35.000Z</time>
      </trkpt>
      <trkpt lat="42.28924" lon="-8.793578">
        <ele>141</ele>
        <time>2022-08-21T07:58:38.000Z</time>
      </trkpt>
      <trkpt lat="42.289188" lon="-8.793585">
        <ele>141</ele>
        <time>2022-08-21T07:58:42.000Z</time>
      </trkpt>
      <trkpt lat="42.289131" lon="-8.793607">
        <ele>141</ele>
        <time>2022-08-21T07:58:46.000Z</time>
      </trkpt>
      <trkpt lat="42.28908" lon="-8.793625">
        <ele>141</ele>
        <time>2022-08-21T07:58:51.000Z</time>
      </trkpt>
      <trkpt lat="42.289033" lon="-8.79364">
        <ele>141</ele>
        <time>2022-08-21T07:58:54.000Z</time>
      </trkpt>
      <trkpt lat="42.288985" lon="-8.793645">
        <ele>141</ele>
        <time>2022-08-21T07:58:57.000Z</time>
      </trkpt>
      <trkpt lat="42.288937" lon="-8.793655">
        <ele>141</ele>
        <time>2022-08-21T07:59:00.000Z</time>
      </trkpt>
      <trkpt lat="42.28889" lon="-8.793653">
        <ele>141</ele>
        <time>2022-08-21T07:59:05.000Z</time>
      </trkpt>
      <trkpt lat="42.288851" lon="-8.793696">
        <ele>182.2</ele>
        <time>2022-08-21T07:59:09.000Z</time>
      </trkpt>
      <trkpt lat="42.288816" lon="-8.793739">
        <ele>182.6</ele>
        <time>2022-08-21T07:59:13.000Z</time>
      </trkpt>
      <trkpt lat="42.288773" lon="-8.793761">
        <ele>141</ele>
        <time>2022-08-21T07:59:17.000Z</time>
      </trkpt>
      <trkpt lat="42.288729" lon="-8.793739">
        <ele>179.5</ele>
        <time>2022-08-21T07:59:21.000Z</time>
      </trkpt>
      <trkpt lat="42.288696" lon="-8.793787">
        <ele>178.6</ele>
        <time>2022-08-21T07:59:32.000Z</time>
      </trkpt>
      <trkpt lat="42.288588" lon="-8.793945">
        <ele>178.9</ele>
        <time>2022-08-21T07:59:41.000Z</time>
      </trkpt>
      <trkpt lat="42.288552" lon="-8.793994">
        <ele>179.1</ele>
        <time>2022-08-21T07:59:45.000Z</time>
      </trkpt>
      <trkpt lat="42.288486" lon="-8.794086">
        <ele>179.8</ele>
        <time>2022-08-21T07:59:50.000Z</time>
      </trkpt>
      <trkpt lat="42.28845" lon="-8.79413">
        <ele>180.3</ele>
        <time>2022-08-21T07:59:54.000Z</time>
      </trkpt>
      <trkpt lat="42.288413" lon="-8.794167">
        <ele>180.4</ele>
        <time>2022-08-21T07:59:57.000Z</time>
      </trkpt>
      <trkpt lat="42.288365" lon="-8.794186">
        <ele>180.2</ele>
        <time>2022-08-21T08:00:00.000Z</time>
      </trkpt>
      <trkpt lat="42.28832" lon="-8.7942">
        <ele>180.5</ele>
        <time>2022-08-21T08:00:04.000Z</time>
      </trkpt>
      <trkpt lat="42.288277" lon="-8.794223">
        <ele>180</ele>
        <time>2022-08-21T08:00:07.000Z</time>
      </trkpt>
      <trkpt lat="42.288132" lon="-8.794291">
        <ele>178.5</ele>
        <time>2022-08-21T08:00:14.000Z</time>
      </trkpt>
      <trkpt lat="42.28809" lon="-8.794318">
        <ele>179.8</ele>
        <time>2022-08-21T08:00:17.000Z</time>
      </trkpt>
      <trkpt lat="42.288047" lon="-8.794337">
        <ele>180.2</ele>
        <time>2022-08-21T08:00:22.000Z</time>
      </trkpt>
      <trkpt lat="42.288001" lon="-8.794354">
        <ele>179.5</ele>
        <time>2022-08-21T08:00:26.000Z</time>
      </trkpt>
      <trkpt lat="42.287957" lon="-8.794388">
        <ele>178.9</ele>
        <time>2022-08-21T08:00:29.000Z</time>
      </trkpt>
      <trkpt lat="42.287916" lon="-8.794423">
        <ele>178.9</ele>
        <time>2022-08-21T08:00:32.000Z</time>
      </trkpt>
      <trkpt lat="42.287878" lon="-8.794462">
        <ele>178.6</ele>
        <time>2022-08-21T08:00:36.000Z</time>
      </trkpt>
      <trkpt lat="42.287832" lon="-8.794471">
        <ele>178.3</ele>
        <time>2022-08-21T08:00:39.000Z</time>
      </trkpt>
      <trkpt lat="42.287781" lon="-8.794477">
        <ele>178</ele>
        <time>2022-08-21T08:00:44.000Z</time>
      </trkpt>
      <trkpt lat="42.287736" lon="-8.794485">
        <ele>178.9</ele>
        <time>2022-08-21T08:00:48.000Z</time>
      </trkpt>
      <trkpt lat="42.287701" lon="-8.794541">
        <ele>179.8</ele>
        <time>2022-08-21T08:00:51.000Z</time>
      </trkpt>
      <trkpt lat="42.287672" lon="-8.794597">
        <ele>180.5</ele>
        <time>2022-08-21T08:00:56.000Z</time>
      </trkpt>
      <trkpt lat="42.287636" lon="-8.794636">
        <ele>180.6</ele>
        <time>2022-08-21T08:00:59.000Z</time>
      </trkpt>
      <trkpt lat="42.287587" lon="-8.79466">
        <ele>181.5</ele>
        <time>2022-08-21T08:01:04.000Z</time>
      </trkpt>
      <trkpt lat="42.287487" lon="-8.794718">
        <ele>182.6</ele>
        <time>2022-08-21T08:01:12.000Z</time>
      </trkpt>
      <trkpt lat="42.28746" lon="-8.794786">
        <ele>183.7</ele>
        <time>2022-08-21T08:01:15.000Z</time>
      </trkpt>
      <trkpt lat="42.287429" lon="-8.79484">
        <ele>184.8</ele>
        <time>2022-08-21T08:01:18.000Z</time>
      </trkpt>
      <trkpt lat="42.287391" lon="-8.794881">
        <ele>185.4</ele>
        <time>2022-08-21T08:01:21.000Z</time>
      </trkpt>
      <trkpt lat="42.287348" lon="-8.794911">
        <ele>184.7</ele>
        <time>2022-08-21T08:01:25.000Z</time>
      </trkpt>
      <trkpt lat="42.287309" lon="-8.794945">
        <ele>184.2</ele>
        <time>2022-08-21T08:01:29.000Z</time>
      </trkpt>
      <trkpt lat="42.287267" lon="-8.794989">
        <ele>184.5</ele>
        <time>2022-08-21T08:01:33.000Z</time>
      </trkpt>
      <trkpt lat="42.287239" lon="-8.795039">
        <ele>184</ele>
        <time>2022-08-21T08:01:38.000Z</time>
      </trkpt>
      <trkpt lat="42.287209" lon="-8.79509">
        <ele>183.6</ele>
        <time>2022-08-21T08:01:43.000Z</time>
      </trkpt>
      <trkpt lat="42.287165" lon="-8.795121">
        <ele>182.4</ele>
        <time>2022-08-21T08:01:48.000Z</time>
      </trkpt>
      <trkpt lat="42.287119" lon="-8.795139">
        <ele>182.7</ele>
        <time>2022-08-21T08:01:51.000Z</time>
      </trkpt>
      <trkpt lat="42.287075" lon="-8.795165">
        <ele>182.2</ele>
        <time>2022-08-21T08:01:54.000Z</time>
      </trkpt>
      <trkpt lat="42.287039" lon="-8.795206">
        <ele>179.4</ele>
        <time>2022-08-21T08:01:58.000Z</time>
      </trkpt>
      <trkpt lat="42.287021" lon="-8.795271">
        <ele>176.9</ele>
        <time>2022-08-21T08:02:01.000Z</time>
      </trkpt>
      <trkpt lat="42.287004" lon="-8.795334">
        <ele>174.6</ele>
        <time>2022-08-21T08:02:05.000Z</time>
      </trkpt>
      <trkpt lat="42.28696" lon="-8.795356">
        <ele>173.5</ele>
        <time>2022-08-21T08:02:09.000Z</time>
      </trkpt>
      <trkpt lat="42.28691" lon="-8.795379">
        <ele>172.5</ele>
        <time>2022-08-21T08:02:12.000Z</time>
      </trkpt>
      <trkpt lat="42.286864" lon="-8.795402">
        <ele>171.6</ele>
        <time>2022-08-21T08:02:16.000Z</time>
      </trkpt>
      <trkpt lat="42.286821" lon="-8.795426">
        <ele>169.9</ele>
        <time>2022-08-21T08:02:20.000Z</time>
      </trkpt>
      <trkpt lat="42.286782" lon="-8.795455">
        <ele>169.1</ele>
        <time>2022-08-21T08:02:24.000Z</time>
      </trkpt>
      <trkpt lat="42.286733" lon="-8.795453">
        <ele>168.4</ele>
        <time>2022-08-21T08:02:29.000Z</time>
      </trkpt>
      <trkpt lat="42.286533" lon="-8.795453">
        <ele>169</ele>
        <time>2022-08-21T08:02:41.000Z</time>
      </trkpt>
      <trkpt lat="42.286489" lon="-8.795485">
        <ele>169.9</ele>
        <time>2022-08-21T08:02:44.000Z</time>
      </trkpt>
      <trkpt lat="42.286434" lon="-8.795522">
        <ele>171.4</ele>
        <time>2022-08-21T08:02:48.000Z</time>
      </trkpt>
      <trkpt lat="42.28639" lon="-8.795567">
        <ele>173</ele>
        <time>2022-08-21T08:02:51.000Z</time>
      </trkpt>
      <trkpt lat="42.28632" lon="-8.795649">
        <ele>175.3</ele>
        <time>2022-08-21T08:02:57.000Z</time>
      </trkpt>
      <trkpt lat="42.286281" lon="-8.795679">
        <ele>176.4</ele>
        <time>2022-08-21T08:03:00.000Z</time>
      </trkpt>
      <trkpt lat="42.286239" lon="-8.795714">
        <ele>176.4</ele>
        <time>2022-08-21T08:03:04.000Z</time>
      </trkpt>
      <trkpt lat="42.286206" lon="-8.795761">
        <ele>175.7</ele>
        <time>2022-08-21T08:03:07.000Z</time>
      </trkpt>
      <trkpt lat="42.286157" lon="-8.795782">
        <ele>175.1</ele>
        <time>2022-08-21T08:03:11.000Z</time>
      </trkpt>
      <trkpt lat="42.286107" lon="-8.795787">
        <ele>174.4</ele>
        <time>2022-08-21T08:03:15.000Z</time>
      </trkpt>
      <trkpt lat="42.286058" lon="-8.795795">
        <ele>172.6</ele>
        <time>2022-08-21T08:03:19.000Z</time>
      </trkpt>
      <trkpt lat="42.286012" lon="-8.795791">
        <ele>170.8</ele>
        <time>2022-08-21T08:03:23.000Z</time>
      </trkpt>
      <trkpt lat="42.285957" lon="-8.7958">
        <ele>166.1</ele>
        <time>2022-08-21T08:03:40.000Z</time>
      </trkpt>
      <trkpt lat="42.285844" lon="-8.795847">
        <ele>165</ele>
        <time>2022-08-21T08:03:47.000Z</time>
      </trkpt>
      <trkpt lat="42.285792" lon="-8.795867">
        <ele>165</ele>
        <time>2022-08-21T08:03:50.000Z</time>
      </trkpt>
      <trkpt lat="42.285749" lon="-8.795891">
        <ele>165.2</ele>
        <time>2022-08-21T08:03:53.000Z</time>
      </trkpt>
      <trkpt lat="42.285706" lon="-8.795872">
        <ele>166.5</ele>
        <time>2022-08-21T08:03:57.000Z</time>
      </trkpt>
      <trkpt lat="42.285627" lon="-8.795854">
        <ele>165.8</ele>
        <time>2022-08-21T08:04:04.000Z</time>
      </trkpt>
      <trkpt lat="42.285527" lon="-8.79593">
        <ele>166.2</ele>
        <time>2022-08-21T08:04:11.000Z</time>
      </trkpt>
      <trkpt lat="42.285481" lon="-8.795955">
        <ele>166.3</ele>
        <time>2022-08-21T08:04:14.000Z</time>
      </trkpt>
      <trkpt lat="42.28543" lon="-8.795967">
        <ele>166.2</ele>
        <time>2022-08-21T08:04:18.000Z</time>
      </trkpt>
      <trkpt lat="42.28538" lon="-8.795955">
        <ele>165.2</ele>
        <time>2022-08-21T08:04:22.000Z</time>
      </trkpt>
      <trkpt lat="42.285325" lon="-8.795972">
        <ele>163.7</ele>
        <time>2022-08-21T08:04:34.000Z</time>
      </trkpt>
      <trkpt lat="42.285282" lon="-8.795942">
        <ele>162.2</ele>
        <time>2022-08-21T08:04:53.000Z</time>
      </trkpt>
      <trkpt lat="42.28524" lon="-8.795917">
        <ele>161.2</ele>
        <time>2022-08-21T08:04:58.000Z</time>
      </trkpt>
      <trkpt lat="42.285207" lon="-8.795858">
        <ele>160.8</ele>
        <time>2022-08-21T08:05:02.000Z</time>
      </trkpt>
      <trkpt lat="42.285174" lon="-8.795811">
        <ele>160.5</ele>
        <time>2022-08-21T08:05:07.000Z</time>
      </trkpt>
      <trkpt lat="42.285163" lon="-8.795751">
        <ele>160.1</ele>
        <time>2022-08-21T08:05:10.000Z</time>
      </trkpt>
      <trkpt lat="42.285173" lon="-8.795687">
        <ele>159.7</ele>
        <time>2022-08-21T08:05:14.000Z</time>
      </trkpt>
      <trkpt lat="42.285192" lon="-8.795622">
        <ele>160.2</ele>
        <time>2022-08-21T08:05:17.000Z</time>
      </trkpt>
      <trkpt lat="42.285206" lon="-8.795563">
        <ele>158.7</ele>
        <time>2022-08-21T08:05:25.000Z</time>
      </trkpt>
      <trkpt lat="42.28525" lon="-8.795543">
        <ele>158.6</ele>
        <time>2022-08-21T08:05:32.000Z</time>
      </trkpt>
      <trkpt lat="42.285286" lon="-8.795503">
        <ele>157.9</ele>
        <time>2022-08-21T08:05:37.000Z</time>
      </trkpt>
      <trkpt lat="42.285324" lon="-8.795451">
        <ele>157.6</ele>
        <time>2022-08-21T08:05:43.000Z</time>
      </trkpt>
      <trkpt lat="42.285358" lon="-8.79541">
        <ele>159.5</ele>
        <time>2022-08-21T08:05:50.000Z</time>
      </trkpt>
      <trkpt lat="42.285344" lon="-8.795353">
        <ele>159.8</ele>
        <time>2022-08-21T08:06:04.000Z</time>
      </trkpt>
      <trkpt lat="42.285377" lon="-8.795308">
        <ele>159.1</ele>
        <time>2022-08-21T08:06:17.000Z</time>
      </trkpt>
      <trkpt lat="42.285409" lon="-8.795253">
        <ele>159.2</ele>
        <time>2022-08-21T08:06:23.000Z</time>
      </trkpt>
      <trkpt lat="42.285433" lon="-8.795198">
        <ele>160.4</ele>
        <time>2022-08-21T08:06:27.000Z</time>
      </trkpt>
      <trkpt lat="42.285456" lon="-8.795145">
        <ele>162.1</ele>
        <time>2022-08-21T08:06:31.000Z</time>
      </trkpt>
      <trkpt lat="42.285471" lon="-8.795086">
        <ele>163.2</ele>
        <time>2022-08-21T08:06:35.000Z</time>
      </trkpt>
      <trkpt lat="42.285486" lon="-8.795027">
        <ele>164.9</ele>
        <time>2022-08-21T08:06:44.000Z</time>
      </trkpt>
      <trkpt lat="42.285446" lon="-8.794886">
        <ele>177</ele>
        <time>2022-08-21T08:07:23.000Z</time>
      </trkpt>
      <trkpt lat="42.285366" lon="-8.794958">
        <ele>173.3</ele>
        <time>2022-08-21T08:07:31.000Z</time>
      </trkpt>
      <trkpt lat="42.285419" lon="-8.794946">
        <ele>177.1</ele>
        <time>2022-08-21T08:08:10.000Z</time>
      </trkpt>
      <trkpt lat="42.285468" lon="-8.794925">
        <ele>178.3</ele>
        <time>2022-08-21T08:08:19.000Z</time>
      </trkpt>
      <trkpt lat="42.285508" lon="-8.794896">
        <ele>177.8</ele>
        <time>2022-08-21T08:08:26.000Z</time>
      </trkpt>
      <trkpt lat="42.28547" lon="-8.794846">
        <ele>190.3</ele>
        <time>2022-08-21T08:08:44.000Z</time>
      </trkpt>
      <trkpt lat="42.285427" lon="-8.794868">
        <ele>192.8</ele>
        <time>2022-08-21T08:08:48.000Z</time>
      </trkpt>
      <trkpt lat="42.285454" lon="-8.794859">
        <ele>194.2</ele>
        <time>2022-08-21T08:08:55.000Z</time>
      </trkpt>
      <trkpt lat="42.285444" lon="-8.794798">
        <ele>195</ele>
        <time>2022-08-21T08:09:00.000Z</time>
      </trkpt>
      <trkpt lat="42.285398" lon="-8.794792">
        <ele>117.9</ele>
        <time>2022-08-21T08:09:07.000Z</time>
      </trkpt>
      <trkpt lat="42.285357" lon="-8.794827">
        <ele>117.9</ele>
        <time>2022-08-21T08:09:12.000Z</time>
      </trkpt>
      <trkpt lat="42.285327" lon="-8.794772">
        <ele>117.9</ele>
        <time>2022-08-21T08:09:26.000Z</time>
      </trkpt>
      <trkpt lat="42.285288" lon="-8.794743">
        <ele>196.4</ele>
        <time>2022-08-21T08:09:32.000Z</time>
      </trkpt>
      <trkpt lat="42.285264" lon="-8.79468">
        <ele>194.1</ele>
        <time>2022-08-21T08:09:39.000Z</time>
      </trkpt>
      <trkpt lat="42.285241" lon="-8.794624">
        <ele>193.3</ele>
        <time>2022-08-21T08:09:43.000Z</time>
      </trkpt>
      <trkpt lat="42.285193" lon="-8.794614">
        <ele>193.3</ele>
        <time>2022-08-21T08:09:48.000Z</time>
      </trkpt>
      <trkpt lat="42.285153" lon="-8.794658">
        <ele>117.9</ele>
        <time>2022-08-21T08:09:55.000Z</time>
      </trkpt>
      <trkpt lat="42.285116" lon="-8.794377">
        <ele>117.9</ele>
        <time>2022-08-21T08:10:33.000Z</time>
      </trkpt>
      <trkpt lat="42.284948" lon="-8.794278">
        <ele>117.9</ele>
        <time>2022-08-21T08:10:54.000Z</time>
      </trkpt>
      <trkpt lat="42.284907" lon="-8.794252">
        <ele>117.9</ele>
        <time>2022-08-21T08:11:02.000Z</time>
      </trkpt>
      <trkpt lat="42.284874" lon="-8.794207">
        <ele>117.9</ele>
        <time>2022-08-21T08:11:20.000Z</time>
      </trkpt>
      <trkpt lat="42.284851" lon="-8.794153">
        <ele>117.9</ele>
        <time>2022-08-21T08:11:27.000Z</time>
      </trkpt>
      <trkpt lat="42.284832" lon="-8.794087">
        <ele>117.9</ele>
        <time>2022-08-21T08:11:33.000Z</time>
      </trkpt>
      <trkpt lat="42.284795" lon="-8.793976">
        <ele>201.7</ele>
        <time>2022-08-21T08:11:46.000Z</time>
      </trkpt>
      <trkpt lat="42.28475" lon="-8.793938">
        <ele>204.4</ele>
        <time>2022-08-21T08:11:58.000Z</time>
      </trkpt>
      <trkpt lat="42.284704" lon="-8.793938">
        <ele>204.9</ele>
        <time>2022-08-21T08:12:05.000Z</time>
      </trkpt>
      <trkpt lat="42.284659" lon="-8.793914">
        <ele>208.1</ele>
        <time>2022-08-21T08:12:15.000Z</time>
      </trkpt>
      <trkpt lat="42.284615" lon="-8.7939">
        <ele>222.5</ele>
        <time>2022-08-21T08:12:41.000Z</time>
      </trkpt>
      <trkpt lat="42.284568" lon="-8.793914">
        <ele>141</ele>
        <time>2022-08-21T08:12:55.000Z</time>
      </trkpt>
      <trkpt lat="42.284526" lon="-8.793887">
        <ele>131.1</ele>
        <time>2022-08-21T08:13:06.000Z</time>
      </trkpt>
      <trkpt lat="42.284482" lon="-8.793905">
        <ele>131.1</ele>
        <time>2022-08-21T08:13:37.000Z</time>
      </trkpt>
      <trkpt lat="42.284437" lon="-8.793902">
        <ele>131.1</ele>
        <time>2022-08-21T08:14:06.000Z</time>
      </trkpt>
      <trkpt lat="42.28439" lon="-8.793917">
        <ele>120.6</ele>
        <time>2022-08-21T08:14:14.000Z</time>
      </trkpt>
      <trkpt lat="42.28434" lon="-8.793911">
        <ele>120.6</ele>
        <time>2022-08-21T08:14:26.000Z</time>
      </trkpt>
      <trkpt lat="42.28429" lon="-8.793908">
        <ele>120.6</ele>
        <time>2022-08-21T08:14:38.000Z</time>
      </trkpt>
      <trkpt lat="42.284333" lon="-8.793844">
        <ele>120.6</ele>
        <time>2022-08-21T08:14:52.000Z</time>
      </trkpt>
      <trkpt lat="42.284321" lon="-8.793726">
        <ele>120.6</ele>
        <time>2022-08-21T08:15:19.000Z</time>
      </trkpt>
      <trkpt lat="42.284263" lon="-8.793461">
        <ele>247.8</ele>
        <time>2022-08-21T08:15:59.000Z</time>
      </trkpt>
      <trkpt lat="42.284225" lon="-8.793419">
        <ele>246.1</ele>
        <time>2022-08-21T08:16:07.000Z</time>
      </trkpt>
      <trkpt lat="42.284269" lon="-8.793393">
        <ele>253.7</ele>
        <time>2022-08-21T08:16:38.000Z</time>
      </trkpt>
      <trkpt lat="42.284132" lon="-8.793388">
        <ele>131.1</ele>
        <time>2022-08-21T08:16:56.000Z</time>
      </trkpt>
      <trkpt lat="42.284091" lon="-8.793354">
        <ele>131.1</ele>
        <time>2022-08-21T08:17:08.000Z</time>
      </trkpt>
      <trkpt lat="42.284141" lon="-8.793251">
        <ele>266.5</ele>
        <time>2022-08-21T08:17:26.000Z</time>
      </trkpt>
      <trkpt lat="42.284104" lon="-8.793215">
        <ele>272.4</ele>
        <time>2022-08-21T08:17:34.000Z</time>
      </trkpt>
      <trkpt lat="42.284009" lon="-8.793246">
        <ele>275.1</ele>
        <time>2022-08-21T08:17:47.000Z</time>
      </trkpt>
      <trkpt lat="42.284038" lon="-8.793195">
        <ele>277.8</ele>
        <time>2022-08-21T08:18:05.000Z</time>
      </trkpt>
      <trkpt lat="42.284055" lon="-8.793138">
        <ele>285.9</ele>
        <time>2022-08-21T08:18:21.000Z</time>
      </trkpt>
      <trkpt lat="42.283992" lon="-8.793061">
        <ele>292.5</ele>
        <time>2022-08-21T08:18:44.000Z</time>
      </trkpt>
      <trkpt lat="42.283983" lon="-8.793124">
        <ele>298</ele>
        <time>2022-08-21T08:19:19.000Z</time>
      </trkpt>
      <trkpt lat="42.283967" lon="-8.793183">
        <ele>299.6</ele>
        <time>2022-08-21T08:19:32.000Z</time>
      </trkpt>
      <trkpt lat="42.283994" lon="-8.793072">
        <ele>59.7</ele>
        <time>2022-08-21T08:20:05.000Z</time>
      </trkpt>
      <trkpt lat="42.284001" lon="-8.793012">
        <ele>60.4</ele>
        <time>2022-08-21T08:20:18.000Z</time>
      </trkpt>
      <trkpt lat="42.283999" lon="-8.792825">
        <ele>60.4</ele>
        <time>2022-08-21T08:20:47.000Z</time>
      </trkpt>
      <trkpt lat="42.284045" lon="-8.792815">
        <ele>60.4</ele>
        <time>2022-08-21T08:21:28.000Z</time>
      </trkpt>
      <trkpt lat="42.284094" lon="-8.792739">
        <ele>60.4</ele>
        <time>2022-08-21T08:21:47.000Z</time>
      </trkpt>
      <trkpt lat="42.284051" lon="-8.792765">
        <ele>310.9</ele>
        <time>2022-08-21T08:21:57.000Z</time>
      </trkpt>
      <trkpt lat="42.284018" lon="-8.792816">
        <ele>310.9</ele>
        <time>2022-08-21T08:22:22.000Z</time>
      </trkpt>
      <trkpt lat="42.283977" lon="-8.79285">
        <ele>311.5</ele>
        <time>2022-08-21T08:23:01.000Z</time>
      </trkpt>
      <trkpt lat="42.283943" lon="-8.792807">
        <ele>307.2</ele>
        <time>2022-08-21T08:24:18.000Z</time>
      </trkpt>
      <trkpt lat="42.283957" lon="-8.792682">
        <ele>308.8</ele>
        <time>2022-08-21T08:25:45.000Z</time>
      </trkpt>
      <trkpt lat="42.283909" lon="-8.792607">
        <ele>310.9</ele>
        <time>2022-08-21T08:26:38.000Z</time>
      </trkpt>
      <trkpt lat="42.284031" lon="-8.79265">
        <ele>317.6</ele>
        <time>2022-08-21T08:27:30.000Z</time>
      </trkpt>
      <trkpt lat="42.283986" lon="-8.792655">
        <ele>318.4</ele>
        <time>2022-08-21T08:28:25.000Z</time>
      </trkpt>
      <trkpt lat="42.283963" lon="-8.792537">
        <ele>313.4</ele>
        <time>2022-08-21T08:35:01.000Z</time>
      </trkpt>
      <trkpt lat="42.283998" lon="-8.792496">
        <ele>313</ele>
        <time>2022-08-21T08:35:07.000Z</time>
      </trkpt>
      <trkpt lat="42.283998" lon="-8.79243">
        <ele>312.5</ele>
        <time>2022-08-21T08:35:10.000Z</time>
      </trkpt>
      <trkpt lat="42.284015" lon="-8.792368">
        <ele>312.4</ele>
        <time>2022-08-21T08:35:14.000Z</time>
      </trkpt>
      <trkpt lat="42.284041" lon="-8.792315">
        <ele>312.4</ele>
        <time>2022-08-21T08:35:18.000Z</time>
      </trkpt>
      <trkpt lat="42.284073" lon="-8.792272">
        <ele>312.4</ele>
        <time>2022-08-21T08:35:22.000Z</time>
      </trkpt>
      <trkpt lat="42.284119" lon="-8.792243">
        <ele>311.3</ele>
        <time>2022-08-21T08:35:27.000Z</time>
      </trkpt>
      <trkpt lat="42.284147" lon="-8.792188">
        <ele>311.1</ele>
        <time>2022-08-21T08:35:30.000Z</time>
      </trkpt>
      <trkpt lat="42.284196" lon="-8.792064">
        <ele>310.7</ele>
        <time>2022-08-21T08:35:37.000Z</time>
      </trkpt>
      <trkpt lat="42.284237" lon="-8.792027">
        <ele>310.1</ele>
        <time>2022-08-21T08:35:40.000Z</time>
      </trkpt>
      <trkpt lat="42.284281" lon="-8.792005">
        <ele>309</ele>
        <time>2022-08-21T08:35:43.000Z</time>
      </trkpt>
      <trkpt lat="42.284321" lon="-8.791962">
        <ele>308.1</ele>
        <time>2022-08-21T08:35:47.000Z</time>
      </trkpt>
      <trkpt lat="42.284352" lon="-8.791908">
        <ele>307.2</ele>
        <time>2022-08-21T08:35:52.000Z</time>
      </trkpt>
      <trkpt lat="42.284381" lon="-8.79185">
        <ele>308.1</ele>
        <time>2022-08-21T08:35:55.000Z</time>
      </trkpt>
      <trkpt lat="42.284409" lon="-8.791802">
        <ele>308.4</ele>
        <time>2022-08-21T08:35:59.000Z</time>
      </trkpt>
      <trkpt lat="42.284438" lon="-8.791751">
        <ele>309.4</ele>
        <time>2022-08-21T08:36:03.000Z</time>
      </trkpt>
      <trkpt lat="42.284454" lon="-8.791688">
        <ele>310.8</ele>
        <time>2022-08-21T08:36:08.000Z</time>
      </trkpt>
      <trkpt lat="42.284481" lon="-8.791635">
        <ele>310.8</ele>
        <time>2022-08-21T08:36:12.000Z</time>
      </trkpt>
      <trkpt lat="42.284521" lon="-8.791597">
        <ele>311.5</ele>
        <time>2022-08-21T08:36:16.000Z</time>
      </trkpt>
      <trkpt lat="42.284558" lon="-8.791551">
        <ele>312.7</ele>
        <time>2022-08-21T08:36:21.000Z</time>
      </trkpt>
      <trkpt lat="42.284594" lon="-8.791507">
        <ele>314.6</ele>
        <time>2022-08-21T08:36:25.000Z</time>
      </trkpt>
      <trkpt lat="42.284626" lon="-8.791462">
        <ele>315.8</ele>
        <time>2022-08-21T08:36:31.000Z</time>
      </trkpt>
      <trkpt lat="42.284649" lon="-8.7914">
        <ele>315.5</ele>
        <time>2022-08-21T08:36:35.000Z</time>
      </trkpt>
      <trkpt lat="42.284666" lon="-8.791338">
        <ele>315.4</ele>
        <time>2022-08-21T08:36:39.000Z</time>
      </trkpt>
      <trkpt lat="42.284683" lon="-8.791272">
        <ele>315.4</ele>
        <time>2022-08-21T08:36:44.000Z</time>
      </trkpt>
      <trkpt lat="42.284704" lon="-8.791217">
        <ele>318.5</ele>
        <time>2022-08-21T08:36:56.000Z</time>
      </trkpt>
      <trkpt lat="42.284738" lon="-8.791171">
        <ele>318.7</ele>
        <time>2022-08-21T08:37:06.000Z</time>
      </trkpt>
      <trkpt lat="42.284806" lon="-8.791076">
        <ele>319.5</ele>
        <time>2022-08-21T08:37:19.000Z</time>
      </trkpt>
      <trkpt lat="42.284842" lon="-8.791031">
        <ele>318.4</ele>
        <time>2022-08-21T08:37:23.000Z</time>
      </trkpt>
      <trkpt lat="42.284932" lon="-8.790996">
        <ele>318.5</ele>
        <time>2022-08-21T08:37:29.000Z</time>
      </trkpt>
      <trkpt lat="42.28498" lon="-8.79098">
        <ele>320.7</ele>
        <time>2022-08-21T08:37:37.000Z</time>
      </trkpt>
      <trkpt lat="42.285121" lon="-8.790965">
        <ele>323.3</ele>
        <time>2022-08-21T08:37:46.000Z</time>
      </trkpt>
      <trkpt lat="42.285169" lon="-8.79095">
        <ele>323</ele>
        <time>2022-08-21T08:37:50.000Z</time>
      </trkpt>
      <trkpt lat="42.285199" lon="-8.790901">
        <ele>324</ele>
        <time>2022-08-21T08:37:59.000Z</time>
      </trkpt>
      <trkpt lat="42.285249" lon="-8.7909">
        <ele>328.3</ele>
        <time>2022-08-21T08:38:14.000Z</time>
      </trkpt>
      <trkpt lat="42.285289" lon="-8.79086">
        <ele>330.1</ele>
        <time>2022-08-21T08:38:18.000Z</time>
      </trkpt>
      <trkpt lat="42.285324" lon="-8.790819">
        <ele>329.4</ele>
        <time>2022-08-21T08:38:23.000Z</time>
      </trkpt>
      <trkpt lat="42.285309" lon="-8.790751">
        <ele>329.7</ele>
        <time>2022-08-21T08:38:32.000Z</time>
      </trkpt>
      <trkpt lat="42.285351" lon="-8.790791">
        <ele>330.6</ele>
        <time>2022-08-21T08:44:53.000Z</time>
      </trkpt>
      <trkpt lat="42.285405" lon="-8.790816">
        <ele>329.6</ele>
        <time>2022-08-21T08:44:58.000Z</time>
      </trkpt>
      <trkpt lat="42.285452" lon="-8.790813">
        <ele>328.1</ele>
        <time>2022-08-21T08:45:02.000Z</time>
      </trkpt>
      <trkpt lat="42.285499" lon="-8.790799">
        <ele>327.3</ele>
        <time>2022-08-21T08:45:06.000Z</time>
      </trkpt>
      <trkpt lat="42.285541" lon="-8.790774">
        <ele>325.8</ele>
        <time>2022-08-21T08:45:13.000Z</time>
      </trkpt>
      <trkpt lat="42.28558" lon="-8.79074">
        <ele>323.4</ele>
        <time>2022-08-21T08:45:21.000Z</time>
      </trkpt>
      <trkpt lat="42.285627" lon="-8.790708">
        <ele>321.8</ele>
        <time>2022-08-21T08:45:26.000Z</time>
      </trkpt>
      <trkpt lat="42.285674" lon="-8.7907">
        <ele>318</ele>
        <time>2022-08-21T08:45:32.000Z</time>
      </trkpt>
      <trkpt lat="42.285719" lon="-8.790703">
        <ele>316.1</ele>
        <time>2022-08-21T08:45:35.000Z</time>
      </trkpt>
      <trkpt lat="42.285771" lon="-8.790718">
        <ele>312.1</ele>
        <time>2022-08-21T08:45:48.000Z</time>
      </trkpt>
      <trkpt lat="42.28581" lon="-8.790683">
        <ele>312.7</ele>
        <time>2022-08-21T08:46:05.000Z</time>
      </trkpt>
      <trkpt lat="42.285904" lon="-8.790612">
        <ele>311.6</ele>
        <time>2022-08-21T08:46:11.000Z</time>
      </trkpt>
      <trkpt lat="42.285956" lon="-8.790591">
        <ele>310.8</ele>
        <time>2022-08-21T08:46:15.000Z</time>
      </trkpt>
      <trkpt lat="42.286005" lon="-8.790568">
        <ele>310.7</ele>
        <time>2022-08-21T08:46:18.000Z</time>
      </trkpt>
      <trkpt lat="42.286056" lon="-8.790564">
        <ele>308.6</ele>
        <time>2022-08-21T08:46:24.000Z</time>
      </trkpt>
      <trkpt lat="42.286102" lon="-8.790562">
        <ele>307.6</ele>
        <time>2022-08-21T08:46:30.000Z</time>
      </trkpt>
      <trkpt lat="42.286149" lon="-8.790542">
        <ele>306.2</ele>
        <time>2022-08-21T08:46:35.000Z</time>
      </trkpt>
      <trkpt lat="42.28621" lon="-8.790512">
        <ele>305.6</ele>
        <time>2022-08-21T08:46:39.000Z</time>
      </trkpt>
      <trkpt lat="42.28626" lon="-8.790492">
        <ele>304.7</ele>
        <time>2022-08-21T08:46:43.000Z</time>
      </trkpt>
      <trkpt lat="42.286295" lon="-8.790452">
        <ele>302.5</ele>
        <time>2022-08-21T08:46:49.000Z</time>
      </trkpt>
      <trkpt lat="42.286346" lon="-8.790415">
        <ele>301.9</ele>
        <time>2022-08-21T08:46:53.000Z</time>
      </trkpt>
      <trkpt lat="42.286392" lon="-8.790384">
        <ele>301.8</ele>
        <time>2022-08-21T08:46:58.000Z</time>
      </trkpt>
      <trkpt lat="42.286434" lon="-8.790358">
        <ele>301.5</ele>
        <time>2022-08-21T08:47:01.000Z</time>
      </trkpt>
      <trkpt lat="42.286476" lon="-8.790321">
        <ele>301.6</ele>
        <time>2022-08-21T08:47:05.000Z</time>
      </trkpt>
      <trkpt lat="42.28653" lon="-8.790295">
        <ele>300.6</ele>
        <time>2022-08-21T08:47:09.000Z</time>
      </trkpt>
      <trkpt lat="42.286574" lon="-8.790263">
        <ele>300.4</ele>
        <time>2022-08-21T08:47:12.000Z</time>
      </trkpt>
      <trkpt lat="42.286626" lon="-8.79024">
        <ele>300.5</ele>
        <time>2022-08-21T08:47:17.000Z</time>
      </trkpt>
      <trkpt lat="42.286671" lon="-8.790201">
        <ele>300.6</ele>
        <time>2022-08-21T08:47:22.000Z</time>
      </trkpt>
      <trkpt lat="42.286699" lon="-8.790144">
        <ele>301.1</ele>
        <time>2022-08-21T08:47:27.000Z</time>
      </trkpt>
      <trkpt lat="42.2867" lon="-8.790079">
        <ele>301.3</ele>
        <time>2022-08-21T08:47:39.000Z</time>
      </trkpt>
      <trkpt lat="42.286728" lon="-8.790025">
        <ele>301.6</ele>
        <time>2022-08-21T08:47:43.000Z</time>
      </trkpt>
      <trkpt lat="42.286792" lon="-8.789901">
        <ele>298.4</ele>
        <time>2022-08-21T08:47:49.000Z</time>
      </trkpt>
      <trkpt lat="42.286829" lon="-8.789848">
        <ele>297.4</ele>
        <time>2022-08-21T08:47:52.000Z</time>
      </trkpt>
      <trkpt lat="42.286865" lon="-8.789799">
        <ele>297</ele>
        <time>2022-08-21T08:47:56.000Z</time>
      </trkpt>
      <trkpt lat="42.286907" lon="-8.789778">
        <ele>297</ele>
        <time>2022-08-21T08:47:59.000Z</time>
      </trkpt>
      <trkpt lat="42.28694" lon="-8.789736">
        <ele>296.7</ele>
        <time>2022-08-21T08:48:06.000Z</time>
      </trkpt>
      <trkpt lat="42.286972" lon="-8.789689">
        <ele>296.1</ele>
        <time>2022-08-21T08:48:10.000Z</time>
      </trkpt>
      <trkpt lat="42.287009" lon="-8.789653">
        <ele>297.4</ele>
        <time>2022-08-21T08:48:17.000Z</time>
      </trkpt>
      <trkpt lat="42.287115" lon="-8.789617">
        <ele>297.5</ele>
        <time>2022-08-21T08:48:23.000Z</time>
      </trkpt>
      <trkpt lat="42.287158" lon="-8.789582">
        <ele>298.2</ele>
        <time>2022-08-21T08:48:27.000Z</time>
      </trkpt>
      <trkpt lat="42.287249" lon="-8.789556">
        <ele>297.6</ele>
        <time>2022-08-21T08:48:32.000Z</time>
      </trkpt>
      <trkpt lat="42.2873" lon="-8.789548">
        <ele>298</ele>
        <time>2022-08-21T08:48:36.000Z</time>
      </trkpt>
      <trkpt lat="42.287352" lon="-8.789534">
        <ele>298.1</ele>
        <time>2022-08-21T08:48:39.000Z</time>
      </trkpt>
      <trkpt lat="42.287389" lon="-8.789495">
        <ele>298.5</ele>
        <time>2022-08-21T08:48:43.000Z</time>
      </trkpt>
      <trkpt lat="42.287424" lon="-8.789454">
        <ele>299.7</ele>
        <time>2022-08-21T08:48:47.000Z</time>
      </trkpt>
      <trkpt lat="42.28746" lon="-8.789413">
        <ele>299.8</ele>
        <time>2022-08-21T08:48:51.000Z</time>
      </trkpt>
      <trkpt lat="42.287502" lon="-8.789368">
        <ele>300.2</ele>
        <time>2022-08-21T08:48:57.000Z</time>
      </trkpt>
      <trkpt lat="42.287545" lon="-8.789343">
        <ele>301</ele>
        <time>2022-08-21T08:49:01.000Z</time>
      </trkpt>
      <trkpt lat="42.287589" lon="-8.789356">
        <ele>301.3</ele>
        <time>2022-08-21T08:49:04.000Z</time>
      </trkpt>
      <trkpt lat="42.287644" lon="-8.789355">
        <ele>300.2</ele>
        <time>2022-08-21T08:49:10.000Z</time>
      </trkpt>
      <trkpt lat="42.287687" lon="-8.789322">
        <ele>301.1</ele>
        <time>2022-08-21T08:49:15.000Z</time>
      </trkpt>
      <trkpt lat="42.287816" lon="-8.789226">
        <ele>300.3</ele>
        <time>2022-08-21T08:49:25.000Z</time>
      </trkpt>
      <trkpt lat="42.287863" lon="-8.789214">
        <ele>299.8</ele>
        <time>2022-08-21T08:49:28.000Z</time>
      </trkpt>
      <trkpt lat="42.287909" lon="-8.789204">
        <ele>299.6</ele>
        <time>2022-08-21T08:49:31.000Z</time>
      </trkpt>
      <trkpt lat="42.287955" lon="-8.789182">
        <ele>299.2</ele>
        <time>2022-08-21T08:49:35.000Z</time>
      </trkpt>
      <trkpt lat="42.288" lon="-8.789159">
        <ele>298.1</ele>
        <time>2022-08-21T08:49:40.000Z</time>
      </trkpt>
      <trkpt lat="42.288042" lon="-8.789135">
        <ele>298.1</ele>
        <time>2022-08-21T08:49:43.000Z</time>
      </trkpt>
      <trkpt lat="42.28809" lon="-8.789127">
        <ele>298.7</ele>
        <time>2022-08-21T08:49:47.000Z</time>
      </trkpt>
      <trkpt lat="42.288134" lon="-8.789147">
        <ele>298.1</ele>
        <time>2022-08-21T08:49:52.000Z</time>
      </trkpt>
      <trkpt lat="42.288179" lon="-8.78917">
        <ele>298.3</ele>
        <time>2022-08-21T08:49:56.000Z</time>
      </trkpt>
      <trkpt lat="42.288217" lon="-8.789214">
        <ele>299</ele>
        <time>2022-08-21T08:50:01.000Z</time>
      </trkpt>
      <trkpt lat="42.288261" lon="-8.789251">
        <ele>299</ele>
        <time>2022-08-21T08:50:05.000Z</time>
      </trkpt>
      <trkpt lat="42.288303" lon="-8.789285">
        <ele>299.5</ele>
        <time>2022-08-21T08:50:08.000Z</time>
      </trkpt>
      <trkpt lat="42.288347" lon="-8.789304">
        <ele>299.4</ele>
        <time>2022-08-21T08:50:11.000Z</time>
      </trkpt>
      <trkpt lat="42.288394" lon="-8.78932">
        <ele>299.7</ele>
        <time>2022-08-21T08:50:14.000Z</time>
      </trkpt>
      <trkpt lat="42.28844" lon="-8.789326">
        <ele>298.6</ele>
        <time>2022-08-21T08:50:19.000Z</time>
      </trkpt>
      <trkpt lat="42.288486" lon="-8.78933">
        <ele>297.7</ele>
        <time>2022-08-21T08:50:23.000Z</time>
      </trkpt>
      <trkpt lat="42.288547" lon="-8.789329">
        <ele>296.1</ele>
        <time>2022-08-21T08:50:27.000Z</time>
      </trkpt>
      <trkpt lat="42.288593" lon="-8.78935">
        <ele>294.4</ele>
        <time>2022-08-21T08:50:30.000Z</time>
      </trkpt>
      <trkpt lat="42.288639" lon="-8.789372">
        <ele>291.5</ele>
        <time>2022-08-21T08:50:37.000Z</time>
      </trkpt>
      <trkpt lat="42.288697" lon="-8.78937">
        <ele>288.4</ele>
        <time>2022-08-21T08:50:42.000Z</time>
      </trkpt>
      <trkpt lat="42.288751" lon="-8.789357">
        <ele>286.8</ele>
        <time>2022-08-21T08:50:47.000Z</time>
      </trkpt>
      <trkpt lat="42.288796" lon="-8.789327">
        <ele>287.7</ele>
        <time>2022-08-21T08:50:54.000Z</time>
      </trkpt>
      <trkpt lat="42.288844" lon="-8.789339">
        <ele>289.3</ele>
        <time>2022-08-21T08:51:09.000Z</time>
      </trkpt>
      <trkpt lat="42.288892" lon="-8.789328">
        <ele>287.9</ele>
        <time>2022-08-21T08:51:13.000Z</time>
      </trkpt>
      <trkpt lat="42.288937" lon="-8.789313">
        <ele>286.3</ele>
        <time>2022-08-21T08:51:18.000Z</time>
      </trkpt>
      <trkpt lat="42.289095" lon="-8.789308">
        <ele>281.2</ele>
        <time>2022-08-21T08:51:26.000Z</time>
      </trkpt>
      <trkpt lat="42.289145" lon="-8.789311">
        <ele>278.7</ele>
        <time>2022-08-21T08:51:29.000Z</time>
      </trkpt>
      <trkpt lat="42.289191" lon="-8.789333">
        <ele>277.8</ele>
        <time>2022-08-21T08:51:35.000Z</time>
      </trkpt>
      <trkpt lat="42.289236" lon="-8.789352">
        <ele>278.1</ele>
        <time>2022-08-21T08:51:39.000Z</time>
      </trkpt>
      <trkpt lat="42.289281" lon="-8.789374">
        <ele>277.9</ele>
        <time>2022-08-21T08:51:44.000Z</time>
      </trkpt>
      <trkpt lat="42.289328" lon="-8.789387">
        <ele>276.5</ele>
        <time>2022-08-21T08:51:48.000Z</time>
      </trkpt>
      <trkpt lat="42.289379" lon="-8.789393">
        <ele>275.4</ele>
        <time>2022-08-21T08:51:51.000Z</time>
      </trkpt>
      <trkpt lat="42.289427" lon="-8.789384">
        <ele>273.9</ele>
        <time>2022-08-21T08:51:55.000Z</time>
      </trkpt>
      <trkpt lat="42.289477" lon="-8.789389">
        <ele>273.2</ele>
        <time>2022-08-21T08:51:59.000Z</time>
      </trkpt>
      <trkpt lat="42.28953" lon="-8.789385">
        <ele>272.8</ele>
        <time>2022-08-21T08:52:04.000Z</time>
      </trkpt>
      <trkpt lat="42.289576" lon="-8.789378">
        <ele>272</ele>
        <time>2022-08-21T08:52:07.000Z</time>
      </trkpt>
      <trkpt lat="42.289625" lon="-8.789385">
        <ele>271.3</ele>
        <time>2022-08-21T08:52:10.000Z</time>
      </trkpt>
      <trkpt lat="42.289678" lon="-8.789399">
        <ele>270.8</ele>
        <time>2022-08-21T08:52:14.000Z</time>
      </trkpt>
      <trkpt lat="42.289716" lon="-8.789433">
        <ele>270</ele>
        <time>2022-08-21T08:52:18.000Z</time>
      </trkpt>
      <trkpt lat="42.289758" lon="-8.789475">
        <ele>269</ele>
        <time>2022-08-21T08:52:22.000Z</time>
      </trkpt>
      <trkpt lat="42.289807" lon="-8.789509">
        <ele>268.3</ele>
        <time>2022-08-21T08:52:26.000Z</time>
      </trkpt>
      <trkpt lat="42.289857" lon="-8.789524">
        <ele>267.5</ele>
        <time>2022-08-21T08:52:29.000Z</time>
      </trkpt>
      <trkpt lat="42.289905" lon="-8.78955">
        <ele>268.5</ele>
        <time>2022-08-21T08:52:34.000Z</time>
      </trkpt>
      <trkpt lat="42.289958" lon="-8.789578">
        <ele>269.1</ele>
        <time>2022-08-21T08:52:38.000Z</time>
      </trkpt>
      <trkpt lat="42.289999" lon="-8.789633">
        <ele>269.6</ele>
        <time>2022-08-21T08:52:42.000Z</time>
      </trkpt>
      <trkpt lat="42.290031" lon="-8.789685">
        <ele>271.7</ele>
        <time>2022-08-21T08:52:46.000Z</time>
      </trkpt>
      <trkpt lat="42.290066" lon="-8.789725">
        <ele>271.6</ele>
        <time>2022-08-21T08:52:53.000Z</time>
      </trkpt>
      <trkpt lat="42.290114" lon="-8.789746">
        <ele>271.3</ele>
        <time>2022-08-21T08:52:57.000Z</time>
      </trkpt>
      <trkpt lat="42.290244" lon="-8.789829">
        <ele>269.3</ele>
        <time>2022-08-21T08:53:10.000Z</time>
      </trkpt>
      <trkpt lat="42.290291" lon="-8.789833">
        <ele>268</ele>
        <time>2022-08-21T08:53:15.000Z</time>
      </trkpt>
      <trkpt lat="42.290337" lon="-8.789832">
        <ele>267.9</ele>
        <time>2022-08-21T08:53:19.000Z</time>
      </trkpt>
      <trkpt lat="42.290385" lon="-8.789841">
        <ele>268</ele>
        <time>2022-08-21T08:53:24.000Z</time>
      </trkpt>
      <trkpt lat="42.29043" lon="-8.789818">
        <ele>268.1</ele>
        <time>2022-08-21T08:53:31.000Z</time>
      </trkpt>
      <trkpt lat="42.290467" lon="-8.78978">
        <ele>268</ele>
        <time>2022-08-21T08:53:34.000Z</time>
      </trkpt>
      <trkpt lat="42.290567" lon="-8.789724">
        <ele>270.1</ele>
        <time>2022-08-21T08:53:41.000Z</time>
      </trkpt>
      <trkpt lat="42.290616" lon="-8.789719">
        <ele>269.9</ele>
        <time>2022-08-21T08:53:44.000Z</time>
      </trkpt>
      <trkpt lat="42.290666" lon="-8.789704">
        <ele>270.1</ele>
        <time>2022-08-21T08:53:48.000Z</time>
      </trkpt>
      <trkpt lat="42.290711" lon="-8.789684">
        <ele>270.3</ele>
        <time>2022-08-21T08:53:51.000Z</time>
      </trkpt>
      <trkpt lat="42.290753" lon="-8.789635">
        <ele>269.6</ele>
        <time>2022-08-21T08:53:57.000Z</time>
      </trkpt>
      <trkpt lat="42.290768" lon="-8.789571">
        <ele>270</ele>
        <time>2022-08-21T08:54:00.000Z</time>
      </trkpt>
      <trkpt lat="42.290783" lon="-8.789506">
        <ele>270.6</ele>
        <time>2022-08-21T08:54:04.000Z</time>
      </trkpt>
      <trkpt lat="42.290809" lon="-8.789457">
        <ele>270.4</ele>
        <time>2022-08-21T08:54:09.000Z</time>
      </trkpt>
      <trkpt lat="42.29086" lon="-8.789428">
        <ele>269</ele>
        <time>2022-08-21T08:54:34.000Z</time>
      </trkpt>
      <trkpt lat="42.290896" lon="-8.789387">
        <ele>268.7</ele>
        <time>2022-08-21T08:54:37.000Z</time>
      </trkpt>
      <trkpt lat="42.290974" lon="-8.789284">
        <ele>267.9</ele>
        <time>2022-08-21T08:54:43.000Z</time>
      </trkpt>
      <trkpt lat="42.291005" lon="-8.789238">
        <ele>267.3</ele>
        <time>2022-08-21T08:54:46.000Z</time>
      </trkpt>
      <trkpt lat="42.291047" lon="-8.789201">
        <ele>265.9</ele>
        <time>2022-08-21T08:54:54.000Z</time>
      </trkpt>
      <trkpt lat="42.29137" lon="-8.789016">
        <ele>265.1</ele>
        <time>2022-08-21T08:55:15.000Z</time>
      </trkpt>
      <trkpt lat="42.291405" lon="-8.788974">
        <ele>265.2</ele>
        <time>2022-08-21T08:55:19.000Z</time>
      </trkpt>
      <trkpt lat="42.291455" lon="-8.78897">
        <ele>265</ele>
        <time>2022-08-21T08:55:23.000Z</time>
      </trkpt>
      <trkpt lat="42.291505" lon="-8.788977">
        <ele>264.4</ele>
        <time>2022-08-21T08:55:27.000Z</time>
      </trkpt>
      <trkpt lat="42.29155" lon="-8.788962">
        <ele>264.4</ele>
        <time>2022-08-21T08:55:31.000Z</time>
      </trkpt>
      <trkpt lat="42.291594" lon="-8.788949">
        <ele>264.7</ele>
        <time>2022-08-21T08:55:34.000Z</time>
      </trkpt>
      <trkpt lat="42.29164" lon="-8.788939">
        <ele>265</ele>
        <time>2022-08-21T08:55:37.000Z</time>
      </trkpt>
      <trkpt lat="42.291685" lon="-8.788915">
        <ele>265.6</ele>
        <time>2022-08-21T08:55:42.000Z</time>
      </trkpt>
      <trkpt lat="42.291729" lon="-8.7889">
        <ele>265.9</ele>
        <time>2022-08-21T08:55:45.000Z</time>
      </trkpt>
      <trkpt lat="42.291784" lon="-8.788895">
        <ele>266</ele>
        <time>2022-08-21T08:55:51.000Z</time>
      </trkpt>
      <trkpt lat="42.291822" lon="-8.788864">
        <ele>265.8</ele>
        <time>2022-08-21T08:55:57.000Z</time>
      </trkpt>
      <trkpt lat="42.291864" lon="-8.788838">
        <ele>265.9</ele>
        <time>2022-08-21T08:56:01.000Z</time>
      </trkpt>
      <trkpt lat="42.291968" lon="-8.788791">
        <ele>265.9</ele>
        <time>2022-08-21T08:56:07.000Z</time>
      </trkpt>
      <trkpt lat="42.29202" lon="-8.788782">
        <ele>264.3</ele>
        <time>2022-08-21T08:56:13.000Z</time>
      </trkpt>
      <trkpt lat="42.292059" lon="-8.788753">
        <ele>262.1</ele>
        <time>2022-08-21T08:56:23.000Z</time>
      </trkpt>
      <trkpt lat="42.292103" lon="-8.788733">
        <ele>259.3</ele>
        <time>2022-08-21T08:56:28.000Z</time>
      </trkpt>
      <trkpt lat="42.292154" lon="-8.788717">
        <ele>258.8</ele>
        <time>2022-08-21T08:56:32.000Z</time>
      </trkpt>
      <trkpt lat="42.292199" lon="-8.788699">
        <ele>258.5</ele>
        <time>2022-08-21T08:56:35.000Z</time>
      </trkpt>
      <trkpt lat="42.292301" lon="-8.788671">
        <ele>258.5</ele>
        <time>2022-08-21T08:56:41.000Z</time>
      </trkpt>
      <trkpt lat="42.292498" lon="-8.788657">
        <ele>258.9</ele>
        <time>2022-08-21T08:56:52.000Z</time>
      </trkpt>
      <trkpt lat="42.292545" lon="-8.788651">
        <ele>258.2</ele>
        <time>2022-08-21T08:56:55.000Z</time>
      </trkpt>
      <trkpt lat="42.292592" lon="-8.788637">
        <ele>257.5</ele>
        <time>2022-08-21T08:56:58.000Z</time>
      </trkpt>
      <trkpt lat="42.292638" lon="-8.788629">
        <ele>257.8</ele>
        <time>2022-08-21T08:57:01.000Z</time>
      </trkpt>
      <trkpt lat="42.292684" lon="-8.788622">
        <ele>257</ele>
        <time>2022-08-21T08:57:04.000Z</time>
      </trkpt>
      <trkpt lat="42.29273" lon="-8.788646">
        <ele>256</ele>
        <time>2022-08-21T08:57:08.000Z</time>
      </trkpt>
      <trkpt lat="42.292766" lon="-8.788703">
        <ele>256.6</ele>
        <time>2022-08-21T08:57:12.000Z</time>
      </trkpt>
      <trkpt lat="42.292793" lon="-8.788752">
        <ele>255.8</ele>
        <time>2022-08-21T08:57:16.000Z</time>
      </trkpt>
      <trkpt lat="42.292811" lon="-8.78881">
        <ele>255</ele>
        <time>2022-08-21T08:57:19.000Z</time>
      </trkpt>
      <trkpt lat="42.29282" lon="-8.788874">
        <ele>256.1</ele>
        <time>2022-08-21T08:57:23.000Z</time>
      </trkpt>
      <trkpt lat="42.29283" lon="-8.78894">
        <ele>256.2</ele>
        <time>2022-08-21T08:57:27.000Z</time>
      </trkpt>
      <trkpt lat="42.292935" lon="-8.788986">
        <ele>256.4</ele>
        <time>2022-08-21T08:57:33.000Z</time>
      </trkpt>
      <trkpt lat="42.292982" lon="-8.789004">
        <ele>257.2</ele>
        <time>2022-08-21T08:57:37.000Z</time>
      </trkpt>
      <trkpt lat="42.293017" lon="-8.78905">
        <ele>256.4</ele>
        <time>2022-08-21T08:57:50.000Z</time>
      </trkpt>
      <trkpt lat="42.292991" lon="-8.789107">
        <ele>254.7</ele>
        <time>2022-08-21T08:58:03.000Z</time>
      </trkpt>
      <trkpt lat="42.292943" lon="-8.78912">
        <ele>254.4</ele>
        <time>2022-08-21T08:58:07.000Z</time>
      </trkpt>
      <trkpt lat="42.293" lon="-8.789129">
        <ele>253.2</ele>
        <time>2022-08-21T08:58:18.000Z</time>
      </trkpt>
      <trkpt lat="42.29305" lon="-8.789111">
        <ele>253.3</ele>
        <time>2022-08-21T08:58:21.000Z</time>
      </trkpt>
      <trkpt lat="42.293101" lon="-8.78912">
        <ele>253.9</ele>
        <time>2022-08-21T08:58:25.000Z</time>
      </trkpt>
      <trkpt lat="42.293073" lon="-8.789072">
        <ele>250.1</ele>
        <time>2022-08-21T08:58:37.000Z</time>
      </trkpt>
      <trkpt lat="42.293078" lon="-8.789133">
        <ele>252.3</ele>
        <time>2022-08-21T08:58:49.000Z</time>
      </trkpt>
      <trkpt lat="42.29309" lon="-8.789197">
        <ele>252.7</ele>
        <time>2022-08-21T08:58:54.000Z</time>
      </trkpt>
      <trkpt lat="42.293111" lon="-8.78926">
        <ele>252.8</ele>
        <time>2022-08-21T08:59:00.000Z</time>
      </trkpt>
      <trkpt lat="42.293146" lon="-8.789305">
        <ele>253.3</ele>
        <time>2022-08-21T08:59:05.000Z</time>
      </trkpt>
      <trkpt lat="42.293154" lon="-8.789369">
        <ele>257</ele>
        <time>2022-08-21T08:59:20.000Z</time>
      </trkpt>
      <trkpt lat="42.293181" lon="-8.789419">
        <ele>256.8</ele>
        <time>2022-08-21T08:59:28.000Z</time>
      </trkpt>
      <trkpt lat="42.293212" lon="-8.789464">
        <ele>257.2</ele>
        <time>2022-08-21T08:59:35.000Z</time>
      </trkpt>
      <trkpt lat="42.293237" lon="-8.789522">
        <ele>256.9</ele>
        <time>2022-08-21T08:59:40.000Z</time>
      </trkpt>
      <trkpt lat="42.293269" lon="-8.789575">
        <ele>256.8</ele>
        <time>2022-08-21T08:59:45.000Z</time>
      </trkpt>
      <trkpt lat="42.29331" lon="-8.789625">
        <ele>257.2</ele>
        <time>2022-08-21T08:59:51.000Z</time>
      </trkpt>
      <trkpt lat="42.293387" lon="-8.789704">
        <ele>257.8</ele>
        <time>2022-08-21T08:59:59.000Z</time>
      </trkpt>
      <trkpt lat="42.293516" lon="-8.789823">
        <ele>258.7</ele>
        <time>2022-08-21T09:00:10.000Z</time>
      </trkpt>
      <trkpt lat="42.293535" lon="-8.78989">
        <ele>257.1</ele>
        <time>2022-08-21T09:00:15.000Z</time>
      </trkpt>
      <trkpt lat="42.293546" lon="-8.789953">
        <ele>256</ele>
        <time>2022-08-21T09:00:23.000Z</time>
      </trkpt>
      <trkpt lat="42.293575" lon="-8.790001">
        <ele>252.9</ele>
        <time>2022-08-21T09:00:28.000Z</time>
      </trkpt>
      <trkpt lat="42.293614" lon="-8.790043">
        <ele>250.1</ele>
        <time>2022-08-21T09:00:33.000Z</time>
      </trkpt>
      <trkpt lat="42.293629" lon="-8.790102">
        <ele>246.2</ele>
        <time>2022-08-21T09:00:40.000Z</time>
      </trkpt>
      <trkpt lat="42.293626" lon="-8.790163">
        <ele>244</ele>
        <time>2022-08-21T09:00:44.000Z</time>
      </trkpt>
      <trkpt lat="42.29363" lon="-8.790228">
        <ele>240.4</ele>
        <time>2022-08-21T09:00:51.000Z</time>
      </trkpt>
      <trkpt lat="42.293756" lon="-8.790457">
        <ele>230.4</ele>
        <time>2022-08-21T09:01:08.000Z</time>
      </trkpt>
      <trkpt lat="42.293789" lon="-8.790504">
        <ele>229.4</ele>
        <time>2022-08-21T09:01:13.000Z</time>
      </trkpt>
      <trkpt lat="42.293989" lon="-8.790557">
        <ele>226.4</ele>
        <time>2022-08-21T09:01:26.000Z</time>
      </trkpt>
      <trkpt lat="42.294029" lon="-8.79059">
        <ele>224.1</ele>
        <time>2022-08-21T09:01:30.000Z</time>
      </trkpt>
      <trkpt lat="42.293986" lon="-8.790619">
        <ele>222.4</ele>
        <time>2022-08-21T09:01:33.000Z</time>
      </trkpt>
      <trkpt lat="42.29402" lon="-8.790663">
        <ele>220</ele>
        <time>2022-08-21T09:01:48.000Z</time>
      </trkpt>
      <trkpt lat="42.294053" lon="-8.790708">
        <ele>221.3</ele>
        <time>2022-08-21T09:02:05.000Z</time>
      </trkpt>
      <trkpt lat="42.294009" lon="-8.790732">
        <ele>221.4</ele>
        <time>2022-08-21T09:02:20.000Z</time>
      </trkpt>
      <trkpt lat="42.293968" lon="-8.790757">
        <ele>221.9</ele>
        <time>2022-08-21T09:02:28.000Z</time>
      </trkpt>
      <trkpt lat="42.293945" lon="-8.790815">
        <ele>222.6</ele>
        <time>2022-08-21T09:02:34.000Z</time>
      </trkpt>
      <trkpt lat="42.293918" lon="-8.790874">
        <ele>222.6</ele>
        <time>2022-08-21T09:02:38.000Z</time>
      </trkpt>
      <trkpt lat="42.29371" lon="-8.791083">
        <ele>222.4</ele>
        <time>2022-08-21T09:02:52.000Z</time>
      </trkpt>
      <trkpt lat="42.293687" lon="-8.791137">
        <ele>222.3</ele>
        <time>2022-08-21T09:02:56.000Z</time>
      </trkpt>
      <trkpt lat="42.293664" lon="-8.791197">
        <ele>222.1</ele>
        <time>2022-08-21T09:02:59.000Z</time>
      </trkpt>
      <trkpt lat="42.293635" lon="-8.791244">
        <ele>221.8</ele>
        <time>2022-08-21T09:03:02.000Z</time>
      </trkpt>
      <trkpt lat="42.293591" lon="-8.791271">
        <ele>221.2</ele>
        <time>2022-08-21T09:03:05.000Z</time>
      </trkpt>
      <trkpt lat="42.293548" lon="-8.791318">
        <ele>220.3</ele>
        <time>2022-08-21T09:03:09.000Z</time>
      </trkpt>
      <trkpt lat="42.293524" lon="-8.79145">
        <ele>218.2</ele>
        <time>2022-08-21T09:03:15.000Z</time>
      </trkpt>
      <trkpt lat="42.293451" lon="-8.79161">
        <ele>216.8</ele>
        <time>2022-08-21T09:03:26.000Z</time>
      </trkpt>
      <trkpt lat="42.293207" lon="-8.791934">
        <ele>208.3</ele>
        <time>2022-08-21T09:04:09.000Z</time>
      </trkpt>
      <trkpt lat="42.293195" lon="-8.791994">
        <ele>206.4</ele>
        <time>2022-08-21T09:04:17.000Z</time>
      </trkpt>
      <trkpt lat="42.293164" lon="-8.792038">
        <ele>206.6</ele>
        <time>2022-08-21T09:04:36.000Z</time>
      </trkpt>
      <trkpt lat="42.29312" lon="-8.792065">
        <ele>205.9</ele>
        <time>2022-08-21T09:04:48.000Z</time>
      </trkpt>
      <trkpt lat="42.293089" lon="-8.792112">
        <ele>201.6</ele>
        <time>2022-08-21T09:05:07.000Z</time>
      </trkpt>
      <trkpt lat="42.293067" lon="-8.792168">
        <ele>199.5</ele>
        <time>2022-08-21T09:05:15.000Z</time>
      </trkpt>
      <trkpt lat="42.293055" lon="-8.792299">
        <ele>199</ele>
        <time>2022-08-21T09:05:27.000Z</time>
      </trkpt>
      <trkpt lat="42.293027" lon="-8.79235">
        <ele>197.6</ele>
        <time>2022-08-21T09:05:39.000Z</time>
      </trkpt>
      <trkpt lat="42.292994" lon="-8.792394">
        <ele>195.3</ele>
        <time>2022-08-21T09:05:52.000Z</time>
      </trkpt>
      <trkpt lat="42.292955" lon="-8.792441">
        <ele>192.8</ele>
        <time>2022-08-21T09:06:02.000Z</time>
      </trkpt>
      <trkpt lat="42.29291" lon="-8.792447">
        <ele>191.3</ele>
        <time>2022-08-21T09:06:10.000Z</time>
      </trkpt>
      <trkpt lat="42.293036" lon="-8.79237">
        <ele>191</ele>
        <time>2022-08-21T09:06:25.000Z</time>
      </trkpt>
      <trkpt lat="42.293081" lon="-8.792351">
        <ele>191.2</ele>
        <time>2022-08-21T09:06:39.000Z</time>
      </trkpt>
      <trkpt lat="42.293126" lon="-8.792352">
        <ele>191.4</ele>
        <time>2022-08-21T09:06:45.000Z</time>
      </trkpt>
      <trkpt lat="42.293172" lon="-8.79233">
        <ele>192</ele>
        <time>2022-08-21T09:06:52.000Z</time>
      </trkpt>
      <trkpt lat="42.293217" lon="-8.79231">
        <ele>193.9</ele>
        <time>2022-08-21T09:06:59.000Z</time>
      </trkpt>
      <trkpt lat="42.293263" lon="-8.792292">
        <ele>193.8</ele>
        <time>2022-08-21T09:07:03.000Z</time>
      </trkpt>
      <trkpt lat="42.293307" lon="-8.792275">
        <ele>193.3</ele>
        <time>2022-08-21T09:07:06.000Z</time>
      </trkpt>
      <trkpt lat="42.293439" lon="-8.792166">
        <ele>193.8</ele>
        <time>2022-08-21T09:07:15.000Z</time>
      </trkpt>
      <trkpt lat="42.293482" lon="-8.792132">
        <ele>193.9</ele>
        <time>2022-08-21T09:07:19.000Z</time>
      </trkpt>
      <trkpt lat="42.2935" lon="-8.792073">
        <ele>193.4</ele>
        <time>2022-08-21T09:07:29.000Z</time>
      </trkpt>
      <trkpt lat="42.293519" lon="-8.791991">
        <ele>192.8</ele>
        <time>2022-08-21T09:07:34.000Z</time>
      </trkpt>
      <trkpt lat="42.293659" lon="-8.791898">
        <ele>195.7</ele>
        <time>2022-08-21T09:07:43.000Z</time>
      </trkpt>
      <trkpt lat="42.293704" lon="-8.7919">
        <ele>196.5</ele>
        <time>2022-08-21T09:07:49.000Z</time>
      </trkpt>
      <trkpt lat="42.293718" lon="-8.791832">
        <ele>197.5</ele>
        <time>2022-08-21T09:07:59.000Z</time>
      </trkpt>
      <trkpt lat="42.293715" lon="-8.791761">
        <ele>197.5</ele>
        <time>2022-08-21T09:08:02.000Z</time>
      </trkpt>
      <trkpt lat="42.293736" lon="-8.7917">
        <ele>197.3</ele>
        <time>2022-08-21T09:08:07.000Z</time>
      </trkpt>
      <trkpt lat="42.293761" lon="-8.791646">
        <ele>198.5</ele>
        <time>2022-08-21T09:08:11.000Z</time>
      </trkpt>
      <trkpt lat="42.293777" lon="-8.791587">
        <ele>199.5</ele>
        <time>2022-08-21T09:08:15.000Z</time>
      </trkpt>
      <trkpt lat="42.293826" lon="-8.791585">
        <ele>202</ele>
        <time>2022-08-21T09:08:24.000Z</time>
      </trkpt>
      <trkpt lat="42.293864" lon="-8.791547">
        <ele>203.9</ele>
        <time>2022-08-21T09:08:30.000Z</time>
      </trkpt>
      <trkpt lat="42.293898" lon="-8.791506">
        <ele>204.9</ele>
        <time>2022-08-21T09:08:34.000Z</time>
      </trkpt>
      <trkpt lat="42.293927" lon="-8.791451">
        <ele>208.1</ele>
        <time>2022-08-21T09:08:39.000Z</time>
      </trkpt>
      <trkpt lat="42.293949" lon="-8.791394">
        <ele>209.6</ele>
        <time>2022-08-21T09:08:42.000Z</time>
      </trkpt>
      <trkpt lat="42.293983" lon="-8.791336">
        <ele>211.6</ele>
        <time>2022-08-21T09:08:46.000Z</time>
      </trkpt>
      <trkpt lat="42.294016" lon="-8.791281">
        <ele>213.5</ele>
        <time>2022-08-21T09:08:50.000Z</time>
      </trkpt>
      <trkpt lat="42.294059" lon="-8.79125">
        <ele>216</ele>
        <time>2022-08-21T09:08:53.000Z</time>
      </trkpt>
      <trkpt lat="42.294108" lon="-8.79124">
        <ele>218.7</ele>
        <time>2022-08-21T09:08:58.000Z</time>
      </trkpt>
      <trkpt lat="42.294157" lon="-8.791249">
        <ele>221.1</ele>
        <time>2022-08-21T09:09:03.000Z</time>
      </trkpt>
      <trkpt lat="42.294201" lon="-8.791269">
        <ele>221.6</ele>
        <time>2022-08-21T09:09:06.000Z</time>
      </trkpt>
      <trkpt lat="42.294249" lon="-8.791284">
        <ele>223.5</ele>
        <time>2022-08-21T09:09:15.000Z</time>
      </trkpt>
      <trkpt lat="42.294299" lon="-8.791286">
        <ele>222.8</ele>
        <time>2022-08-21T09:09:19.000Z</time>
      </trkpt>
      <trkpt lat="42.294346" lon="-8.791282">
        <ele>221.1</ele>
        <time>2022-08-21T09:09:27.000Z</time>
      </trkpt>
      <trkpt lat="42.294395" lon="-8.791274">
        <ele>220.5</ele>
        <time>2022-08-21T09:09:33.000Z</time>
      </trkpt>
      <trkpt lat="42.294446" lon="-8.791249">
        <ele>220.6</ele>
        <time>2022-08-21T09:09:39.000Z</time>
      </trkpt>
      <trkpt lat="42.294493" lon="-8.791225">
        <ele>220.4</ele>
        <time>2022-08-21T09:09:43.000Z</time>
      </trkpt>
      <trkpt lat="42.294539" lon="-8.791208">
        <ele>220.9</ele>
        <time>2022-08-21T09:09:47.000Z</time>
      </trkpt>
      <trkpt lat="42.294581" lon="-8.791182">
        <ele>220.8</ele>
        <time>2022-08-21T09:09:51.000Z</time>
      </trkpt>
      <trkpt lat="42.294678" lon="-8.791146">
        <ele>223.2</ele>
        <time>2022-08-21T09:09:57.000Z</time>
      </trkpt>
      <trkpt lat="42.294726" lon="-8.791173">
        <ele>223.2</ele>
        <time>2022-08-21T09:10:01.000Z</time>
      </trkpt>
      <trkpt lat="42.29476" lon="-8.791219">
        <ele>223.8</ele>
        <time>2022-08-21T09:10:04.000Z</time>
      </trkpt>
      <trkpt lat="42.294795" lon="-8.791261">
        <ele>225.3</ele>
        <time>2022-08-21T09:10:09.000Z</time>
      </trkpt>
      <trkpt lat="42.294832" lon="-8.791298">
        <ele>225.6</ele>
        <time>2022-08-21T09:10:12.000Z</time>
      </trkpt>
      <trkpt lat="42.294924" lon="-8.791347">
        <ele>226.1</ele>
        <time>2022-08-21T09:10:18.000Z</time>
      </trkpt>
      <trkpt lat="42.294968" lon="-8.791365">
        <ele>226.9</ele>
        <time>2022-08-21T09:10:22.000Z</time>
      </trkpt>
      <trkpt lat="42.295009" lon="-8.791335">
        <ele>226.7</ele>
        <time>2022-08-21T09:10:26.000Z</time>
      </trkpt>
      <trkpt lat="42.295043" lon="-8.79129">
        <ele>227.2</ele>
        <time>2022-08-21T09:10:30.000Z</time>
      </trkpt>
      <trkpt lat="42.295036" lon="-8.791223">
        <ele>227.3</ele>
        <time>2022-08-21T09:10:39.000Z</time>
      </trkpt>
      <trkpt lat="42.295037" lon="-8.791151">
        <ele>227.7</ele>
        <time>2022-08-21T09:10:45.000Z</time>
      </trkpt>
      <trkpt lat="42.295033" lon="-8.791087">
        <ele>228.4</ele>
        <time>2022-08-21T09:10:53.000Z</time>
      </trkpt>
      <trkpt lat="42.295051" lon="-8.791029">
        <ele>230.2</ele>
        <time>2022-08-21T09:11:07.000Z</time>
      </trkpt>
      <trkpt lat="42.295103" lon="-8.791018">
        <ele>233.2</ele>
        <time>2022-08-21T09:11:18.000Z</time>
      </trkpt>
      <trkpt lat="42.295153" lon="-8.791022">
        <ele>233.8</ele>
        <time>2022-08-21T09:11:25.000Z</time>
      </trkpt>
      <trkpt lat="42.295201" lon="-8.791011">
        <ele>238.2</ele>
        <time>2022-08-21T09:11:37.000Z</time>
      </trkpt>
      <trkpt lat="42.295351" lon="-8.790983">
        <ele>237.8</ele>
        <time>2022-08-21T09:11:52.000Z</time>
      </trkpt>
      <trkpt lat="42.295398" lon="-8.790978">
        <ele>238.2</ele>
        <time>2022-08-21T09:11:59.000Z</time>
      </trkpt>
      <trkpt lat="42.295693" lon="-8.790469">
        <ele>242.9</ele>
        <time>2022-08-21T09:12:42.000Z</time>
      </trkpt>
      <trkpt lat="42.295734" lon="-8.790503">
        <ele>241.7</ele>
        <time>2022-08-21T09:12:51.000Z</time>
      </trkpt>
      <trkpt lat="42.295776" lon="-8.790474">
        <ele>237.7</ele>
        <time>2022-08-21T09:13:04.000Z</time>
      </trkpt>
      <trkpt lat="42.295798" lon="-8.790419">
        <ele>236</ele>
        <time>2022-08-21T09:13:15.000Z</time>
      </trkpt>
      <trkpt lat="42.295798" lon="-8.790419">
        <ele>236</ele>
        <time>2022-08-21T09:13:15.001Z</time>
      </trkpt>
      <trkpt lat="42.295905" lon="-8.790448">
        <ele>244.048</ele>
        <time>1970-01-01T02:22:23Z</time>
      </trkpt>
      <trkpt lat="42.295765" lon="-8.790072">
        <ele>253.974</ele>
        <time>1970-01-01T02:23:05Z</time>
      </trkpt>
      <trkpt lat="42.296196" lon="-8.789807">
        <ele>261.366</ele>
        <time>1970-01-01T02:23:58Z</time>
      </trkpt>
      <trkpt lat="42.296432" lon="-8.789883">
        <ele>260.545</ele>
        <time>1970-01-01T02:24:15Z</time>
      </trkpt>
      <trkpt lat="42.296454" lon="-8.78977">
        <ele>264.682</ele>
        <time>1970-01-01T02:24:24Z</time>
      </trkpt>
      <trkpt lat="42.296898" lon="-8.789697">
        <ele>271.695</ele>
        <time>1970-01-01T02:25:16Z</time>
      </trkpt>
      <trkpt lat="42.29733" lon="-8.789234">
        <ele>287.049</ele>
        <time>1970-01-01T02:26:24Z</time>
      </trkpt>
      <trkpt lat="42.297671" lon="-8.789139">
        <ele>297.723</ele>
        <time>1970-01-01T02:26:59Z</time>
      </trkpt>
      <trkpt lat="42.298001" lon="-8.789337">
        <ele>302.908</ele>
        <time>1970-01-01T02:27:44Z</time>
      </trkpt>
      <trkpt lat="42.298352" lon="-8.788885">
        <ele>317.938</ele>
        <time>1970-01-01T02:28:56Z</time>
      </trkpt>
      <trkpt lat="42.298636" lon="-8.788783">
        <ele>317.09</ele>
        <time>1970-01-01T02:30:02Z</time>
      </trkpt>
      <trkpt lat="42.298954" lon="-8.78896">
        <ele>311.387</ele>
        <time>1970-01-01T02:30:44Z</time>
      </trkpt>
      <trkpt lat="42.299321" lon="-8.788922">
        <ele>302.273</ele>
        <time>1970-01-01T02:31:11Z</time>
      </trkpt>
      <trkpt lat="42.299622" lon="-8.788711">
        <ele>294.139</ele>
        <time>1970-01-01T02:31:36Z</time>
      </trkpt>
      <trkpt lat="42.299951" lon="-8.78882">
        <ele>283.061</ele>
        <time>1970-01-01T02:32:01Z</time>
      </trkpt>
      <trkpt lat="42.30008" lon="-8.78869">
        <ele>279.17</ele>
        <time>1970-01-01T02:32:15Z</time>
      </trkpt>
      <trkpt lat="42.300472" lon="-8.788871">
        <ele>265.187</ele>
        <time>1970-01-01T02:32:36Z</time>
      </trkpt>
      <trkpt lat="42.300596" lon="-8.788754">
        <ele>262.255</ele>
        <time>1970-01-01T02:32:44Z</time>
      </trkpt>
      <trkpt lat="42.300971" lon="-8.789009">
        <ele>250.407</ele>
        <time>1970-01-01T02:33:07Z</time>
      </trkpt>
      <trkpt lat="42.301068" lon="-8.789647">
        <ele>236.317</ele>
        <time>1970-01-01T02:33:31Z</time>
      </trkpt>
      <trkpt lat="42.300976" lon="-8.790341">
        <ele>227.208</ele>
        <time>1970-01-01T02:33:55Z</time>
      </trkpt>
      <trkpt lat="42.301536" lon="-8.790371">
        <ele>212.224</ele>
        <time>1970-01-01T02:34:24Z</time>
      </trkpt>
      <trkpt lat="42.301892" lon="-8.789827">
        <ele>208.396</ele>
        <time>1970-01-01T02:34:49Z</time>
      </trkpt>
      <trkpt lat="42.301984" lon="-8.790365">
        <ele>200.133</ele>
        <time>1970-01-01T02:35:11Z</time>
      </trkpt>
      <trkpt lat="42.302451" lon="-8.790742">
        <ele>189.589</ele>
        <time>1970-01-01T02:35:32Z</time>
      </trkpt>
      <trkpt lat="42.303001" lon="-8.790831">
        <ele>177.235</ele>
        <time>1970-01-01T02:35:47Z</time>
      </trkpt>
      <trkpt lat="42.303709" lon="-8.79074">
        <ele>175.267</ele>
        <time>1970-01-01T02:36:12Z</time>
      </trkpt>
      <trkpt lat="42.303866" lon="-8.792571">
        <ele>175.466</ele>
        <time>1970-01-01T02:37:02Z</time>
      </trkpt>
      <trkpt lat="42.304026" lon="-8.792965">
        <ele>175.123</ele>
        <time>1970-01-01T02:37:14Z</time>
      </trkpt>
      <trkpt lat="42.303733" lon="-8.794194">
        <ele>155.932</ele>
        <time>1970-01-01T02:37:54Z</time>
      </trkpt>
      <trkpt lat="42.303953" lon="-8.794194">
        <ele>154.392</ele>
        <time>1970-01-01T02:38:07Z</time>
      </trkpt>
      <trkpt lat="42.303976" lon="-8.794361">
        <ele>152.711</ele>
        <time>1970-01-01T02:38:11Z</time>
      </trkpt>
      <trkpt lat="42.304441" lon="-8.794052">
        <ele>155.808</ele>
        <time>1970-01-01T02:38:20Z</time>
      </trkpt>
      <trkpt lat="42.304526" lon="-8.793681">
        <ele>162.872</ele>
        <time>1970-01-01T02:38:36Z</time>
      </trkpt>
      <trkpt lat="42.304855" lon="-8.793643">
        <ele>166.734</ele>
        <time>1970-01-01T02:38:51Z</time>
      </trkpt>
      <trkpt lat="42.305514" lon="-8.793082">
        <ele>168.611</ele>
        <time>1970-01-01T02:39:24Z</time>
      </trkpt>
      <trkpt lat="42.305963" lon="-8.793078">
        <ele>161.847</ele>
        <time>1970-01-01T02:39:46Z</time>
      </trkpt>
      <trkpt lat="42.306034" lon="-8.793936">
        <ele>167.893</ele>
        <time>1970-01-01T02:41:08Z</time>
      </trkpt>
      <trkpt lat="42.306306" lon="-8.794574">
        <ele>173.225</ele>
        <time>1970-01-01T02:41:38Z</time>
      </trkpt>
      <trkpt lat="42.306907" lon="-8.795116">
        <ele>177.214</ele>
        <time>1970-01-01T02:42:09Z</time>
      </trkpt>
      <trkpt lat="42.307459" lon="-8.795355">
        <ele>176.641</ele>
        <time>1970-01-01T02:42:32Z</time>
      </trkpt>
      <trkpt lat="42.307545" lon="-8.795534">
        <ele>177.833</ele>
        <time>1970-01-01T02:42:40Z</time>
      </trkpt>
      <trkpt lat="42.307417" lon="-8.796145">
        <ele>187.423</ele>
        <time>1970-01-01T02:43:08Z</time>
      </trkpt>
      <trkpt lat="42.308165" lon="-8.796646">
        <ele>181.215</ele>
        <time>1970-01-01T02:43:39Z</time>
      </trkpt>
      <trkpt lat="42.308505" lon="-8.797128">
        <ele>176.608</ele>
        <time>1970-01-01T02:43:58Z</time>
      </trkpt>
      <trkpt lat="42.308406" lon="-8.798729">
        <ele>169.132</ele>
        <time>1970-01-01T02:44:48Z</time>
      </trkpt>
      <trkpt lat="42.308867" lon="-8.800442">
        <ele>156.664</ele>
        <time>1970-01-01T02:45:34Z</time>
      </trkpt>
      <trkpt lat="42.308963" lon="-8.801619">
        <ele>132.841</ele>
        <time>1970-01-01T02:46:04Z</time>
      </trkpt>
      <trkpt lat="42.308676" lon="-8.802144">
        <ele>125.697</ele>
        <time>1970-01-01T02:46:22Z</time>
      </trkpt>
      <trkpt lat="42.308829" lon="-8.80224">
        <ele>123.943</ele>
        <time>1970-01-01T02:46:27Z</time>
      </trkpt>
      <trkpt lat="42.309106" lon="-8.802142">
        <ele>122.765</ele>
        <time>1970-01-01T02:46:35Z</time>
      </trkpt>
      <trkpt lat="42.310404" lon="-8.80111">
        <ele>111.384</ele>
        <time>1970-01-01T02:47:30Z</time>
      </trkpt>
      <trkpt lat="42.310447" lon="-8.801233">
        <ele>111.421</ele>
        <time>1970-01-01T02:47:37Z</time>
      </trkpt>
      <trkpt lat="42.310204" lon="-8.801309">
        <ele>107.524</ele>
        <time>1970-01-01T02:47:56Z</time>
      </trkpt>
      <trkpt lat="42.310069" lon="-8.802059">
        <ele>97.204</ele>
        <time>1970-01-01T02:48:25Z</time>
      </trkpt>
      <trkpt lat="42.309579" lon="-8.802945">
        <ele>92.214</ele>
        <time>1970-01-01T02:49:03Z</time>
      </trkpt>
      <trkpt lat="42.309627" lon="-8.803404">
        <ele>89.308</ele>
        <time>1970-01-01T02:49:21Z</time>
      </trkpt>
      <trkpt lat="42.310342" lon="-8.804694">
        <ele>61.521</ele>
        <time>1970-01-01T02:51:05Z</time>
      </trkpt>
      <trkpt lat="42.310662" lon="-8.804807">
        <ele>63.023</ele>
        <time>1970-01-01T02:51:21Z</time>
      </trkpt>
      <trkpt lat="42.310965" lon="-8.805353">
        <ele>66.65</ele>
        <time>1970-01-01T02:51:45Z</time>
      </trkpt>
      <trkpt lat="42.311656" lon="-8.805835">
        <ele>72.986</ele>
        <time>1970-01-01T02:52:27Z</time>
      </trkpt>
      <trkpt lat="42.312241" lon="-8.807953">
        <ele>60.632</ele>
        <time>1970-01-01T02:53:27Z</time>
      </trkpt>
      <trkpt lat="42.312858" lon="-8.808422">
        <ele>61.554</ele>
        <time>1970-01-01T02:53:52Z</time>
      </trkpt>
      <trkpt lat="42.313314" lon="-8.808372">
        <ele>63.653</ele>
        <time>1970-01-01T02:54:09Z</time>
      </trkpt>
      <trkpt lat="42.314223" lon="-8.80745">
        <ele>71.22</ele>
        <time>1970-01-01T03:03:26Z</time>
      </trkpt>
      <trkpt lat="42.31485" lon="-8.807173">
        <ele>71.936</ele>
        <time>1970-01-01T03:03:54Z</time>
      </trkpt>
      <trkpt lat="42.315372" lon="-8.805955">
        <ele>71.317</ele>
        <time>1970-01-01T03:04:33Z</time>
      </trkpt>
      <trkpt lat="42.315689" lon="-8.806146">
        <ele>69.018</ele>
        <time>1970-01-01T03:04:49Z</time>
      </trkpt>
      <trkpt lat="42.31609" lon="-8.80585">
        <ele>70.908</ele>
        <time>1970-01-01T03:05:06Z</time>
      </trkpt>
      <trkpt lat="42.316245" lon="-8.805533">
        <ele>77.412</ele>
        <time>1970-01-01T03:05:20Z</time>
      </trkpt>
      <trkpt lat="42.316968" lon="-8.80585">
        <ele>70.854</ele>
        <time>1970-01-01T03:05:51Z</time>
      </trkpt>
      <trkpt lat="42.317491" lon="-8.806773">
        <ele>77.971</ele>
        <time>1970-01-01T03:06:24Z</time>
      </trkpt>
      <trkpt lat="42.318423" lon="-8.807598">
        <ele>87.197</ele>
        <time>1970-01-01T03:07:13Z</time>
      </trkpt>
      <trkpt lat="42.319606" lon="-8.807697">
        <ele>83.413</ele>
        <time>1970-01-01T03:07:55Z</time>
      </trkpt>
      <trkpt lat="42.320094" lon="-8.807395">
        <ele>78.755</ele>
        <time>1970-01-01T03:08:14Z</time>
      </trkpt>
      <trkpt lat="42.320275" lon="-8.806983">
        <ele>80.554</ele>
        <time>1970-01-01T03:08:29Z</time>
      </trkpt>
      <trkpt lat="42.321232" lon="-8.806975">
        <ele>76.641</ele>
        <time>1970-01-01T03:09:03Z</time>
      </trkpt>
      <trkpt lat="42.32163" lon="-8.807467">
        <ele>69.589</ele>
        <time>1970-01-01T03:09:24Z</time>
      </trkpt>
      <trkpt lat="42.321894" lon="-8.807602">
        <ele>66.706</ele>
        <time>1970-01-01T03:09:34Z</time>
      </trkpt>
      <trkpt lat="42.322241" lon="-8.807484">
        <ele>65.226</ele>
        <time>1970-01-01T03:09:47Z</time>
      </trkpt>
      <trkpt lat="42.322909" lon="-8.808093">
        <ele>63.308</ele>
        <time>1970-01-01T03:10:19Z</time>
      </trkpt>
      <trkpt lat="42.323088" lon="-8.807552">
        <ele>68.367</ele>
        <time>1970-01-01T03:10:36Z</time>
      </trkpt>
      <trkpt lat="42.322831" lon="-8.807088">
        <ele>72.579</ele>
        <time>1970-01-01T03:10:55Z</time>
      </trkpt>
      <trkpt lat="42.322886" lon="-8.806831">
        <ele>78.546</ele>
        <time>1970-01-01T03:11:06Z</time>
      </trkpt>
      <trkpt lat="42.323513" lon="-8.80608">
        <ele>87.332</ele>
        <time>1970-01-01T03:11:51Z</time>
      </trkpt>
      <trkpt lat="42.323842" lon="-8.805202">
        <ele>96.938</ele>
        <time>1970-01-01T03:13:04Z</time>
      </trkpt>
      <trkpt lat="42.324451" lon="-8.804186">
        <ele>106.08</ele>
        <time>1970-01-01T03:14:00Z</time>
      </trkpt>
      <trkpt lat="42.324659" lon="-8.804138">
        <ele>107.899</ele>
        <time>1970-01-01T03:14:10Z</time>
      </trkpt>
      <trkpt lat="42.32525" lon="-8.804607">
        <ele>108.876</ele>
        <time>1970-01-01T03:14:41Z</time>
      </trkpt>
      <trkpt lat="42.325382" lon="-8.804274">
        <ele>109.696</ele>
        <time>1970-01-01T03:14:51Z</time>
      </trkpt>
      <trkpt lat="42.325305" lon="-8.803977">
        <ele>109.831</ele>
        <time>1970-01-01T03:15:04Z</time>
      </trkpt>
    </trkseg>
  </trk>
</gpx>
